<?xml version="1.0" encoding="UTF-8" standalone="no" ?>
<gpx xmlns="http://www.topografix.com/GPX/1/1" xmlns:xsi="http://www.w3.org/2001/XMLSchema-instance" xsi:schemaLocation="http://www.topografix.com/GPX/1/1 http://www.topografix.com/GPX/1/1/gpx.xsd" version="1.1" creator="VisuGPX - https://www.visugpx.com">
  <metadata>
    <name>Roue d\\\'Or Muyoise: Reconnaissance VTT Rando de Noël 2012</name>
    <desc><![CDATA[1ere phase de la reconnaissance pour la randonnée de Noël.
Roue d\\\'Or Muyoise]]></desc>
  </metadata>
  <trk>
    <name><![CDATA[2012-10-21 08:35]]></name>
    <desc><![CDATA[<h1>OruxMaps</h1><br /><hr align="center" width="480" style="height: 2px; width: 517px"/><h2>Nom: 2012-10-21 08:35</h2><br /><p>Temps de départ: 10/21/2012 08:35</p><p>Temps d'arrivée: 10/22/2012 11:31</p><p>Distance: 32,8 km (02:55)</p><p>Temps déplacement: 02:07</p><p>Vitesse moyenne: 11,2 km/h</p><p>Vitesse moyenne: 15,5 km/h</p><p>Vitess Max.: 36,5 km/h</p><p>Altitude minimale: 16 m</p><p>Altitude maximale: 176 m</p><p>Vitesse d'élévation: 289,8 m/h</p><p>Vitesse de descente: -461,1 m/h</p><p>Gain Altitude: 408 m</p><p>Perte Altitude: -412 m</p><p>Temps d'élévation: 01:24</p><p>Temps de descente: 00:53</p><hr align="center" width="480" style="height: 2px; width: 517px"/>]]></desc>
    <trkseg>
      <trkpt lat="43.50477" lon="6.59038">
        <ele>107</ele>
        <time>2012-10-22T06:35:47Z</time>
      </trkpt>
      <trkpt lat="43.50495" lon="6.59032">
        <ele>82.49852</ele>
        <time>2012-10-22T06:36:10Z</time>
      </trkpt>
      <trkpt lat="43.50514" lon="6.5903">
        <ele>86.00719</ele>
        <time>2012-10-22T06:36:13Z</time>
      </trkpt>
      <trkpt lat="43.50535" lon="6.59026">
        <ele>86.581154</ele>
        <time>2012-10-22T06:36:16Z</time>
      </trkpt>
      <trkpt lat="43.50558" lon="6.59023">
        <ele>87.35455</ele>
        <time>2012-10-22T06:36:19Z</time>
      </trkpt>
      <trkpt lat="43.50582" lon="6.5902">
        <ele>83.774574</ele>
        <time>2012-10-22T06:36:22Z</time>
      </trkpt>
      <trkpt lat="43.50607" lon="6.59016">
        <ele>82.858025</ele>
        <time>2012-10-22T06:36:25Z</time>
      </trkpt>
      <trkpt lat="43.5063" lon="6.59011">
        <ele>82.39323</ele>
        <time>2012-10-22T06:36:28Z</time>
      </trkpt>
      <trkpt lat="43.50654" lon="6.59007">
        <ele>82.52527</ele>
        <time>2012-10-22T06:36:31Z</time>
      </trkpt>
      <trkpt lat="43.50677" lon="6.59003">
        <ele>83.627846</ele>
        <time>2012-10-22T06:36:34Z</time>
      </trkpt>
      <trkpt lat="43.50699" lon="6.58997">
        <ele>84.85862</ele>
        <time>2012-10-22T06:36:37Z</time>
      </trkpt>
      <trkpt lat="43.50723" lon="6.58987">
        <ele>85.01848</ele>
        <time>2012-10-22T06:36:40Z</time>
      </trkpt>
      <trkpt lat="43.50745" lon="6.58977">
        <ele>83.78905</ele>
        <time>2012-10-22T06:36:43Z</time>
      </trkpt>
      <trkpt lat="43.50766" lon="6.58962">
        <ele>81.3485</ele>
        <time>2012-10-22T06:36:46Z</time>
      </trkpt>
      <trkpt lat="43.50783" lon="6.58946">
        <ele>81.115776</ele>
        <time>2012-10-22T06:36:49Z</time>
      </trkpt>
      <trkpt lat="43.50802" lon="6.58935">
        <ele>82.20509</ele>
        <time>2012-10-22T06:36:52Z</time>
      </trkpt>
      <trkpt lat="43.50821" lon="6.58931">
        <ele>83.60215</ele>
        <time>2012-10-22T06:36:55Z</time>
      </trkpt>
      <trkpt lat="43.50842" lon="6.5893">
        <ele>85.56653</ele>
        <time>2012-10-22T06:36:58Z</time>
      </trkpt>
      <trkpt lat="43.50863" lon="6.58929">
        <ele>85.676506</ele>
        <time>2012-10-22T06:37:01Z</time>
      </trkpt>
      <trkpt lat="43.50883" lon="6.58929">
        <ele>86.62915</ele>
        <time>2012-10-22T06:37:04Z</time>
      </trkpt>
      <trkpt lat="43.50903" lon="6.58928">
        <ele>86.15605</ele>
        <time>2012-10-22T06:37:07Z</time>
      </trkpt>
      <trkpt lat="43.50923" lon="6.58928">
        <ele>85.597084</ele>
        <time>2012-10-22T06:37:10Z</time>
      </trkpt>
      <trkpt lat="43.50941" lon="6.58927">
        <ele>86.51752</ele>
        <time>2012-10-22T06:37:13Z</time>
      </trkpt>
      <trkpt lat="43.50961" lon="6.58924">
        <ele>87.18708</ele>
        <time>2012-10-22T06:37:16Z</time>
      </trkpt>
      <trkpt lat="43.50981" lon="6.5892">
        <ele>88.09455</ele>
        <time>2012-10-22T06:37:19Z</time>
      </trkpt>
      <trkpt lat="43.50999" lon="6.58915">
        <ele>88.61801</ele>
        <time>2012-10-22T06:37:22Z</time>
      </trkpt>
      <trkpt lat="43.51021" lon="6.58907">
        <ele>88.58226</ele>
        <time>2012-10-22T06:37:26Z</time>
      </trkpt>
      <trkpt lat="43.51042" lon="6.5889">
        <ele>87.50455</ele>
        <time>2012-10-22T06:37:30Z</time>
      </trkpt>
      <trkpt lat="43.51059" lon="6.58873">
        <ele>87.21285</ele>
        <time>2012-10-22T06:37:33Z</time>
      </trkpt>
      <trkpt lat="43.51074" lon="6.58855">
        <ele>87.91792</ele>
        <time>2012-10-22T06:37:36Z</time>
      </trkpt>
      <trkpt lat="43.51088" lon="6.58837">
        <ele>88.40287</ele>
        <time>2012-10-22T06:37:39Z</time>
      </trkpt>
      <trkpt lat="43.51103" lon="6.5882">
        <ele>88.060585</ele>
        <time>2012-10-22T06:37:42Z</time>
      </trkpt>
      <trkpt lat="43.51119" lon="6.58801">
        <ele>88.96306</ele>
        <time>2012-10-22T06:37:45Z</time>
      </trkpt>
      <trkpt lat="43.51134" lon="6.58782">
        <ele>89.01566</ele>
        <time>2012-10-22T06:37:48Z</time>
      </trkpt>
      <trkpt lat="43.51147" lon="6.58762">
        <ele>88.42848</ele>
        <time>2012-10-22T06:37:51Z</time>
      </trkpt>
      <trkpt lat="43.5116" lon="6.58736">
        <ele>87.93076</ele>
        <time>2012-10-22T06:37:54Z</time>
      </trkpt>
      <trkpt lat="43.51171" lon="6.58712">
        <ele>87.064545</ele>
        <time>2012-10-22T06:37:57Z</time>
      </trkpt>
      <trkpt lat="43.51183" lon="6.58693">
        <ele>87.71473</ele>
        <time>2012-10-22T06:38:00Z</time>
      </trkpt>
      <trkpt lat="43.51202" lon="6.58673">
        <ele>90.54255</ele>
        <time>2012-10-22T06:38:04Z</time>
      </trkpt>
      <trkpt lat="43.51219" lon="6.58661">
        <ele>92.213264</ele>
        <time>2012-10-22T06:38:07Z</time>
      </trkpt>
      <trkpt lat="43.51238" lon="6.58661">
        <ele>91.7931</ele>
        <time>2012-10-22T06:38:10Z</time>
      </trkpt>
      <trkpt lat="43.51257" lon="6.58668">
        <ele>91.33459</ele>
        <time>2012-10-22T06:38:13Z</time>
      </trkpt>
      <trkpt lat="43.51278" lon="6.58678">
        <ele>91.39115</ele>
        <time>2012-10-22T06:38:16Z</time>
      </trkpt>
      <trkpt lat="43.51295" lon="6.58687">
        <ele>91.165016</ele>
        <time>2012-10-22T06:38:19Z</time>
      </trkpt>
      <trkpt lat="43.51315" lon="6.58695">
        <ele>90.21237</ele>
        <time>2012-10-22T06:38:23Z</time>
      </trkpt>
      <trkpt lat="43.51334" lon="6.58707">
        <ele>89.23907</ele>
        <time>2012-10-22T06:38:27Z</time>
      </trkpt>
      <trkpt lat="43.51349" lon="6.58722">
        <ele>87.87252</ele>
        <time>2012-10-22T06:38:31Z</time>
      </trkpt>
      <trkpt lat="43.51355" lon="6.58746">
        <ele>92.20136</ele>
        <time>2012-10-22T06:38:39Z</time>
      </trkpt>
      <trkpt lat="43.51335" lon="6.58756">
        <ele>94.01215</ele>
        <time>2012-10-22T06:38:45Z</time>
      </trkpt>
      <trkpt lat="43.51318" lon="6.58768">
        <ele>93.92769</ele>
        <time>2012-10-22T06:38:50Z</time>
      </trkpt>
      <trkpt lat="43.513" lon="6.58783">
        <ele>96.58929</ele>
        <time>2012-10-22T06:38:55Z</time>
      </trkpt>
      <trkpt lat="43.51283" lon="6.58794">
        <ele>98.40005</ele>
        <time>2012-10-22T06:39:01Z</time>
      </trkpt>
      <trkpt lat="43.51264" lon="6.58801">
        <ele>98.3251</ele>
        <time>2012-10-22T06:39:07Z</time>
      </trkpt>
      <trkpt lat="43.51247" lon="6.58793">
        <ele>95.05599</ele>
        <time>2012-10-22T06:39:13Z</time>
      </trkpt>
      <trkpt lat="43.51226" lon="6.58785">
        <ele>91.90457</ele>
        <time>2012-10-22T06:39:22Z</time>
      </trkpt>
      <trkpt lat="43.51216" lon="6.58807">
        <ele>101.62315</ele>
        <time>2012-10-22T06:39:28Z</time>
      </trkpt>
      <trkpt lat="43.51231" lon="6.58821">
        <ele>102.67327</ele>
        <time>2012-10-22T06:39:33Z</time>
      </trkpt>
      <trkpt lat="43.51248" lon="6.58835">
        <ele>103.46543</ele>
        <time>2012-10-22T06:39:38Z</time>
      </trkpt>
      <trkpt lat="43.51264" lon="6.58854">
        <ele>103.60799</ele>
        <time>2012-10-22T06:39:44Z</time>
      </trkpt>
      <trkpt lat="43.51272" lon="6.58876">
        <ele>105.0584</ele>
        <time>2012-10-22T06:39:50Z</time>
      </trkpt>
      <trkpt lat="43.51275" lon="6.58901">
        <ele>108.81117</ele>
        <time>2012-10-22T06:39:56Z</time>
      </trkpt>
      <trkpt lat="43.51278" lon="6.58928">
        <ele>108.58649</ele>
        <time>2012-10-22T06:40:03Z</time>
      </trkpt>
      <trkpt lat="43.51286" lon="6.58954">
        <ele>111.46742</ele>
        <time>2012-10-22T06:40:09Z</time>
      </trkpt>
      <trkpt lat="43.51292" lon="6.5898">
        <ele>109.1744</ele>
        <time>2012-10-22T06:40:14Z</time>
      </trkpt>
      <trkpt lat="43.51289" lon="6.59006">
        <ele>107.129425</ele>
        <time>2012-10-22T06:40:20Z</time>
      </trkpt>
      <trkpt lat="43.51282" lon="6.59036">
        <ele>109.20845</ele>
        <time>2012-10-22T06:40:25Z</time>
      </trkpt>
      <trkpt lat="43.5127" lon="6.59059">
        <ele>111.690956</ele>
        <time>2012-10-22T06:40:29Z</time>
      </trkpt>
      <trkpt lat="43.51251" lon="6.59074">
        <ele>111.49209</ele>
        <time>2012-10-22T06:40:34Z</time>
      </trkpt>
      <trkpt lat="43.51235" lon="6.59093">
        <ele>107.78267</ele>
        <time>2012-10-22T06:40:41Z</time>
      </trkpt>
      <trkpt lat="43.51225" lon="6.59126">
        <ele>108.97932</ele>
        <time>2012-10-22T06:40:55Z</time>
      </trkpt>
      <trkpt lat="43.51219" lon="6.59151">
        <ele>113.2578</ele>
        <time>2012-10-22T06:41:02Z</time>
      </trkpt>
      <trkpt lat="43.5121" lon="6.59176">
        <ele>115.92141</ele>
        <time>2012-10-22T06:41:06Z</time>
      </trkpt>
      <trkpt lat="43.51204" lon="6.59205">
        <ele>115.98211</ele>
        <time>2012-10-22T06:41:12Z</time>
      </trkpt>
      <trkpt lat="43.51197" lon="6.5923">
        <ele>115.679344</ele>
        <time>2012-10-22T06:41:17Z</time>
      </trkpt>
      <trkpt lat="43.51189" lon="6.59257">
        <ele>114.952225</ele>
        <time>2012-10-22T06:41:22Z</time>
      </trkpt>
      <trkpt lat="43.51185" lon="6.59288">
        <ele>114.92714</ele>
        <time>2012-10-22T06:41:27Z</time>
      </trkpt>
      <trkpt lat="43.51185" lon="6.59314">
        <ele>116.172386</ele>
        <time>2012-10-22T06:41:30Z</time>
      </trkpt>
      <trkpt lat="43.5118" lon="6.59343">
        <ele>113.36415</ele>
        <time>2012-10-22T06:41:35Z</time>
      </trkpt>
      <trkpt lat="43.51176" lon="6.59373">
        <ele>110.4331</ele>
        <time>2012-10-22T06:41:40Z</time>
      </trkpt>
      <trkpt lat="43.51177" lon="6.59401">
        <ele>110.28156</ele>
        <time>2012-10-22T06:41:44Z</time>
      </trkpt>
      <trkpt lat="43.51175" lon="6.59431">
        <ele>110.85471</ele>
        <time>2012-10-22T06:41:48Z</time>
      </trkpt>
      <trkpt lat="43.51178" lon="6.59458">
        <ele>109.11419</ele>
        <time>2012-10-22T06:41:52Z</time>
      </trkpt>
      <trkpt lat="43.5118" lon="6.59486">
        <ele>109.65332</ele>
        <time>2012-10-22T06:41:56Z</time>
      </trkpt>
      <trkpt lat="43.51183" lon="6.59512">
        <ele>112.60816</ele>
        <time>2012-10-22T06:42:01Z</time>
      </trkpt>
      <trkpt lat="43.51167" lon="6.59527">
        <ele>112.825584</ele>
        <time>2012-10-22T06:42:20Z</time>
      </trkpt>
      <trkpt lat="43.51169" lon="6.59552">
        <ele>121.14634</ele>
        <time>2012-10-22T06:42:48Z</time>
      </trkpt>
      <trkpt lat="43.51187" lon="6.59562">
        <ele>121.986084</ele>
        <time>2012-10-22T06:42:55Z</time>
      </trkpt>
      <trkpt lat="43.51206" lon="6.59565">
        <ele>121.529945</ele>
        <time>2012-10-22T06:43:02Z</time>
      </trkpt>
      <trkpt lat="43.51227" lon="6.59563">
        <ele>121.937256</ele>
        <time>2012-10-22T06:43:09Z</time>
      </trkpt>
      <trkpt lat="43.51246" lon="6.59571">
        <ele>123.98133</ele>
        <time>2012-10-22T06:43:17Z</time>
      </trkpt>
      <trkpt lat="43.51263" lon="6.59587">
        <ele>126.52723</ele>
        <time>2012-10-22T06:43:25Z</time>
      </trkpt>
      <trkpt lat="43.51274" lon="6.5961">
        <ele>126.49939</ele>
        <time>2012-10-22T06:43:32Z</time>
      </trkpt>
      <trkpt lat="43.51287" lon="6.59628">
        <ele>128.1111</ele>
        <time>2012-10-22T06:43:38Z</time>
      </trkpt>
      <trkpt lat="43.51299" lon="6.59651">
        <ele>129.72607</ele>
        <time>2012-10-22T06:43:45Z</time>
      </trkpt>
      <trkpt lat="43.51301" lon="6.59678">
        <ele>130.77327</ele>
        <time>2012-10-22T06:43:51Z</time>
      </trkpt>
      <trkpt lat="43.51302" lon="6.59707">
        <ele>130.13762</ele>
        <time>2012-10-22T06:43:57Z</time>
      </trkpt>
      <trkpt lat="43.51303" lon="6.59734">
        <ele>130.38812</ele>
        <time>2012-10-22T06:44:02Z</time>
      </trkpt>
      <trkpt lat="43.51305" lon="6.59762">
        <ele>131.53839</ele>
        <time>2012-10-22T06:44:07Z</time>
      </trkpt>
      <trkpt lat="43.51317" lon="6.59782">
        <ele>133.06091</ele>
        <time>2012-10-22T06:44:13Z</time>
      </trkpt>
      <trkpt lat="43.51318" lon="6.5981">
        <ele>134.58958</ele>
        <time>2012-10-22T06:44:21Z</time>
      </trkpt>
      <trkpt lat="43.51316" lon="6.59836">
        <ele>137.40256</ele>
        <time>2012-10-22T06:44:28Z</time>
      </trkpt>
      <trkpt lat="43.51324" lon="6.59862">
        <ele>138.43295</ele>
        <time>2012-10-22T06:44:35Z</time>
      </trkpt>
      <trkpt lat="43.51328" lon="6.59889">
        <ele>137.8178</ele>
        <time>2012-10-22T06:44:42Z</time>
      </trkpt>
      <trkpt lat="43.51333" lon="6.59915">
        <ele>139.55229</ele>
        <time>2012-10-22T06:44:48Z</time>
      </trkpt>
      <trkpt lat="43.51339" lon="6.59939">
        <ele>139.23672</ele>
        <time>2012-10-22T06:44:54Z</time>
      </trkpt>
      <trkpt lat="43.51347" lon="6.59962">
        <ele>140.24232</ele>
        <time>2012-10-22T06:45:00Z</time>
      </trkpt>
      <trkpt lat="43.51358" lon="6.59987">
        <ele>142.59808</ele>
        <time>2012-10-22T06:45:07Z</time>
      </trkpt>
      <trkpt lat="43.5137" lon="6.6001">
        <ele>141.85425</ele>
        <time>2012-10-22T06:45:13Z</time>
      </trkpt>
      <trkpt lat="43.51375" lon="6.60034">
        <ele>140.95369</ele>
        <time>2012-10-22T06:45:18Z</time>
      </trkpt>
      <trkpt lat="43.51359" lon="6.6005">
        <ele>140.99382</ele>
        <time>2012-10-22T06:45:25Z</time>
      </trkpt>
      <trkpt lat="43.51359" lon="6.60077">
        <ele>138.53365</ele>
        <time>2012-10-22T06:47:18Z</time>
      </trkpt>
      <trkpt lat="43.51367" lon="6.60101">
        <ele>138.45305</ele>
        <time>2012-10-22T06:47:26Z</time>
      </trkpt>
      <trkpt lat="43.51385" lon="6.60111">
        <ele>137.09482</ele>
        <time>2012-10-22T06:47:31Z</time>
      </trkpt>
      <trkpt lat="43.51397" lon="6.6013">
        <ele>135.99321</ele>
        <time>2012-10-22T06:47:36Z</time>
      </trkpt>
      <trkpt lat="43.51415" lon="6.60136">
        <ele>136.8704</ele>
        <time>2012-10-22T06:47:44Z</time>
      </trkpt>
      <trkpt lat="43.51419" lon="6.6016">
        <ele>136.39882</ele>
        <time>2012-10-22T06:47:50Z</time>
      </trkpt>
      <trkpt lat="43.51436" lon="6.60175">
        <ele>136.94716</ele>
        <time>2012-10-22T06:47:58Z</time>
      </trkpt>
      <trkpt lat="43.51453" lon="6.60185">
        <ele>137.50015</ele>
        <time>2012-10-22T06:48:03Z</time>
      </trkpt>
      <trkpt lat="43.51468" lon="6.602">
        <ele>138.56107</ele>
        <time>2012-10-22T06:48:08Z</time>
      </trkpt>
      <trkpt lat="43.51488" lon="6.60198">
        <ele>138.5373</ele>
        <time>2012-10-22T06:48:15Z</time>
      </trkpt>
      <trkpt lat="43.51506" lon="6.6019">
        <ele>138.92375</ele>
        <time>2012-10-22T06:48:21Z</time>
      </trkpt>
      <trkpt lat="43.51518" lon="6.60212">
        <ele>140.28757</ele>
        <time>2012-10-22T06:48:26Z</time>
      </trkpt>
      <trkpt lat="43.5153" lon="6.60231">
        <ele>139.2902</ele>
        <time>2012-10-22T06:48:30Z</time>
      </trkpt>
      <trkpt lat="43.51537" lon="6.60254">
        <ele>138.73636</ele>
        <time>2012-10-22T06:48:34Z</time>
      </trkpt>
      <trkpt lat="43.51546" lon="6.60276">
        <ele>137.08064</ele>
        <time>2012-10-22T06:48:38Z</time>
      </trkpt>
      <trkpt lat="43.51564" lon="6.60272">
        <ele>136.51466</ele>
        <time>2012-10-22T06:48:45Z</time>
      </trkpt>
      <trkpt lat="43.51581" lon="6.60257">
        <ele>136.72221</ele>
        <time>2012-10-22T06:48:51Z</time>
      </trkpt>
      <trkpt lat="43.516" lon="6.60254">
        <ele>137.07307</ele>
        <time>2012-10-22T06:48:59Z</time>
      </trkpt>
      <trkpt lat="43.51619" lon="6.60251">
        <ele>137.03784</ele>
        <time>2012-10-22T06:49:07Z</time>
      </trkpt>
      <trkpt lat="43.51635" lon="6.60239">
        <ele>138.34535</ele>
        <time>2012-10-22T06:49:13Z</time>
      </trkpt>
      <trkpt lat="43.51653" lon="6.60228">
        <ele>140.02913</ele>
        <time>2012-10-22T06:49:20Z</time>
      </trkpt>
      <trkpt lat="43.51671" lon="6.60238">
        <ele>139.38092</ele>
        <time>2012-10-22T06:49:26Z</time>
      </trkpt>
      <trkpt lat="43.51691" lon="6.60243">
        <ele>139.5053</ele>
        <time>2012-10-22T06:49:32Z</time>
      </trkpt>
      <trkpt lat="43.51711" lon="6.6025">
        <ele>139.6854</ele>
        <time>2012-10-22T06:49:38Z</time>
      </trkpt>
      <trkpt lat="43.51729" lon="6.60267">
        <ele>138.90971</ele>
        <time>2012-10-22T06:49:43Z</time>
      </trkpt>
      <trkpt lat="43.51745" lon="6.60282">
        <ele>138.544</ele>
        <time>2012-10-22T06:49:48Z</time>
      </trkpt>
      <trkpt lat="43.51752" lon="6.60307">
        <ele>137.69159</ele>
        <time>2012-10-22T06:49:53Z</time>
      </trkpt>
      <trkpt lat="43.5176" lon="6.60332">
        <ele>140.2664</ele>
        <time>2012-10-22T06:49:59Z</time>
      </trkpt>
      <trkpt lat="43.51778" lon="6.60341">
        <ele>143.64505</ele>
        <time>2012-10-22T06:50:10Z</time>
      </trkpt>
      <trkpt lat="43.51796" lon="6.60338">
        <ele>143.01448</ele>
        <time>2012-10-22T06:50:19Z</time>
      </trkpt>
      <trkpt lat="43.51815" lon="6.60334">
        <ele>140.11598</ele>
        <time>2012-10-22T06:50:29Z</time>
      </trkpt>
      <trkpt lat="43.51833" lon="6.60335">
        <ele>141.99922</ele>
        <time>2012-10-22T06:50:37Z</time>
      </trkpt>
      <trkpt lat="43.51852" lon="6.60332">
        <ele>144.40543</ele>
        <time>2012-10-22T06:50:45Z</time>
      </trkpt>
      <trkpt lat="43.51871" lon="6.60327">
        <ele>146.83948</ele>
        <time>2012-10-22T06:50:54Z</time>
      </trkpt>
      <trkpt lat="43.5189" lon="6.60326">
        <ele>149.22122</ele>
        <time>2012-10-22T06:51:22Z</time>
      </trkpt>
      <trkpt lat="43.51909" lon="6.60324">
        <ele>151.78606</ele>
        <time>2012-10-22T06:51:37Z</time>
      </trkpt>
      <trkpt lat="43.51928" lon="6.60322">
        <ele>153.66608</ele>
        <time>2012-10-22T06:51:44Z</time>
      </trkpt>
      <trkpt lat="43.51948" lon="6.6032">
        <ele>154.96257</ele>
        <time>2012-10-22T06:51:51Z</time>
      </trkpt>
      <trkpt lat="43.51968" lon="6.60318">
        <ele>155.43251</ele>
        <time>2012-10-22T06:51:58Z</time>
      </trkpt>
      <trkpt lat="43.51989" lon="6.60315">
        <ele>156.60785</ele>
        <time>2012-10-22T06:52:05Z</time>
      </trkpt>
      <trkpt lat="43.52007" lon="6.60312">
        <ele>157.75833</ele>
        <time>2012-10-22T06:52:11Z</time>
      </trkpt>
      <trkpt lat="43.52028" lon="6.60309">
        <ele>158.3415</ele>
        <time>2012-10-22T06:52:17Z</time>
      </trkpt>
      <trkpt lat="43.52046" lon="6.60306">
        <ele>156.84634</ele>
        <time>2012-10-22T06:52:21Z</time>
      </trkpt>
      <trkpt lat="43.52064" lon="6.60303">
        <ele>156.12717</ele>
        <time>2012-10-22T06:52:25Z</time>
      </trkpt>
      <trkpt lat="43.52085" lon="6.60299">
        <ele>156.20108</ele>
        <time>2012-10-22T06:52:30Z</time>
      </trkpt>
      <trkpt lat="43.52105" lon="6.60298">
        <ele>155.27916</ele>
        <time>2012-10-22T06:52:35Z</time>
      </trkpt>
      <trkpt lat="43.52125" lon="6.60296">
        <ele>156.77473</ele>
        <time>2012-10-22T06:52:45Z</time>
      </trkpt>
      <trkpt lat="43.52145" lon="6.60294">
        <ele>157.04869</ele>
        <time>2012-10-22T06:52:53Z</time>
      </trkpt>
      <trkpt lat="43.52165" lon="6.60296">
        <ele>156.65027</ele>
        <time>2012-10-22T06:52:59Z</time>
      </trkpt>
      <trkpt lat="43.52163" lon="6.60326">
        <ele>156.74013</ele>
        <time>2012-10-22T06:53:06Z</time>
      </trkpt>
      <trkpt lat="43.52165" lon="6.60355">
        <ele>155.25063</ele>
        <time>2012-10-22T06:53:12Z</time>
      </trkpt>
      <trkpt lat="43.52163" lon="6.60381">
        <ele>151.65105</ele>
        <time>2012-10-22T06:53:18Z</time>
      </trkpt>
      <trkpt lat="43.52155" lon="6.60404">
        <ele>153.07051</ele>
        <time>2012-10-22T06:53:23Z</time>
      </trkpt>
      <trkpt lat="43.52155" lon="6.6043">
        <ele>151.17567</ele>
        <time>2012-10-22T06:53:30Z</time>
      </trkpt>
      <trkpt lat="43.52149" lon="6.60454">
        <ele>151.65944</ele>
        <time>2012-10-22T06:53:36Z</time>
      </trkpt>
      <trkpt lat="43.52145" lon="6.60482">
        <ele>155.02972</ele>
        <time>2012-10-22T06:53:42Z</time>
      </trkpt>
      <trkpt lat="43.52132" lon="6.60503">
        <ele>157.70041</ele>
        <time>2012-10-22T06:53:47Z</time>
      </trkpt>
      <trkpt lat="43.52122" lon="6.60523">
        <ele>157.01274</ele>
        <time>2012-10-22T06:53:54Z</time>
      </trkpt>
      <trkpt lat="43.52108" lon="6.6054">
        <ele>154.7286</ele>
        <time>2012-10-22T06:53:59Z</time>
      </trkpt>
      <trkpt lat="43.52096" lon="6.60558">
        <ele>152.17584</ele>
        <time>2012-10-22T06:54:03Z</time>
      </trkpt>
      <trkpt lat="43.52085" lon="6.60582">
        <ele>151.89287</ele>
        <time>2012-10-22T06:54:09Z</time>
      </trkpt>
      <trkpt lat="43.5209" lon="6.60608">
        <ele>152.80295</ele>
        <time>2012-10-22T06:54:15Z</time>
      </trkpt>
      <trkpt lat="43.52091" lon="6.60635">
        <ele>151.1494</ele>
        <time>2012-10-22T06:54:23Z</time>
      </trkpt>
      <trkpt lat="43.52092" lon="6.6066">
        <ele>149.04181</ele>
        <time>2012-10-22T06:54:46Z</time>
      </trkpt>
      <trkpt lat="43.52087" lon="6.60685">
        <ele>151.15443</ele>
        <time>2012-10-22T06:55:18Z</time>
      </trkpt>
      <trkpt lat="43.52091" lon="6.60712">
        <ele>150.34402</ele>
        <time>2012-10-22T06:55:36Z</time>
      </trkpt>
      <trkpt lat="43.5209" lon="6.60737">
        <ele>149.37167</ele>
        <time>2012-10-22T06:55:43Z</time>
      </trkpt>
      <trkpt lat="43.52085" lon="6.60764">
        <ele>147.1712</ele>
        <time>2012-10-22T06:55:48Z</time>
      </trkpt>
      <trkpt lat="43.52085" lon="6.6079">
        <ele>150.35504</ele>
        <time>2012-10-22T06:56:14Z</time>
      </trkpt>
      <trkpt lat="43.52088" lon="6.60814">
        <ele>153.91327</ele>
        <time>2012-10-22T06:56:33Z</time>
      </trkpt>
      <trkpt lat="43.52089" lon="6.60841">
        <ele>162.2153</ele>
        <time>2012-10-22T06:57:02Z</time>
      </trkpt>
      <trkpt lat="43.52094" lon="6.60865">
        <ele>163.72974</ele>
        <time>2012-10-22T06:57:11Z</time>
      </trkpt>
      <trkpt lat="43.52103" lon="6.60887">
        <ele>162.62453</ele>
        <time>2012-10-22T06:57:28Z</time>
      </trkpt>
      <trkpt lat="43.52114" lon="6.60909">
        <ele>162.94292</ele>
        <time>2012-10-22T06:58:12Z</time>
      </trkpt>
      <trkpt lat="43.5213" lon="6.60924">
        <ele>163.23463</ele>
        <time>2012-10-22T06:58:19Z</time>
      </trkpt>
      <trkpt lat="43.52147" lon="6.60938">
        <ele>163.97536</ele>
        <time>2012-10-22T06:58:25Z</time>
      </trkpt>
      <trkpt lat="43.52164" lon="6.60948">
        <ele>163.99753</ele>
        <time>2012-10-22T06:58:33Z</time>
      </trkpt>
      <trkpt lat="43.52181" lon="6.60958">
        <ele>165.11838</ele>
        <time>2012-10-22T06:58:40Z</time>
      </trkpt>
      <trkpt lat="43.522" lon="6.60965">
        <ele>164.722</ele>
        <time>2012-10-22T06:58:46Z</time>
      </trkpt>
      <trkpt lat="43.52215" lon="6.6098">
        <ele>163.81929</ele>
        <time>2012-10-22T07:01:25Z</time>
      </trkpt>
      <trkpt lat="43.52204" lon="6.61">
        <ele>160.7822</ele>
        <time>2012-10-22T07:07:05Z</time>
      </trkpt>
      <trkpt lat="43.5219" lon="6.61021">
        <ele>165.84392</ele>
        <time>2012-10-22T07:07:14Z</time>
      </trkpt>
      <trkpt lat="43.52181" lon="6.61042">
        <ele>167.78716</ele>
        <time>2012-10-22T07:07:20Z</time>
      </trkpt>
      <trkpt lat="43.52171" lon="6.61064">
        <ele>168.46219</ele>
        <time>2012-10-22T07:07:25Z</time>
      </trkpt>
      <trkpt lat="43.52161" lon="6.61088">
        <ele>168.87238</ele>
        <time>2012-10-22T07:07:30Z</time>
      </trkpt>
      <trkpt lat="43.52155" lon="6.61116">
        <ele>168.28612</ele>
        <time>2012-10-22T07:07:35Z</time>
      </trkpt>
      <trkpt lat="43.52146" lon="6.61144">
        <ele>167.3052</ele>
        <time>2012-10-22T07:07:40Z</time>
      </trkpt>
      <trkpt lat="43.52132" lon="6.61161">
        <ele>167.09657</ele>
        <time>2012-10-22T07:07:44Z</time>
      </trkpt>
      <trkpt lat="43.5211" lon="6.61173">
        <ele>167.27664</ele>
        <time>2012-10-22T07:07:48Z</time>
      </trkpt>
      <trkpt lat="43.52088" lon="6.61185">
        <ele>166.15395</ele>
        <time>2012-10-22T07:07:52Z</time>
      </trkpt>
      <trkpt lat="43.52071" lon="6.61194">
        <ele>165.48682</ele>
        <time>2012-10-22T07:07:55Z</time>
      </trkpt>
      <trkpt lat="43.52051" lon="6.61207">
        <ele>164.47044</ele>
        <time>2012-10-22T07:07:59Z</time>
      </trkpt>
      <trkpt lat="43.5203" lon="6.6122">
        <ele>163.21526</ele>
        <time>2012-10-22T07:08:03Z</time>
      </trkpt>
      <trkpt lat="43.52009" lon="6.6123">
        <ele>161.3548</ele>
        <time>2012-10-22T07:08:08Z</time>
      </trkpt>
      <trkpt lat="43.5199" lon="6.61243">
        <ele>159.60054</ele>
        <time>2012-10-22T07:08:12Z</time>
      </trkpt>
      <trkpt lat="43.51972" lon="6.61262">
        <ele>158.94002</ele>
        <time>2012-10-22T07:08:16Z</time>
      </trkpt>
      <trkpt lat="43.51958" lon="6.6128">
        <ele>157.95908</ele>
        <time>2012-10-22T07:08:19Z</time>
      </trkpt>
      <trkpt lat="43.51942" lon="6.61296">
        <ele>156.29173</ele>
        <time>2012-10-22T07:08:23Z</time>
      </trkpt>
      <trkpt lat="43.51922" lon="6.613">
        <ele>156.7759</ele>
        <time>2012-10-22T07:08:27Z</time>
      </trkpt>
      <trkpt lat="43.51902" lon="6.6131">
        <ele>156.6791</ele>
        <time>2012-10-22T07:08:31Z</time>
      </trkpt>
      <trkpt lat="43.51883" lon="6.61326">
        <ele>155.53128</ele>
        <time>2012-10-22T07:08:35Z</time>
      </trkpt>
      <trkpt lat="43.51866" lon="6.61339">
        <ele>154.58998</ele>
        <time>2012-10-22T07:08:39Z</time>
      </trkpt>
      <trkpt lat="43.51847" lon="6.61334">
        <ele>154.04214</ele>
        <time>2012-10-22T07:08:43Z</time>
      </trkpt>
      <trkpt lat="43.51826" lon="6.61325">
        <ele>152.50162</ele>
        <time>2012-10-22T07:08:47Z</time>
      </trkpt>
      <trkpt lat="43.51805" lon="6.61309">
        <ele>151.33449</ele>
        <time>2012-10-22T07:08:51Z</time>
      </trkpt>
      <trkpt lat="43.51786" lon="6.61302">
        <ele>152.40674</ele>
        <time>2012-10-22T07:08:54Z</time>
      </trkpt>
      <trkpt lat="43.51768" lon="6.61302">
        <ele>151.9216</ele>
        <time>2012-10-22T07:08:57Z</time>
      </trkpt>
      <trkpt lat="43.51746" lon="6.61303">
        <ele>150.37317</ele>
        <time>2012-10-22T07:09:00Z</time>
      </trkpt>
      <trkpt lat="43.51725" lon="6.61304">
        <ele>151.23555</ele>
        <time>2012-10-22T07:09:03Z</time>
      </trkpt>
      <trkpt lat="43.51705" lon="6.6131">
        <ele>150.63063</ele>
        <time>2012-10-22T07:09:06Z</time>
      </trkpt>
      <trkpt lat="43.51685" lon="6.61326">
        <ele>147.51605</ele>
        <time>2012-10-22T07:09:09Z</time>
      </trkpt>
      <trkpt lat="43.5167" lon="6.61342">
        <ele>146.24896</ele>
        <time>2012-10-22T07:09:12Z</time>
      </trkpt>
      <trkpt lat="43.51655" lon="6.61358">
        <ele>145.19878</ele>
        <time>2012-10-22T07:09:15Z</time>
      </trkpt>
      <trkpt lat="43.51641" lon="6.61375">
        <ele>144.39636</ele>
        <time>2012-10-22T07:09:18Z</time>
      </trkpt>
      <trkpt lat="43.5163" lon="6.61403">
        <ele>142.75822</ele>
        <time>2012-10-22T07:09:22Z</time>
      </trkpt>
      <trkpt lat="43.51623" lon="6.6143">
        <ele>142.92351</ele>
        <time>2012-10-22T07:09:26Z</time>
      </trkpt>
      <trkpt lat="43.51614" lon="6.61452">
        <ele>142.5383</ele>
        <time>2012-10-22T07:09:30Z</time>
      </trkpt>
      <trkpt lat="43.5161" lon="6.61476">
        <ele>142.23717</ele>
        <time>2012-10-22T07:09:36Z</time>
      </trkpt>
      <trkpt lat="43.51617" lon="6.61501">
        <ele>144.51709</ele>
        <time>2012-10-22T07:09:51Z</time>
      </trkpt>
      <trkpt lat="43.51623" lon="6.61527">
        <ele>140.71478</ele>
        <time>2012-10-22T07:10:04Z</time>
      </trkpt>
      <trkpt lat="43.51631" lon="6.61553">
        <ele>142.0534</ele>
        <time>2012-10-22T07:10:09Z</time>
      </trkpt>
      <trkpt lat="43.51635" lon="6.61581">
        <ele>143.5244</ele>
        <time>2012-10-22T07:10:14Z</time>
      </trkpt>
      <trkpt lat="43.51627" lon="6.61609">
        <ele>146.92424</ele>
        <time>2012-10-22T07:10:19Z</time>
      </trkpt>
      <trkpt lat="43.51619" lon="6.61636">
        <ele>148.81805</ele>
        <time>2012-10-22T07:10:25Z</time>
      </trkpt>
      <trkpt lat="43.51612" lon="6.61663">
        <ele>149.21762</ele>
        <time>2012-10-22T07:10:31Z</time>
      </trkpt>
      <trkpt lat="43.51605" lon="6.61689">
        <ele>149.81433</ele>
        <time>2012-10-22T07:10:36Z</time>
      </trkpt>
      <trkpt lat="43.51597" lon="6.61716">
        <ele>149.52945</ele>
        <time>2012-10-22T07:10:42Z</time>
      </trkpt>
      <trkpt lat="43.51605" lon="6.61738">
        <ele>149.91626</ele>
        <time>2012-10-22T07:10:48Z</time>
      </trkpt>
      <trkpt lat="43.5162" lon="6.61752">
        <ele>151.05728</ele>
        <time>2012-10-22T07:10:53Z</time>
      </trkpt>
      <trkpt lat="43.51635" lon="6.61768">
        <ele>152.45988</ele>
        <time>2012-10-22T07:10:58Z</time>
      </trkpt>
      <trkpt lat="43.51642" lon="6.61793">
        <ele>151.70367</ele>
        <time>2012-10-22T07:11:04Z</time>
      </trkpt>
      <trkpt lat="43.51642" lon="6.61819">
        <ele>152.13574</ele>
        <time>2012-10-22T07:11:09Z</time>
      </trkpt>
      <trkpt lat="43.51643" lon="6.61847">
        <ele>153.30858</ele>
        <time>2012-10-22T07:11:13Z</time>
      </trkpt>
      <trkpt lat="43.51644" lon="6.61876">
        <ele>153.4492</ele>
        <time>2012-10-22T07:11:17Z</time>
      </trkpt>
      <trkpt lat="43.51646" lon="6.61906">
        <ele>152.423</ele>
        <time>2012-10-22T07:11:22Z</time>
      </trkpt>
      <trkpt lat="43.51644" lon="6.6193">
        <ele>153.07211</ele>
        <time>2012-10-22T07:11:28Z</time>
      </trkpt>
      <trkpt lat="43.51633" lon="6.61955">
        <ele>153.6648</ele>
        <time>2012-10-22T07:11:37Z</time>
      </trkpt>
      <trkpt lat="43.5163" lon="6.61982">
        <ele>152.1261</ele>
        <time>2012-10-22T07:11:44Z</time>
      </trkpt>
      <trkpt lat="43.5162" lon="6.62007">
        <ele>153.54515</ele>
        <time>2012-10-22T07:11:51Z</time>
      </trkpt>
      <trkpt lat="43.51623" lon="6.62033">
        <ele>154.93468</ele>
        <time>2012-10-22T07:11:57Z</time>
      </trkpt>
      <trkpt lat="43.51627" lon="6.62061">
        <ele>155.7313</ele>
        <time>2012-10-22T07:12:03Z</time>
      </trkpt>
      <trkpt lat="43.51632" lon="6.62087">
        <ele>157.5391</ele>
        <time>2012-10-22T07:12:09Z</time>
      </trkpt>
      <trkpt lat="43.51637" lon="6.62115">
        <ele>158.88062</ele>
        <time>2012-10-22T07:12:15Z</time>
      </trkpt>
      <trkpt lat="43.51644" lon="6.62138">
        <ele>157.95604</ele>
        <time>2012-10-22T07:12:20Z</time>
      </trkpt>
      <trkpt lat="43.51647" lon="6.62165">
        <ele>158.4912</ele>
        <time>2012-10-22T07:12:26Z</time>
      </trkpt>
      <trkpt lat="43.51652" lon="6.62191">
        <ele>158.90944</ele>
        <time>2012-10-22T07:12:32Z</time>
      </trkpt>
      <trkpt lat="43.51656" lon="6.62216">
        <ele>161.11768</ele>
        <time>2012-10-22T07:12:38Z</time>
      </trkpt>
      <trkpt lat="43.51661" lon="6.62243">
        <ele>162.12447</ele>
        <time>2012-10-22T07:12:45Z</time>
      </trkpt>
      <trkpt lat="43.51665" lon="6.62268">
        <ele>163.96527</ele>
        <time>2012-10-22T07:12:51Z</time>
      </trkpt>
      <trkpt lat="43.51679" lon="6.62286">
        <ele>164.81584</ele>
        <time>2012-10-22T07:12:57Z</time>
      </trkpt>
      <trkpt lat="43.51699" lon="6.62296">
        <ele>167.35823</ele>
        <time>2012-10-22T07:13:04Z</time>
      </trkpt>
      <trkpt lat="43.51718" lon="6.62307">
        <ele>166.75858</ele>
        <time>2012-10-22T07:13:10Z</time>
      </trkpt>
      <trkpt lat="43.51728" lon="6.6233">
        <ele>166.14111</ele>
        <time>2012-10-22T07:13:16Z</time>
      </trkpt>
      <trkpt lat="43.51739" lon="6.6235">
        <ele>167.91916</ele>
        <time>2012-10-22T07:13:22Z</time>
      </trkpt>
      <trkpt lat="43.51737" lon="6.62376">
        <ele>168.154</ele>
        <time>2012-10-22T07:13:29Z</time>
      </trkpt>
      <trkpt lat="43.51728" lon="6.624">
        <ele>167.52385</ele>
        <time>2012-10-22T07:13:34Z</time>
      </trkpt>
      <trkpt lat="43.51722" lon="6.62427">
        <ele>168.8206</ele>
        <time>2012-10-22T07:13:39Z</time>
      </trkpt>
      <trkpt lat="43.51716" lon="6.62452">
        <ele>170.40372</ele>
        <time>2012-10-22T07:13:44Z</time>
      </trkpt>
      <trkpt lat="43.51715" lon="6.62483">
        <ele>171.7296</ele>
        <time>2012-10-22T07:13:49Z</time>
      </trkpt>
      <trkpt lat="43.51712" lon="6.62513">
        <ele>172.1204</ele>
        <time>2012-10-22T07:13:54Z</time>
      </trkpt>
      <trkpt lat="43.51705" lon="6.62537">
        <ele>171.3545</ele>
        <time>2012-10-22T07:13:58Z</time>
      </trkpt>
      <trkpt lat="43.517" lon="6.62564">
        <ele>171.0067</ele>
        <time>2012-10-22T07:14:02Z</time>
      </trkpt>
      <trkpt lat="43.51697" lon="6.62593">
        <ele>170.89665</ele>
        <time>2012-10-22T07:14:06Z</time>
      </trkpt>
      <trkpt lat="43.51692" lon="6.62621">
        <ele>171.2173</ele>
        <time>2012-10-22T07:14:10Z</time>
      </trkpt>
      <trkpt lat="43.51689" lon="6.62649">
        <ele>171.86172</ele>
        <time>2012-10-22T07:14:14Z</time>
      </trkpt>
      <trkpt lat="43.51681" lon="6.62677">
        <ele>173.1125</ele>
        <time>2012-10-22T07:14:18Z</time>
      </trkpt>
      <trkpt lat="43.51676" lon="6.62705">
        <ele>173.5317</ele>
        <time>2012-10-22T07:14:22Z</time>
      </trkpt>
      <trkpt lat="43.51675" lon="6.62732">
        <ele>173.41432</ele>
        <time>2012-10-22T07:14:26Z</time>
      </trkpt>
      <trkpt lat="43.5167" lon="6.62759">
        <ele>172.69359</ele>
        <time>2012-10-22T07:14:30Z</time>
      </trkpt>
      <trkpt lat="43.51661" lon="6.62782">
        <ele>174.3093</ele>
        <time>2012-10-22T07:14:34Z</time>
      </trkpt>
      <trkpt lat="43.51653" lon="6.62812">
        <ele>176.79507</ele>
        <time>2012-10-22T07:14:39Z</time>
      </trkpt>
      <trkpt lat="43.51649" lon="6.62836">
        <ele>176.68517</ele>
        <time>2012-10-22T07:14:43Z</time>
      </trkpt>
      <trkpt lat="43.51642" lon="6.62863">
        <ele>174.56055</ele>
        <time>2012-10-22T07:14:47Z</time>
      </trkpt>
      <trkpt lat="43.51632" lon="6.62893">
        <ele>172.13048</ele>
        <time>2012-10-22T07:14:51Z</time>
      </trkpt>
      <trkpt lat="43.51626" lon="6.62917">
        <ele>171.61755</ele>
        <time>2012-10-22T07:14:54Z</time>
      </trkpt>
      <trkpt lat="43.51618" lon="6.62942">
        <ele>171.51053</ele>
        <time>2012-10-22T07:14:57Z</time>
      </trkpt>
      <trkpt lat="43.51609" lon="6.62966">
        <ele>171.7935</ele>
        <time>2012-10-22T07:15:00Z</time>
      </trkpt>
      <trkpt lat="43.51599" lon="6.62988">
        <ele>172.60039</ele>
        <time>2012-10-22T07:15:03Z</time>
      </trkpt>
      <trkpt lat="43.5159" lon="6.6301">
        <ele>172.1439</ele>
        <time>2012-10-22T07:15:06Z</time>
      </trkpt>
      <trkpt lat="43.51578" lon="6.63029">
        <ele>168.62497</ele>
        <time>2012-10-22T07:15:11Z</time>
      </trkpt>
      <trkpt lat="43.51562" lon="6.63042">
        <ele>169.38455</ele>
        <time>2012-10-22T07:17:25Z</time>
      </trkpt>
      <trkpt lat="43.51546" lon="6.63026">
        <ele>169.11456</ele>
        <time>2012-10-22T07:17:32Z</time>
      </trkpt>
      <trkpt lat="43.51529" lon="6.63011">
        <ele>172.00525</ele>
        <time>2012-10-22T07:17:38Z</time>
      </trkpt>
      <trkpt lat="43.51514" lon="6.6299">
        <ele>172.65457</ele>
        <time>2012-10-22T07:17:43Z</time>
      </trkpt>
      <trkpt lat="43.51498" lon="6.6297">
        <ele>170.64362</ele>
        <time>2012-10-22T07:17:48Z</time>
      </trkpt>
      <trkpt lat="43.51481" lon="6.62952">
        <ele>168.83646</ele>
        <time>2012-10-22T07:17:52Z</time>
      </trkpt>
      <trkpt lat="43.51464" lon="6.62935">
        <ele>168.26466</ele>
        <time>2012-10-22T07:17:56Z</time>
      </trkpt>
      <trkpt lat="43.51449" lon="6.62918">
        <ele>166.63062</ele>
        <time>2012-10-22T07:18:00Z</time>
      </trkpt>
      <trkpt lat="43.51435" lon="6.62892">
        <ele>161.68</ele>
        <time>2012-10-22T07:18:04Z</time>
      </trkpt>
      <trkpt lat="43.51424" lon="6.6287">
        <ele>159.8025</ele>
        <time>2012-10-22T07:18:07Z</time>
      </trkpt>
      <trkpt lat="43.51415" lon="6.62848">
        <ele>159.22919</ele>
        <time>2012-10-22T07:18:10Z</time>
      </trkpt>
      <trkpt lat="43.51408" lon="6.62826">
        <ele>158.26855</ele>
        <time>2012-10-22T07:18:13Z</time>
      </trkpt>
      <trkpt lat="43.514" lon="6.62802">
        <ele>156.70705</ele>
        <time>2012-10-22T07:18:16Z</time>
      </trkpt>
      <trkpt lat="43.51396" lon="6.62772">
        <ele>156.11824</ele>
        <time>2012-10-22T07:18:20Z</time>
      </trkpt>
      <trkpt lat="43.51392" lon="6.62747">
        <ele>156.28741</ele>
        <time>2012-10-22T07:18:24Z</time>
      </trkpt>
      <trkpt lat="43.51377" lon="6.62733">
        <ele>158.60532</ele>
        <time>2012-10-22T07:18:29Z</time>
      </trkpt>
      <trkpt lat="43.51366" lon="6.62713">
        <ele>158.4249</ele>
        <time>2012-10-22T07:18:34Z</time>
      </trkpt>
      <trkpt lat="43.51365" lon="6.62688">
        <ele>160.30594</ele>
        <time>2012-10-22T07:19:13Z</time>
      </trkpt>
      <trkpt lat="43.51362" lon="6.62662">
        <ele>157.23047</ele>
        <time>2012-10-22T07:20:20Z</time>
      </trkpt>
      <trkpt lat="43.51344" lon="6.62649">
        <ele>154.01001</ele>
        <time>2012-10-22T07:20:26Z</time>
      </trkpt>
      <trkpt lat="43.51333" lon="6.6263">
        <ele>153.8977</ele>
        <time>2012-10-22T07:20:30Z</time>
      </trkpt>
      <trkpt lat="43.51321" lon="6.62606">
        <ele>152.3849</ele>
        <time>2012-10-22T07:20:35Z</time>
      </trkpt>
      <trkpt lat="43.51311" lon="6.62584">
        <ele>149.48897</ele>
        <time>2012-10-22T07:20:39Z</time>
      </trkpt>
      <trkpt lat="43.51305" lon="6.62558">
        <ele>144.98106</ele>
        <time>2012-10-22T07:20:45Z</time>
      </trkpt>
      <trkpt lat="43.51295" lon="6.62534">
        <ele>141.33542</ele>
        <time>2012-10-22T07:20:52Z</time>
      </trkpt>
      <trkpt lat="43.51285" lon="6.6251">
        <ele>139.43117</ele>
        <time>2012-10-22T07:20:57Z</time>
      </trkpt>
      <trkpt lat="43.5127" lon="6.62492">
        <ele>138.01442</ele>
        <time>2012-10-22T07:21:02Z</time>
      </trkpt>
      <trkpt lat="43.51251" lon="6.62482">
        <ele>136.34464</ele>
        <time>2012-10-22T07:21:10Z</time>
      </trkpt>
      <trkpt lat="43.51233" lon="6.62478">
        <ele>135.67291</ele>
        <time>2012-10-22T07:21:16Z</time>
      </trkpt>
      <trkpt lat="43.51215" lon="6.62472">
        <ele>133.56886</ele>
        <time>2012-10-22T07:21:21Z</time>
      </trkpt>
      <trkpt lat="43.51198" lon="6.62458">
        <ele>132.60515</ele>
        <time>2012-10-22T07:21:27Z</time>
      </trkpt>
      <trkpt lat="43.51182" lon="6.62442">
        <ele>130.49225</ele>
        <time>2012-10-22T07:21:31Z</time>
      </trkpt>
      <trkpt lat="43.51164" lon="6.62431">
        <ele>131.12854</ele>
        <time>2012-10-22T07:21:36Z</time>
      </trkpt>
      <trkpt lat="43.51142" lon="6.62426">
        <ele>132.49379</ele>
        <time>2012-10-22T07:21:40Z</time>
      </trkpt>
      <trkpt lat="43.51122" lon="6.62417">
        <ele>133.27342</ele>
        <time>2012-10-22T07:21:44Z</time>
      </trkpt>
      <trkpt lat="43.51103" lon="6.62398">
        <ele>132.50839</ele>
        <time>2012-10-22T07:21:48Z</time>
      </trkpt>
      <trkpt lat="43.51088" lon="6.6238">
        <ele>131.63635</ele>
        <time>2012-10-22T07:21:51Z</time>
      </trkpt>
      <trkpt lat="43.51073" lon="6.62364">
        <ele>130.69034</ele>
        <time>2012-10-22T07:21:54Z</time>
      </trkpt>
      <trkpt lat="43.51055" lon="6.62347">
        <ele>130.65593</ele>
        <time>2012-10-22T07:21:58Z</time>
      </trkpt>
      <trkpt lat="43.51036" lon="6.62332">
        <ele>126.32655</ele>
        <time>2012-10-22T07:22:03Z</time>
      </trkpt>
      <trkpt lat="43.51022" lon="6.62351">
        <ele>128.27458</ele>
        <time>2012-10-22T07:22:13Z</time>
      </trkpt>
      <trkpt lat="43.51015" lon="6.62374">
        <ele>126.243126</ele>
        <time>2012-10-22T07:22:17Z</time>
      </trkpt>
      <trkpt lat="43.51007" lon="6.62402">
        <ele>123.19802</ele>
        <time>2012-10-22T07:22:21Z</time>
      </trkpt>
      <trkpt lat="43.50999" lon="6.62429">
        <ele>125.425934</ele>
        <time>2012-10-22T07:22:25Z</time>
      </trkpt>
      <trkpt lat="43.50984" lon="6.62449">
        <ele>126.93555</ele>
        <time>2012-10-22T07:22:29Z</time>
      </trkpt>
      <trkpt lat="43.50968" lon="6.6246">
        <ele>125.12906</ele>
        <time>2012-10-22T07:22:32Z</time>
      </trkpt>
      <trkpt lat="43.50951" lon="6.62472">
        <ele>123.132576</ele>
        <time>2012-10-22T07:22:35Z</time>
      </trkpt>
      <trkpt lat="43.50932" lon="6.62483">
        <ele>121.509056</ele>
        <time>2012-10-22T07:22:38Z</time>
      </trkpt>
      <trkpt lat="43.50912" lon="6.62485">
        <ele>119.62101</ele>
        <time>2012-10-22T07:22:41Z</time>
      </trkpt>
      <trkpt lat="43.50894" lon="6.62489">
        <ele>118.68386</ele>
        <time>2012-10-22T07:22:44Z</time>
      </trkpt>
      <trkpt lat="43.50876" lon="6.62496">
        <ele>118.288506</ele>
        <time>2012-10-22T07:22:47Z</time>
      </trkpt>
      <trkpt lat="43.50858" lon="6.62499">
        <ele>118.43421</ele>
        <time>2012-10-22T07:22:50Z</time>
      </trkpt>
      <trkpt lat="43.50834" lon="6.62494">
        <ele>119.50458</ele>
        <time>2012-10-22T07:22:54Z</time>
      </trkpt>
      <trkpt lat="43.50812" lon="6.62493">
        <ele>119.98387</ele>
        <time>2012-10-22T07:22:58Z</time>
      </trkpt>
      <trkpt lat="43.50788" lon="6.62495">
        <ele>117.50271</ele>
        <time>2012-10-22T07:23:02Z</time>
      </trkpt>
      <trkpt lat="43.50769" lon="6.62502">
        <ele>116.82146</ele>
        <time>2012-10-22T07:23:05Z</time>
      </trkpt>
      <trkpt lat="43.5075" lon="6.62513">
        <ele>115.65905</ele>
        <time>2012-10-22T07:23:08Z</time>
      </trkpt>
      <trkpt lat="43.50729" lon="6.62526">
        <ele>115.43118</ele>
        <time>2012-10-22T07:23:12Z</time>
      </trkpt>
      <trkpt lat="43.5071" lon="6.62537">
        <ele>116.26143</ele>
        <time>2012-10-22T07:23:16Z</time>
      </trkpt>
      <trkpt lat="43.50692" lon="6.62553">
        <ele>118.1335</ele>
        <time>2012-10-22T07:23:20Z</time>
      </trkpt>
      <trkpt lat="43.50676" lon="6.62567">
        <ele>117.18132</ele>
        <time>2012-10-22T07:23:23Z</time>
      </trkpt>
      <trkpt lat="43.50662" lon="6.6259">
        <ele>116.483154</ele>
        <time>2012-10-22T07:23:27Z</time>
      </trkpt>
      <trkpt lat="43.50641" lon="6.62596">
        <ele>116.97709</ele>
        <time>2012-10-22T07:23:31Z</time>
      </trkpt>
      <trkpt lat="43.50619" lon="6.62593">
        <ele>114.638115</ele>
        <time>2012-10-22T07:23:36Z</time>
      </trkpt>
      <trkpt lat="43.50596" lon="6.62583">
        <ele>112.58472</ele>
        <time>2012-10-22T07:23:40Z</time>
      </trkpt>
      <trkpt lat="43.50576" lon="6.62574">
        <ele>110.07481</ele>
        <time>2012-10-22T07:23:43Z</time>
      </trkpt>
      <trkpt lat="43.50556" lon="6.62575">
        <ele>109.375305</ele>
        <time>2012-10-22T07:23:46Z</time>
      </trkpt>
      <trkpt lat="43.50539" lon="6.62589">
        <ele>109.273636</ele>
        <time>2012-10-22T07:23:51Z</time>
      </trkpt>
      <trkpt lat="43.50539" lon="6.62614">
        <ele>107.524895</ele>
        <time>2012-10-22T07:23:56Z</time>
      </trkpt>
      <trkpt lat="43.50536" lon="6.6264">
        <ele>110.920456</ele>
        <time>2012-10-22T07:24:01Z</time>
      </trkpt>
      <trkpt lat="43.50531" lon="6.62669">
        <ele>113.60374</ele>
        <time>2012-10-22T07:24:05Z</time>
      </trkpt>
      <trkpt lat="43.50522" lon="6.62692">
        <ele>113.98116</ele>
        <time>2012-10-22T07:24:10Z</time>
      </trkpt>
      <trkpt lat="43.50508" lon="6.62716">
        <ele>111.13857</ele>
        <time>2012-10-22T07:24:14Z</time>
      </trkpt>
      <trkpt lat="43.50499" lon="6.62738">
        <ele>110.51158</ele>
        <time>2012-10-22T07:24:17Z</time>
      </trkpt>
      <trkpt lat="43.50488" lon="6.62762">
        <ele>113.286865</ele>
        <time>2012-10-22T07:24:21Z</time>
      </trkpt>
      <trkpt lat="43.50476" lon="6.62781">
        <ele>114.7742</ele>
        <time>2012-10-22T07:24:27Z</time>
      </trkpt>
      <trkpt lat="43.50469" lon="6.62807">
        <ele>113.10467</ele>
        <time>2012-10-22T07:24:43Z</time>
      </trkpt>
      <trkpt lat="43.50464" lon="6.62836">
        <ele>113.45613</ele>
        <time>2012-10-22T07:24:49Z</time>
      </trkpt>
      <trkpt lat="43.50453" lon="6.62858">
        <ele>113.72245</ele>
        <time>2012-10-22T07:24:53Z</time>
      </trkpt>
      <trkpt lat="43.50449" lon="6.62885">
        <ele>114.227104</ele>
        <time>2012-10-22T07:24:58Z</time>
      </trkpt>
      <trkpt lat="43.50455" lon="6.6291">
        <ele>114.86873</ele>
        <time>2012-10-22T07:25:02Z</time>
      </trkpt>
      <trkpt lat="43.50446" lon="6.62932">
        <ele>115.74753</ele>
        <time>2012-10-22T07:25:06Z</time>
      </trkpt>
      <trkpt lat="43.50435" lon="6.62951">
        <ele>113.65059</ele>
        <time>2012-10-22T07:25:10Z</time>
      </trkpt>
      <trkpt lat="43.5042" lon="6.62967">
        <ele>112.72126</ele>
        <time>2012-10-22T07:25:16Z</time>
      </trkpt>
      <trkpt lat="43.50404" lon="6.62983">
        <ele>114.13405</ele>
        <time>2012-10-22T07:25:21Z</time>
      </trkpt>
      <trkpt lat="43.50385" lon="6.62998">
        <ele>114.57673</ele>
        <time>2012-10-22T07:25:26Z</time>
      </trkpt>
      <trkpt lat="43.50367" lon="6.63001">
        <ele>113.73257</ele>
        <time>2012-10-22T07:25:31Z</time>
      </trkpt>
      <trkpt lat="43.50346" lon="6.63004">
        <ele>114.86623</ele>
        <time>2012-10-22T07:25:36Z</time>
      </trkpt>
      <trkpt lat="43.50322" lon="6.63002">
        <ele>114.8483</ele>
        <time>2012-10-22T07:25:40Z</time>
      </trkpt>
      <trkpt lat="43.50302" lon="6.63009">
        <ele>114.272316</ele>
        <time>2012-10-22T07:25:44Z</time>
      </trkpt>
      <trkpt lat="43.50285" lon="6.63021">
        <ele>115.20725</ele>
        <time>2012-10-22T07:25:48Z</time>
      </trkpt>
      <trkpt lat="43.50264" lon="6.63011">
        <ele>115.59703</ele>
        <time>2012-10-22T07:25:53Z</time>
      </trkpt>
      <trkpt lat="43.50245" lon="6.63004">
        <ele>114.8725</ele>
        <time>2012-10-22T07:25:57Z</time>
      </trkpt>
      <trkpt lat="43.50227" lon="6.62983">
        <ele>113.26434</ele>
        <time>2012-10-22T07:26:01Z</time>
      </trkpt>
      <trkpt lat="43.50216" lon="6.62963">
        <ele>112.42402</ele>
        <time>2012-10-22T07:26:04Z</time>
      </trkpt>
      <trkpt lat="43.50203" lon="6.62945">
        <ele>111.85076</ele>
        <time>2012-10-22T07:26:07Z</time>
      </trkpt>
      <trkpt lat="43.50187" lon="6.62932">
        <ele>112.76517</ele>
        <time>2012-10-22T07:26:10Z</time>
      </trkpt>
      <trkpt lat="43.50165" lon="6.62941">
        <ele>113.25382</ele>
        <time>2012-10-22T07:26:14Z</time>
      </trkpt>
      <trkpt lat="43.50145" lon="6.62955">
        <ele>112.41958</ele>
        <time>2012-10-22T07:26:17Z</time>
      </trkpt>
      <trkpt lat="43.50127" lon="6.62963">
        <ele>111.798515</ele>
        <time>2012-10-22T07:26:19Z</time>
      </trkpt>
      <trkpt lat="43.50109" lon="6.62968">
        <ele>111.449165</ele>
        <time>2012-10-22T07:26:21Z</time>
      </trkpt>
      <trkpt lat="43.50085" lon="6.62978">
        <ele>110.75199</ele>
        <time>2012-10-22T07:26:24Z</time>
      </trkpt>
      <trkpt lat="43.50065" lon="6.62995">
        <ele>108.285995</ele>
        <time>2012-10-22T07:26:27Z</time>
      </trkpt>
      <trkpt lat="43.5005" lon="6.63014">
        <ele>105.211586</ele>
        <time>2012-10-22T07:26:31Z</time>
      </trkpt>
      <trkpt lat="43.50028" lon="6.63013">
        <ele>103.38171</ele>
        <time>2012-10-22T07:26:40Z</time>
      </trkpt>
      <trkpt lat="43.50004" lon="6.63006">
        <ele>104.1364</ele>
        <time>2012-10-22T07:26:44Z</time>
      </trkpt>
      <trkpt lat="43.49986" lon="6.63007">
        <ele>104.72675</ele>
        <time>2012-10-22T07:26:48Z</time>
      </trkpt>
      <trkpt lat="43.49968" lon="6.63009">
        <ele>105.702736</ele>
        <time>2012-10-22T07:26:53Z</time>
      </trkpt>
      <trkpt lat="43.49948" lon="6.63007">
        <ele>107.624695</ele>
        <time>2012-10-22T07:26:57Z</time>
      </trkpt>
      <trkpt lat="43.49926" lon="6.63009">
        <ele>105.603905</ele>
        <time>2012-10-22T07:27:01Z</time>
      </trkpt>
      <trkpt lat="43.49909" lon="6.62999">
        <ele>103.09733</ele>
        <time>2012-10-22T07:27:05Z</time>
      </trkpt>
      <trkpt lat="43.49891" lon="6.6299">
        <ele>98.24173</ele>
        <time>2012-10-22T07:27:09Z</time>
      </trkpt>
      <trkpt lat="43.49874" lon="6.62974">
        <ele>96.19439</ele>
        <time>2012-10-22T07:27:15Z</time>
      </trkpt>
      <trkpt lat="43.49856" lon="6.6297">
        <ele>95.879135</ele>
        <time>2012-10-22T07:27:20Z</time>
      </trkpt>
      <trkpt lat="43.49832" lon="6.62963">
        <ele>96.250824</ele>
        <time>2012-10-22T07:27:24Z</time>
      </trkpt>
      <trkpt lat="43.49813" lon="6.62964">
        <ele>94.62144</ele>
        <time>2012-10-22T07:27:27Z</time>
      </trkpt>
      <trkpt lat="43.49793" lon="6.6297">
        <ele>93.934044</ele>
        <time>2012-10-22T07:27:30Z</time>
      </trkpt>
      <trkpt lat="43.49774" lon="6.62971">
        <ele>94.08155</ele>
        <time>2012-10-22T07:27:33Z</time>
      </trkpt>
      <trkpt lat="43.49752" lon="6.6296">
        <ele>94.35393</ele>
        <time>2012-10-22T07:27:37Z</time>
      </trkpt>
      <trkpt lat="43.49734" lon="6.62939">
        <ele>93.52995</ele>
        <time>2012-10-22T07:27:41Z</time>
      </trkpt>
      <trkpt lat="43.49722" lon="6.62916">
        <ele>91.984085</ele>
        <time>2012-10-22T07:27:45Z</time>
      </trkpt>
      <trkpt lat="43.49701" lon="6.62903">
        <ele>90.53236</ele>
        <time>2012-10-22T07:27:50Z</time>
      </trkpt>
      <trkpt lat="43.49685" lon="6.62891">
        <ele>89.28709</ele>
        <time>2012-10-22T07:27:53Z</time>
      </trkpt>
      <trkpt lat="43.49668" lon="6.62881">
        <ele>87.63674</ele>
        <time>2012-10-22T07:27:56Z</time>
      </trkpt>
      <trkpt lat="43.4965" lon="6.62867">
        <ele>86.64362</ele>
        <time>2012-10-22T07:27:59Z</time>
      </trkpt>
      <trkpt lat="43.4964" lon="6.62838">
        <ele>88.29349</ele>
        <time>2012-10-22T07:28:03Z</time>
      </trkpt>
      <trkpt lat="43.49629" lon="6.62818">
        <ele>87.38583</ele>
        <time>2012-10-22T07:28:07Z</time>
      </trkpt>
      <trkpt lat="43.49613" lon="6.628">
        <ele>86.98145</ele>
        <time>2012-10-22T07:28:11Z</time>
      </trkpt>
      <trkpt lat="43.49593" lon="6.62788">
        <ele>88.44335</ele>
        <time>2012-10-22T07:28:15Z</time>
      </trkpt>
      <trkpt lat="43.49581" lon="6.6277">
        <ele>85.25747</ele>
        <time>2012-10-22T07:28:19Z</time>
      </trkpt>
      <trkpt lat="43.49573" lon="6.62743">
        <ele>81.41401</ele>
        <time>2012-10-22T07:28:26Z</time>
      </trkpt>
      <trkpt lat="43.49567" lon="6.62716">
        <ele>84.68691</ele>
        <time>2012-10-22T07:28:33Z</time>
      </trkpt>
      <trkpt lat="43.49559" lon="6.6269">
        <ele>86.93666</ele>
        <time>2012-10-22T07:28:41Z</time>
      </trkpt>
      <trkpt lat="43.49569" lon="6.62668">
        <ele>86.84748</ele>
        <time>2012-10-22T07:28:49Z</time>
      </trkpt>
      <trkpt lat="43.49585" lon="6.62657">
        <ele>87.56845</ele>
        <time>2012-10-22T07:28:56Z</time>
      </trkpt>
      <trkpt lat="43.49602" lon="6.62645">
        <ele>91.34765</ele>
        <time>2012-10-22T07:29:04Z</time>
      </trkpt>
      <trkpt lat="43.49619" lon="6.62632">
        <ele>94.10191</ele>
        <time>2012-10-22T07:29:10Z</time>
      </trkpt>
      <trkpt lat="43.49637" lon="6.62621">
        <ele>95.205315</ele>
        <time>2012-10-22T07:29:17Z</time>
      </trkpt>
      <trkpt lat="43.49654" lon="6.6261">
        <ele>96.09396</ele>
        <time>2012-10-22T07:30:55Z</time>
      </trkpt>
      <trkpt lat="43.49669" lon="6.62595">
        <ele>97.700775</ele>
        <time>2012-10-22T07:31:02Z</time>
      </trkpt>
      <trkpt lat="43.49685" lon="6.62581">
        <ele>100.17111</ele>
        <time>2012-10-22T07:31:08Z</time>
      </trkpt>
      <trkpt lat="43.49701" lon="6.62568">
        <ele>103.09059</ele>
        <time>2012-10-22T07:31:15Z</time>
      </trkpt>
      <trkpt lat="43.49719" lon="6.62557">
        <ele>102.58155</ele>
        <time>2012-10-22T07:31:21Z</time>
      </trkpt>
      <trkpt lat="43.49737" lon="6.62546">
        <ele>104.38182</ele>
        <time>2012-10-22T07:31:27Z</time>
      </trkpt>
      <trkpt lat="43.49756" lon="6.62536">
        <ele>106.54883</ele>
        <time>2012-10-22T07:31:34Z</time>
      </trkpt>
      <trkpt lat="43.49774" lon="6.62523">
        <ele>106.58595</ele>
        <time>2012-10-22T07:31:41Z</time>
      </trkpt>
      <trkpt lat="43.49792" lon="6.62511">
        <ele>105.66679</ele>
        <time>2012-10-22T07:31:47Z</time>
      </trkpt>
      <trkpt lat="43.49811" lon="6.62497">
        <ele>104.10976</ele>
        <time>2012-10-22T07:31:54Z</time>
      </trkpt>
      <trkpt lat="43.4983" lon="6.62483">
        <ele>105.30144</ele>
        <time>2012-10-22T07:31:59Z</time>
      </trkpt>
      <trkpt lat="43.49849" lon="6.6247">
        <ele>101.78247</ele>
        <time>2012-10-22T07:32:04Z</time>
      </trkpt>
      <trkpt lat="43.49866" lon="6.62458">
        <ele>101.17499</ele>
        <time>2012-10-22T07:32:14Z</time>
      </trkpt>
      <trkpt lat="43.49883" lon="6.62447">
        <ele>102.93532</ele>
        <time>2012-10-22T07:32:34Z</time>
      </trkpt>
      <trkpt lat="43.49888" lon="6.62421">
        <ele>105.28761</ele>
        <time>2012-10-22T07:34:48Z</time>
      </trkpt>
      <trkpt lat="43.49891" lon="6.62395">
        <ele>102.34267</ele>
        <time>2012-10-22T07:34:53Z</time>
      </trkpt>
      <trkpt lat="43.499" lon="6.62372">
        <ele>101.13186</ele>
        <time>2012-10-22T07:34:57Z</time>
      </trkpt>
      <trkpt lat="43.49891" lon="6.62347">
        <ele>100.27664</ele>
        <time>2012-10-22T07:35:03Z</time>
      </trkpt>
      <trkpt lat="43.49879" lon="6.62323">
        <ele>97.782845</ele>
        <time>2012-10-22T07:35:07Z</time>
      </trkpt>
      <trkpt lat="43.49865" lon="6.62299">
        <ele>96.228165</ele>
        <time>2012-10-22T07:35:11Z</time>
      </trkpt>
      <trkpt lat="43.49852" lon="6.62281">
        <ele>97.205</ele>
        <time>2012-10-22T07:35:15Z</time>
      </trkpt>
      <trkpt lat="43.4985" lon="6.62254">
        <ele>97.1683</ele>
        <time>2012-10-22T07:35:22Z</time>
      </trkpt>
      <trkpt lat="43.4985" lon="6.62226">
        <ele>94.967316</ele>
        <time>2012-10-22T07:35:26Z</time>
      </trkpt>
      <trkpt lat="43.49848" lon="6.62198">
        <ele>94.15808</ele>
        <time>2012-10-22T07:35:29Z</time>
      </trkpt>
      <trkpt lat="43.49845" lon="6.62166">
        <ele>93.2258</ele>
        <time>2012-10-22T07:35:33Z</time>
      </trkpt>
      <trkpt lat="43.4984" lon="6.62135">
        <ele>92.13394</ele>
        <time>2012-10-22T07:35:37Z</time>
      </trkpt>
      <trkpt lat="43.4983" lon="6.62113">
        <ele>90.8666</ele>
        <time>2012-10-22T07:35:41Z</time>
      </trkpt>
      <trkpt lat="43.49821" lon="6.62091">
        <ele>90.87751</ele>
        <time>2012-10-22T07:35:50Z</time>
      </trkpt>
      <trkpt lat="43.49815" lon="6.62066">
        <ele>93.26779</ele>
        <time>2012-10-22T07:35:59Z</time>
      </trkpt>
      <trkpt lat="43.49802" lon="6.62084">
        <ele>95.370575</ele>
        <time>2012-10-22T07:36:35Z</time>
      </trkpt>
      <trkpt lat="43.49785" lon="6.62097">
        <ele>92.00786</ele>
        <time>2012-10-22T07:36:40Z</time>
      </trkpt>
      <trkpt lat="43.49769" lon="6.62111">
        <ele>93.71868</ele>
        <time>2012-10-22T07:36:46Z</time>
      </trkpt>
      <trkpt lat="43.4975" lon="6.62128">
        <ele>96.42112</ele>
        <time>2012-10-22T07:36:52Z</time>
      </trkpt>
      <trkpt lat="43.49739" lon="6.62151">
        <ele>95.15951</ele>
        <time>2012-10-22T07:36:57Z</time>
      </trkpt>
      <trkpt lat="43.49725" lon="6.62173">
        <ele>91.24195</ele>
        <time>2012-10-22T07:37:02Z</time>
      </trkpt>
      <trkpt lat="43.49714" lon="6.62196">
        <ele>91.84218</ele>
        <time>2012-10-22T07:37:06Z</time>
      </trkpt>
      <trkpt lat="43.49706" lon="6.62222">
        <ele>94.25975</ele>
        <time>2012-10-22T07:37:12Z</time>
      </trkpt>
      <trkpt lat="43.49695" lon="6.62245">
        <ele>92.92004</ele>
        <time>2012-10-22T07:37:17Z</time>
      </trkpt>
      <trkpt lat="43.49693" lon="6.62277">
        <ele>90.377045</ele>
        <time>2012-10-22T07:37:21Z</time>
      </trkpt>
      <trkpt lat="43.49689" lon="6.62303">
        <ele>89.29969</ele>
        <time>2012-10-22T07:37:24Z</time>
      </trkpt>
      <trkpt lat="43.49679" lon="6.62325">
        <ele>88.29831</ele>
        <time>2012-10-22T07:37:27Z</time>
      </trkpt>
      <trkpt lat="43.49666" lon="6.62347">
        <ele>88.52798</ele>
        <time>2012-10-22T07:37:31Z</time>
      </trkpt>
      <trkpt lat="43.49654" lon="6.62372">
        <ele>90.23346</ele>
        <time>2012-10-22T07:37:35Z</time>
      </trkpt>
      <trkpt lat="43.49642" lon="6.62391">
        <ele>91.58168</ele>
        <time>2012-10-22T07:37:39Z</time>
      </trkpt>
      <trkpt lat="43.49627" lon="6.62406">
        <ele>90.49264</ele>
        <time>2012-10-22T07:37:43Z</time>
      </trkpt>
      <trkpt lat="43.49608" lon="6.6242">
        <ele>89.67215</ele>
        <time>2012-10-22T07:37:49Z</time>
      </trkpt>
      <trkpt lat="43.49593" lon="6.62437">
        <ele>92.05599</ele>
        <time>2012-10-22T07:37:54Z</time>
      </trkpt>
      <trkpt lat="43.49579" lon="6.62458">
        <ele>89.489845</ele>
        <time>2012-10-22T07:37:59Z</time>
      </trkpt>
      <trkpt lat="43.49567" lon="6.62478">
        <ele>88.6589</ele>
        <time>2012-10-22T07:38:03Z</time>
      </trkpt>
      <trkpt lat="43.49554" lon="6.62499">
        <ele>87.139755</ele>
        <time>2012-10-22T07:38:08Z</time>
      </trkpt>
      <trkpt lat="43.49539" lon="6.62518">
        <ele>87.81375</ele>
        <time>2012-10-22T07:38:12Z</time>
      </trkpt>
      <trkpt lat="43.49528" lon="6.6254">
        <ele>87.468414</ele>
        <time>2012-10-22T07:38:16Z</time>
      </trkpt>
      <trkpt lat="43.49518" lon="6.62562">
        <ele>87.3943</ele>
        <time>2012-10-22T07:38:20Z</time>
      </trkpt>
      <trkpt lat="43.49508" lon="6.62584">
        <ele>86.87476</ele>
        <time>2012-10-22T07:38:24Z</time>
      </trkpt>
      <trkpt lat="43.49493" lon="6.62598">
        <ele>86.52678</ele>
        <time>2012-10-22T07:38:28Z</time>
      </trkpt>
      <trkpt lat="43.4948" lon="6.62579">
        <ele>87.15944</ele>
        <time>2012-10-22T07:38:41Z</time>
      </trkpt>
      <trkpt lat="43.49485" lon="6.62555">
        <ele>87.270645</ele>
        <time>2012-10-22T07:38:49Z</time>
      </trkpt>
      <trkpt lat="43.49498" lon="6.62533">
        <ele>86.125114</ele>
        <time>2012-10-22T07:38:56Z</time>
      </trkpt>
      <trkpt lat="43.49503" lon="6.62504">
        <ele>85.34478</ele>
        <time>2012-10-22T07:39:02Z</time>
      </trkpt>
      <trkpt lat="43.495" lon="6.62478">
        <ele>89.65252</ele>
        <time>2012-10-22T07:39:12Z</time>
      </trkpt>
      <trkpt lat="43.49502" lon="6.62454">
        <ele>93.2263</ele>
        <time>2012-10-22T07:39:44Z</time>
      </trkpt>
      <trkpt lat="43.49507" lon="6.62429">
        <ele>96.42402</ele>
        <time>2012-10-22T07:40:03Z</time>
      </trkpt>
      <trkpt lat="43.49511" lon="6.62405">
        <ele>99.67522</ele>
        <time>2012-10-22T07:40:16Z</time>
      </trkpt>
      <trkpt lat="43.49517" lon="6.6238">
        <ele>100.332825</ele>
        <time>2012-10-22T07:40:22Z</time>
      </trkpt>
      <trkpt lat="43.49527" lon="6.62357">
        <ele>101.96553</ele>
        <time>2012-10-22T07:40:31Z</time>
      </trkpt>
      <trkpt lat="43.49535" lon="6.62335">
        <ele>104.50998</ele>
        <time>2012-10-22T07:40:37Z</time>
      </trkpt>
      <trkpt lat="43.49543" lon="6.62311">
        <ele>102.27043</ele>
        <time>2012-10-22T07:40:42Z</time>
      </trkpt>
      <trkpt lat="43.4955" lon="6.62285">
        <ele>102.51633</ele>
        <time>2012-10-22T07:40:49Z</time>
      </trkpt>
      <trkpt lat="43.49532" lon="6.62285">
        <ele>102.14209</ele>
        <time>2012-10-22T07:41:08Z</time>
      </trkpt>
      <trkpt lat="43.49515" lon="6.62294">
        <ele>100.00931</ele>
        <time>2012-10-22T07:41:13Z</time>
      </trkpt>
      <trkpt lat="43.49497" lon="6.62298">
        <ele>98.49513</ele>
        <time>2012-10-22T07:41:17Z</time>
      </trkpt>
      <trkpt lat="43.49478" lon="6.62295">
        <ele>97.14104</ele>
        <time>2012-10-22T07:41:21Z</time>
      </trkpt>
      <trkpt lat="43.4946" lon="6.62298">
        <ele>97.497</ele>
        <time>2012-10-22T07:41:24Z</time>
      </trkpt>
      <trkpt lat="43.49451" lon="6.62323">
        <ele>94.344505</ele>
        <time>2012-10-22T07:41:29Z</time>
      </trkpt>
      <trkpt lat="43.49448" lon="6.62348">
        <ele>92.167595</ele>
        <time>2012-10-22T07:41:33Z</time>
      </trkpt>
      <trkpt lat="43.49443" lon="6.62373">
        <ele>92.22727</ele>
        <time>2012-10-22T07:41:38Z</time>
      </trkpt>
      <trkpt lat="43.49425" lon="6.6239">
        <ele>93.909546</ele>
        <time>2012-10-22T07:41:45Z</time>
      </trkpt>
      <trkpt lat="43.49412" lon="6.62406">
        <ele>94.928734</ele>
        <time>2012-10-22T07:41:50Z</time>
      </trkpt>
      <trkpt lat="43.49394" lon="6.62419">
        <ele>93.99439</ele>
        <time>2012-10-22T07:41:56Z</time>
      </trkpt>
      <trkpt lat="43.49375" lon="6.62414">
        <ele>93.17698</ele>
        <time>2012-10-22T07:42:02Z</time>
      </trkpt>
      <trkpt lat="43.49358" lon="6.62401">
        <ele>91.78028</ele>
        <time>2012-10-22T07:42:07Z</time>
      </trkpt>
      <trkpt lat="43.49342" lon="6.62383">
        <ele>89.847275</ele>
        <time>2012-10-22T07:42:12Z</time>
      </trkpt>
      <trkpt lat="43.49324" lon="6.62364">
        <ele>89.26808</ele>
        <time>2012-10-22T07:42:16Z</time>
      </trkpt>
      <trkpt lat="43.49303" lon="6.62353">
        <ele>88.7567</ele>
        <time>2012-10-22T07:42:20Z</time>
      </trkpt>
      <trkpt lat="43.49281" lon="6.62349">
        <ele>90.63464</ele>
        <time>2012-10-22T07:42:25Z</time>
      </trkpt>
      <trkpt lat="43.49259" lon="6.62346">
        <ele>90.164276</ele>
        <time>2012-10-22T07:42:30Z</time>
      </trkpt>
      <trkpt lat="43.4924" lon="6.62346">
        <ele>91.28245</ele>
        <time>2012-10-22T07:42:34Z</time>
      </trkpt>
      <trkpt lat="43.49217" lon="6.62349">
        <ele>89.661354</ele>
        <time>2012-10-22T07:42:40Z</time>
      </trkpt>
      <trkpt lat="43.49203" lon="6.62369">
        <ele>89.861046</ele>
        <time>2012-10-22T07:42:45Z</time>
      </trkpt>
      <trkpt lat="43.492" lon="6.62393">
        <ele>91.65525</ele>
        <time>2012-10-22T07:42:49Z</time>
      </trkpt>
      <trkpt lat="43.49188" lon="6.62416">
        <ele>91.4846</ele>
        <time>2012-10-22T07:42:54Z</time>
      </trkpt>
      <trkpt lat="43.49171" lon="6.62405">
        <ele>91.52375</ele>
        <time>2012-10-22T07:43:00Z</time>
      </trkpt>
      <trkpt lat="43.49167" lon="6.62381">
        <ele>91.59931</ele>
        <time>2012-10-22T07:43:04Z</time>
      </trkpt>
      <trkpt lat="43.49166" lon="6.62354">
        <ele>92.56072</ele>
        <time>2012-10-22T07:43:08Z</time>
      </trkpt>
      <trkpt lat="43.4916" lon="6.62328">
        <ele>92.06861</ele>
        <time>2012-10-22T07:43:13Z</time>
      </trkpt>
      <trkpt lat="43.49141" lon="6.62322">
        <ele>93.750656</ele>
        <time>2012-10-22T07:43:18Z</time>
      </trkpt>
      <trkpt lat="43.49122" lon="6.62321">
        <ele>94.02267</ele>
        <time>2012-10-22T07:43:22Z</time>
      </trkpt>
      <trkpt lat="43.49105" lon="6.62314">
        <ele>91.27979</ele>
        <time>2012-10-22T07:43:27Z</time>
      </trkpt>
      <trkpt lat="43.49084" lon="6.62308">
        <ele>93.652336</ele>
        <time>2012-10-22T07:43:33Z</time>
      </trkpt>
      <trkpt lat="43.49065" lon="6.62307">
        <ele>94.69289</ele>
        <time>2012-10-22T07:43:38Z</time>
      </trkpt>
      <trkpt lat="43.49046" lon="6.62307">
        <ele>93.916405</ele>
        <time>2012-10-22T07:43:45Z</time>
      </trkpt>
      <trkpt lat="43.49036" lon="6.62329">
        <ele>97.21387</ele>
        <time>2012-10-22T07:47:29Z</time>
      </trkpt>
      <trkpt lat="43.49031" lon="6.62356">
        <ele>96.27537</ele>
        <time>2012-10-22T07:47:35Z</time>
      </trkpt>
      <trkpt lat="43.49017" lon="6.62374">
        <ele>100.39192</ele>
        <time>2012-10-22T07:47:42Z</time>
      </trkpt>
      <trkpt lat="43.49003" lon="6.62394">
        <ele>99.09007</ele>
        <time>2012-10-22T07:47:47Z</time>
      </trkpt>
      <trkpt lat="43.49004" lon="6.62422">
        <ele>94.34491</ele>
        <time>2012-10-22T07:47:51Z</time>
      </trkpt>
      <trkpt lat="43.49002" lon="6.62451">
        <ele>93.42944</ele>
        <time>2012-10-22T07:47:55Z</time>
      </trkpt>
      <trkpt lat="43.4899" lon="6.62473">
        <ele>92.620255</ele>
        <time>2012-10-22T07:47:59Z</time>
      </trkpt>
      <trkpt lat="43.48979" lon="6.62497">
        <ele>92.411095</ele>
        <time>2012-10-22T07:48:03Z</time>
      </trkpt>
      <trkpt lat="43.48977" lon="6.62528">
        <ele>92.20429</ele>
        <time>2012-10-22T07:48:07Z</time>
      </trkpt>
      <trkpt lat="43.48976" lon="6.62556">
        <ele>89.83026</ele>
        <time>2012-10-22T07:48:11Z</time>
      </trkpt>
      <trkpt lat="43.48962" lon="6.6258">
        <ele>86.11817</ele>
        <time>2012-10-22T07:48:15Z</time>
      </trkpt>
      <trkpt lat="43.48948" lon="6.62596">
        <ele>84.40628</ele>
        <time>2012-10-22T07:48:49Z</time>
      </trkpt>
      <trkpt lat="43.48928" lon="6.626">
        <ele>83.8152</ele>
        <time>2012-10-22T07:49:02Z</time>
      </trkpt>
      <trkpt lat="43.4891" lon="6.62597">
        <ele>84.41486</ele>
        <time>2012-10-22T07:49:08Z</time>
      </trkpt>
      <trkpt lat="43.48891" lon="6.62586">
        <ele>84.611145</ele>
        <time>2012-10-22T07:49:13Z</time>
      </trkpt>
      <trkpt lat="43.48873" lon="6.62572">
        <ele>84.95899</ele>
        <time>2012-10-22T07:49:17Z</time>
      </trkpt>
      <trkpt lat="43.48857" lon="6.62556">
        <ele>83.0378</ele>
        <time>2012-10-22T07:49:21Z</time>
      </trkpt>
      <trkpt lat="43.48842" lon="6.62539">
        <ele>82.76587</ele>
        <time>2012-10-22T07:49:25Z</time>
      </trkpt>
      <trkpt lat="43.48827" lon="6.62521">
        <ele>84.72569</ele>
        <time>2012-10-22T07:49:30Z</time>
      </trkpt>
      <trkpt lat="43.48814" lon="6.62503">
        <ele>85.30405</ele>
        <time>2012-10-22T07:49:35Z</time>
      </trkpt>
      <trkpt lat="43.48819" lon="6.62478">
        <ele>84.01215</ele>
        <time>2012-10-22T07:49:51Z</time>
      </trkpt>
      <trkpt lat="43.48833" lon="6.62458">
        <ele>83.56929</ele>
        <time>2012-10-22T07:49:56Z</time>
      </trkpt>
      <trkpt lat="43.48846" lon="6.62435">
        <ele>83.160645</ele>
        <time>2012-10-22T07:50:02Z</time>
      </trkpt>
      <trkpt lat="43.48853" lon="6.62409">
        <ele>82.98245</ele>
        <time>2012-10-22T07:50:08Z</time>
      </trkpt>
      <trkpt lat="43.48867" lon="6.62392">
        <ele>81.708305</ele>
        <time>2012-10-22T07:50:14Z</time>
      </trkpt>
      <trkpt lat="43.48883" lon="6.6238">
        <ele>83.4537</ele>
        <time>2012-10-22T07:50:20Z</time>
      </trkpt>
      <trkpt lat="43.48896" lon="6.62356">
        <ele>85.60199</ele>
        <time>2012-10-22T07:50:26Z</time>
      </trkpt>
      <trkpt lat="43.48903" lon="6.62332">
        <ele>85.875275</ele>
        <time>2012-10-22T07:50:31Z</time>
      </trkpt>
      <trkpt lat="43.48911" lon="6.62303">
        <ele>84.33662</ele>
        <time>2012-10-22T07:50:36Z</time>
      </trkpt>
      <trkpt lat="43.48931" lon="6.62301">
        <ele>84.35352</ele>
        <time>2012-10-22T07:50:43Z</time>
      </trkpt>
      <trkpt lat="43.48944" lon="6.6232">
        <ele>85.92374</ele>
        <time>2012-10-22T07:50:48Z</time>
      </trkpt>
      <trkpt lat="43.48963" lon="6.62328">
        <ele>85.71372</ele>
        <time>2012-10-22T07:50:54Z</time>
      </trkpt>
      <trkpt lat="43.48979" lon="6.62313">
        <ele>86.84341</ele>
        <time>2012-10-22T07:51:02Z</time>
      </trkpt>
      <trkpt lat="43.4898" lon="6.62287">
        <ele>89.35513</ele>
        <time>2012-10-22T07:51:09Z</time>
      </trkpt>
      <trkpt lat="43.48981" lon="6.62261">
        <ele>92.92297</ele>
        <time>2012-10-22T07:51:17Z</time>
      </trkpt>
      <trkpt lat="43.48994" lon="6.6224">
        <ele>93.66873</ele>
        <time>2012-10-22T07:51:24Z</time>
      </trkpt>
      <trkpt lat="43.49012" lon="6.62242">
        <ele>94.54496</ele>
        <time>2012-10-22T07:51:32Z</time>
      </trkpt>
      <trkpt lat="43.49029" lon="6.62232">
        <ele>98.97786</ele>
        <time>2012-10-22T07:51:41Z</time>
      </trkpt>
      <trkpt lat="43.49036" lon="6.62206">
        <ele>104.30389</ele>
        <time>2012-10-22T07:51:49Z</time>
      </trkpt>
      <trkpt lat="43.4905" lon="6.6219">
        <ele>105.81199</ele>
        <time>2012-10-22T07:51:56Z</time>
      </trkpt>
      <trkpt lat="43.49067" lon="6.62178">
        <ele>102.50023</ele>
        <time>2012-10-22T07:52:02Z</time>
      </trkpt>
      <trkpt lat="43.49083" lon="6.62162">
        <ele>104.26196</ele>
        <time>2012-10-22T07:52:09Z</time>
      </trkpt>
      <trkpt lat="43.491" lon="6.62149">
        <ele>103.097466</ele>
        <time>2012-10-22T07:52:16Z</time>
      </trkpt>
      <trkpt lat="43.49117" lon="6.62139">
        <ele>102.99049</ele>
        <time>2012-10-22T07:52:22Z</time>
      </trkpt>
      <trkpt lat="43.49115" lon="6.62113">
        <ele>102.00954</ele>
        <time>2012-10-22T07:52:28Z</time>
      </trkpt>
      <trkpt lat="43.49115" lon="6.62087">
        <ele>100.458916</ele>
        <time>2012-10-22T07:52:36Z</time>
      </trkpt>
      <trkpt lat="43.4911" lon="6.62062">
        <ele>102.02738</ele>
        <time>2012-10-22T07:52:43Z</time>
      </trkpt>
      <trkpt lat="43.49113" lon="6.62034">
        <ele>101.825836</ele>
        <time>2012-10-22T07:52:48Z</time>
      </trkpt>
      <trkpt lat="43.4912" lon="6.6201">
        <ele>103.99958</ele>
        <time>2012-10-22T07:52:52Z</time>
      </trkpt>
      <trkpt lat="43.49131" lon="6.61985">
        <ele>106.27331</ele>
        <time>2012-10-22T07:52:56Z</time>
      </trkpt>
      <trkpt lat="43.49141" lon="6.61958">
        <ele>106.770065</ele>
        <time>2012-10-22T07:53:00Z</time>
      </trkpt>
      <trkpt lat="43.49149" lon="6.61934">
        <ele>106.68115</ele>
        <time>2012-10-22T07:53:04Z</time>
      </trkpt>
      <trkpt lat="43.49152" lon="6.61909">
        <ele>104.904396</ele>
        <time>2012-10-22T07:53:11Z</time>
      </trkpt>
      <trkpt lat="43.49134" lon="6.61906">
        <ele>103.05739</ele>
        <time>2012-10-22T07:53:16Z</time>
      </trkpt>
      <trkpt lat="43.49113" lon="6.61903">
        <ele>102.88925</ele>
        <time>2012-10-22T07:53:20Z</time>
      </trkpt>
      <trkpt lat="43.49089" lon="6.61903">
        <ele>100.08605</ele>
        <time>2012-10-22T07:53:24Z</time>
      </trkpt>
      <trkpt lat="43.49066" lon="6.61912">
        <ele>99.093636</ele>
        <time>2012-10-22T07:53:28Z</time>
      </trkpt>
      <trkpt lat="43.49049" lon="6.61924">
        <ele>97.852005</ele>
        <time>2012-10-22T07:53:31Z</time>
      </trkpt>
      <trkpt lat="43.4903" lon="6.61929">
        <ele>99.265686</ele>
        <time>2012-10-22T07:53:34Z</time>
      </trkpt>
      <trkpt lat="43.49011" lon="6.61926">
        <ele>101.54021</ele>
        <time>2012-10-22T07:53:40Z</time>
      </trkpt>
      <trkpt lat="43.49009" lon="6.61898">
        <ele>100.8428</ele>
        <time>2012-10-22T07:53:44Z</time>
      </trkpt>
      <trkpt lat="43.49011" lon="6.61873">
        <ele>99.33183</ele>
        <time>2012-10-22T07:53:49Z</time>
      </trkpt>
      <trkpt lat="43.49017" lon="6.61845">
        <ele>98.07972</ele>
        <time>2012-10-22T07:53:54Z</time>
      </trkpt>
      <trkpt lat="43.49022" lon="6.61818">
        <ele>99.253296</ele>
        <time>2012-10-22T07:53:59Z</time>
      </trkpt>
      <trkpt lat="43.49027" lon="6.61793">
        <ele>99.18171</ele>
        <time>2012-10-22T07:54:03Z</time>
      </trkpt>
      <trkpt lat="43.49033" lon="6.61769">
        <ele>98.62222</ele>
        <time>2012-10-22T07:54:08Z</time>
      </trkpt>
      <trkpt lat="43.49032" lon="6.61742">
        <ele>98.39668</ele>
        <time>2012-10-22T07:54:13Z</time>
      </trkpt>
      <trkpt lat="43.49034" lon="6.61716">
        <ele>99.191696</ele>
        <time>2012-10-22T07:54:19Z</time>
      </trkpt>
      <trkpt lat="43.49044" lon="6.61689">
        <ele>100.912674</ele>
        <time>2012-10-22T07:54:24Z</time>
      </trkpt>
      <trkpt lat="43.4905" lon="6.61663">
        <ele>101.991974</ele>
        <time>2012-10-22T07:54:29Z</time>
      </trkpt>
      <trkpt lat="43.4905" lon="6.61635">
        <ele>102.32329</ele>
        <time>2012-10-22T07:54:34Z</time>
      </trkpt>
      <trkpt lat="43.49057" lon="6.61611">
        <ele>101.88317</ele>
        <time>2012-10-22T07:55:13Z</time>
      </trkpt>
      <trkpt lat="43.49063" lon="6.61587">
        <ele>102.63253</ele>
        <time>2012-10-22T07:55:19Z</time>
      </trkpt>
      <trkpt lat="43.49073" lon="6.61566">
        <ele>103.0159</ele>
        <time>2012-10-22T07:55:25Z</time>
      </trkpt>
      <trkpt lat="43.49082" lon="6.61545">
        <ele>102.8983</ele>
        <time>2012-10-22T07:55:30Z</time>
      </trkpt>
      <trkpt lat="43.49087" lon="6.61518">
        <ele>101.70944</ele>
        <time>2012-10-22T07:55:36Z</time>
      </trkpt>
      <trkpt lat="43.49098" lon="6.61494">
        <ele>101.19925</ele>
        <time>2012-10-22T07:55:43Z</time>
      </trkpt>
      <trkpt lat="43.49109" lon="6.61471">
        <ele>101.32501</ele>
        <time>2012-10-22T07:55:49Z</time>
      </trkpt>
      <trkpt lat="43.49114" lon="6.61444">
        <ele>107.26439</ele>
        <time>2012-10-22T07:55:55Z</time>
      </trkpt>
      <trkpt lat="43.49113" lon="6.61415">
        <ele>105.90375</ele>
        <time>2012-10-22T07:56:01Z</time>
      </trkpt>
      <trkpt lat="43.4911" lon="6.61389">
        <ele>108.750206</ele>
        <time>2012-10-22T07:56:07Z</time>
      </trkpt>
      <trkpt lat="43.49119" lon="6.61366">
        <ele>109.02097</ele>
        <time>2012-10-22T07:56:13Z</time>
      </trkpt>
      <trkpt lat="43.49128" lon="6.61343">
        <ele>110.88573</ele>
        <time>2012-10-22T07:56:22Z</time>
      </trkpt>
      <trkpt lat="43.49131" lon="6.61317">
        <ele>111.98918</ele>
        <time>2012-10-22T07:56:28Z</time>
      </trkpt>
      <trkpt lat="43.49141" lon="6.61295">
        <ele>110.76599</ele>
        <time>2012-10-22T07:56:33Z</time>
      </trkpt>
      <trkpt lat="43.49147" lon="6.61269">
        <ele>109.249405</ele>
        <time>2012-10-22T07:56:40Z</time>
      </trkpt>
      <trkpt lat="43.49146" lon="6.61242">
        <ele>109.18637</ele>
        <time>2012-10-22T07:56:47Z</time>
      </trkpt>
      <trkpt lat="43.49148" lon="6.61217">
        <ele>110.62912</ele>
        <time>2012-10-22T07:56:53Z</time>
      </trkpt>
      <trkpt lat="43.49147" lon="6.6119">
        <ele>113.84307</ele>
        <time>2012-10-22T07:57:00Z</time>
      </trkpt>
      <trkpt lat="43.49151" lon="6.61165">
        <ele>114.411</ele>
        <time>2012-10-22T07:57:05Z</time>
      </trkpt>
      <trkpt lat="43.49153" lon="6.61138">
        <ele>112.3023</ele>
        <time>2012-10-22T07:57:12Z</time>
      </trkpt>
      <trkpt lat="43.49153" lon="6.61113">
        <ele>115.00668</ele>
        <time>2012-10-22T07:57:18Z</time>
      </trkpt>
      <trkpt lat="43.49172" lon="6.61104">
        <ele>116.75583</ele>
        <time>2012-10-22T07:57:24Z</time>
      </trkpt>
      <trkpt lat="43.49192" lon="6.61103">
        <ele>116.36393</ele>
        <time>2012-10-22T07:57:29Z</time>
      </trkpt>
      <trkpt lat="43.49206" lon="6.61086">
        <ele>114.635185</ele>
        <time>2012-10-22T07:57:36Z</time>
      </trkpt>
      <trkpt lat="43.49211" lon="6.61062">
        <ele>113.07465</ele>
        <time>2012-10-22T07:57:43Z</time>
      </trkpt>
      <trkpt lat="43.49218" lon="6.61036">
        <ele>111.07588</ele>
        <time>2012-10-22T07:57:50Z</time>
      </trkpt>
      <trkpt lat="43.49225" lon="6.61011">
        <ele>111.79744</ele>
        <time>2012-10-22T07:57:58Z</time>
      </trkpt>
      <trkpt lat="43.49244" lon="6.60998">
        <ele>112.75119</ele>
        <time>2012-10-22T07:58:31Z</time>
      </trkpt>
      <trkpt lat="43.4925" lon="6.61024">
        <ele>116.3122</ele>
        <time>2012-10-22T07:58:39Z</time>
      </trkpt>
      <trkpt lat="43.49257" lon="6.61051">
        <ele>119.04653</ele>
        <time>2012-10-22T07:58:45Z</time>
      </trkpt>
      <trkpt lat="43.49266" lon="6.61079">
        <ele>120.128006</ele>
        <time>2012-10-22T07:58:49Z</time>
      </trkpt>
      <trkpt lat="43.49277" lon="6.61107">
        <ele>118.67332</ele>
        <time>2012-10-22T07:58:53Z</time>
      </trkpt>
      <trkpt lat="43.49287" lon="6.61135">
        <ele>117.86929</ele>
        <time>2012-10-22T07:58:57Z</time>
      </trkpt>
      <trkpt lat="43.49293" lon="6.61161">
        <ele>118.286766</ele>
        <time>2012-10-22T07:59:01Z</time>
      </trkpt>
      <trkpt lat="43.49293" lon="6.61186">
        <ele>117.59464</ele>
        <time>2012-10-22T07:59:05Z</time>
      </trkpt>
      <trkpt lat="43.49289" lon="6.61213">
        <ele>118.01237</ele>
        <time>2012-10-22T07:59:09Z</time>
      </trkpt>
      <trkpt lat="43.49288" lon="6.61239">
        <ele>119.45704</ele>
        <time>2012-10-22T07:59:13Z</time>
      </trkpt>
      <trkpt lat="43.49288" lon="6.61265">
        <ele>120.511795</ele>
        <time>2012-10-22T07:59:17Z</time>
      </trkpt>
      <trkpt lat="43.49286" lon="6.61295">
        <ele>120.013054</ele>
        <time>2012-10-22T07:59:22Z</time>
      </trkpt>
      <trkpt lat="43.49281" lon="6.61324">
        <ele>117.28928</ele>
        <time>2012-10-22T07:59:26Z</time>
      </trkpt>
      <trkpt lat="43.49279" lon="6.61349">
        <ele>116.40329</ele>
        <time>2012-10-22T07:59:29Z</time>
      </trkpt>
      <trkpt lat="43.49279" lon="6.61374">
        <ele>115.920135</ele>
        <time>2012-10-22T07:59:32Z</time>
      </trkpt>
      <trkpt lat="43.49275" lon="6.61401">
        <ele>114.12256</ele>
        <time>2012-10-22T07:59:35Z</time>
      </trkpt>
      <trkpt lat="43.49271" lon="6.61426">
        <ele>113.53608</ele>
        <time>2012-10-22T07:59:38Z</time>
      </trkpt>
      <trkpt lat="43.49267" lon="6.61453">
        <ele>114.24178</ele>
        <time>2012-10-22T07:59:41Z</time>
      </trkpt>
      <trkpt lat="43.49261" lon="6.61482">
        <ele>114.69759</ele>
        <time>2012-10-22T07:59:45Z</time>
      </trkpt>
      <trkpt lat="43.49256" lon="6.61508">
        <ele>113.77932</ele>
        <time>2012-10-22T07:59:49Z</time>
      </trkpt>
      <trkpt lat="43.49248" lon="6.61536">
        <ele>114.6958</ele>
        <time>2012-10-22T07:59:53Z</time>
      </trkpt>
      <trkpt lat="43.49238" lon="6.61558">
        <ele>112.69979</ele>
        <time>2012-10-22T07:59:56Z</time>
      </trkpt>
      <trkpt lat="43.49228" lon="6.61581">
        <ele>113.0296</ele>
        <time>2012-10-22T07:59:59Z</time>
      </trkpt>
      <trkpt lat="43.49213" lon="6.61605">
        <ele>113.29843</ele>
        <time>2012-10-22T08:00:03Z</time>
      </trkpt>
      <trkpt lat="43.49196" lon="6.61625">
        <ele>111.3952</ele>
        <time>2012-10-22T08:00:07Z</time>
      </trkpt>
      <trkpt lat="43.49182" lon="6.61648">
        <ele>109.17583</ele>
        <time>2012-10-22T08:00:11Z</time>
      </trkpt>
      <trkpt lat="43.49168" lon="6.61672">
        <ele>106.48532</ele>
        <time>2012-10-22T08:00:15Z</time>
      </trkpt>
      <trkpt lat="43.49155" lon="6.61697">
        <ele>106.18871</ele>
        <time>2012-10-22T08:00:19Z</time>
      </trkpt>
      <trkpt lat="43.49149" lon="6.61721">
        <ele>104.81399</ele>
        <time>2012-10-22T08:00:22Z</time>
      </trkpt>
      <trkpt lat="43.49144" lon="6.61751">
        <ele>105.464584</ele>
        <time>2012-10-22T08:00:26Z</time>
      </trkpt>
      <trkpt lat="43.49143" lon="6.6178">
        <ele>105.939964</ele>
        <time>2012-10-22T08:00:30Z</time>
      </trkpt>
      <trkpt lat="43.49151" lon="6.61812">
        <ele>105.59038</ele>
        <time>2012-10-22T08:00:34Z</time>
      </trkpt>
      <trkpt lat="43.49157" lon="6.61838">
        <ele>104.56157</ele>
        <time>2012-10-22T08:00:37Z</time>
      </trkpt>
      <trkpt lat="43.4916" lon="6.61863">
        <ele>104.09628</ele>
        <time>2012-10-22T08:00:40Z</time>
      </trkpt>
      <trkpt lat="43.49164" lon="6.61891">
        <ele>104.13593</ele>
        <time>2012-10-22T08:00:44Z</time>
      </trkpt>
      <trkpt lat="43.49181" lon="6.61899">
        <ele>106.653946</ele>
        <time>2012-10-22T08:00:51Z</time>
      </trkpt>
      <trkpt lat="43.49199" lon="6.61891">
        <ele>105.44819</ele>
        <time>2012-10-22T08:00:58Z</time>
      </trkpt>
      <trkpt lat="43.49218" lon="6.61881">
        <ele>102.811455</ele>
        <time>2012-10-22T08:01:04Z</time>
      </trkpt>
      <trkpt lat="43.49237" lon="6.61872">
        <ele>101.216934</ele>
        <time>2012-10-22T08:01:10Z</time>
      </trkpt>
      <trkpt lat="43.49256" lon="6.61861">
        <ele>100.19405</ele>
        <time>2012-10-22T08:01:15Z</time>
      </trkpt>
      <trkpt lat="43.49275" lon="6.61848">
        <ele>99.19031</ele>
        <time>2012-10-22T08:01:19Z</time>
      </trkpt>
      <trkpt lat="43.49293" lon="6.61834">
        <ele>98.62271</ele>
        <time>2012-10-22T08:01:23Z</time>
      </trkpt>
      <trkpt lat="43.49313" lon="6.6182">
        <ele>98.801094</ele>
        <time>2012-10-22T08:01:28Z</time>
      </trkpt>
      <trkpt lat="43.4933" lon="6.6181">
        <ele>99.07769</ele>
        <time>2012-10-22T08:01:32Z</time>
      </trkpt>
      <trkpt lat="43.49353" lon="6.61808">
        <ele>98.69324</ele>
        <time>2012-10-22T08:01:37Z</time>
      </trkpt>
      <trkpt lat="43.49372" lon="6.61814">
        <ele>99.69381</ele>
        <time>2012-10-22T08:01:42Z</time>
      </trkpt>
      <trkpt lat="43.49394" lon="6.61819">
        <ele>100.44394</ele>
        <time>2012-10-22T08:01:47Z</time>
      </trkpt>
      <trkpt lat="43.49412" lon="6.61826">
        <ele>101.94515</ele>
        <time>2012-10-22T08:01:51Z</time>
      </trkpt>
      <trkpt lat="43.49431" lon="6.61836">
        <ele>102.316086</ele>
        <time>2012-10-22T08:01:56Z</time>
      </trkpt>
      <trkpt lat="43.49447" lon="6.61819">
        <ele>104.249374</ele>
        <time>2012-10-22T08:02:02Z</time>
      </trkpt>
      <trkpt lat="43.49456" lon="6.61793">
        <ele>104.90097</ele>
        <time>2012-10-22T08:02:07Z</time>
      </trkpt>
      <trkpt lat="43.49472" lon="6.61807">
        <ele>103.26295</ele>
        <time>2012-10-22T08:02:21Z</time>
      </trkpt>
      <trkpt lat="43.49477" lon="6.61833">
        <ele>104.23945</ele>
        <time>2012-10-22T08:02:25Z</time>
      </trkpt>
      <trkpt lat="43.49485" lon="6.61858">
        <ele>102.56795</ele>
        <time>2012-10-22T08:02:29Z</time>
      </trkpt>
      <trkpt lat="43.49502" lon="6.61877">
        <ele>102.53908</ele>
        <time>2012-10-22T08:02:33Z</time>
      </trkpt>
      <trkpt lat="43.49515" lon="6.61897">
        <ele>102.95963</ele>
        <time>2012-10-22T08:02:37Z</time>
      </trkpt>
      <trkpt lat="43.49524" lon="6.61923">
        <ele>101.58098</ele>
        <time>2012-10-22T08:02:41Z</time>
      </trkpt>
      <trkpt lat="43.49536" lon="6.61946">
        <ele>100.797104</ele>
        <time>2012-10-22T08:02:45Z</time>
      </trkpt>
      <trkpt lat="43.49549" lon="6.61968">
        <ele>103.42799</ele>
        <time>2012-10-22T08:02:49Z</time>
      </trkpt>
      <trkpt lat="43.49561" lon="6.6199">
        <ele>106.20183</ele>
        <time>2012-10-22T08:02:53Z</time>
      </trkpt>
      <trkpt lat="43.49577" lon="6.62003">
        <ele>106.493546</ele>
        <time>2012-10-22T08:02:57Z</time>
      </trkpt>
      <trkpt lat="43.49596" lon="6.62002">
        <ele>104.78897</ele>
        <time>2012-10-22T08:03:01Z</time>
      </trkpt>
      <trkpt lat="43.49609" lon="6.61978">
        <ele>102.79651</ele>
        <time>2012-10-22T08:03:05Z</time>
      </trkpt>
      <trkpt lat="43.49611" lon="6.61947">
        <ele>102.52155</ele>
        <time>2012-10-22T08:03:09Z</time>
      </trkpt>
      <trkpt lat="43.49611" lon="6.61922">
        <ele>101.84503</ele>
        <time>2012-10-22T08:03:12Z</time>
      </trkpt>
      <trkpt lat="43.4961" lon="6.61897">
        <ele>102.37212</ele>
        <time>2012-10-22T08:03:15Z</time>
      </trkpt>
      <trkpt lat="43.49608" lon="6.61866">
        <ele>102.30134</ele>
        <time>2012-10-22T08:03:19Z</time>
      </trkpt>
      <trkpt lat="43.49614" lon="6.61835">
        <ele>101.16175</ele>
        <time>2012-10-22T08:03:23Z</time>
      </trkpt>
      <trkpt lat="43.49628" lon="6.61819">
        <ele>100.49011</ele>
        <time>2012-10-22T08:03:26Z</time>
      </trkpt>
      <trkpt lat="43.49648" lon="6.61806">
        <ele>100.01445</ele>
        <time>2012-10-22T08:03:30Z</time>
      </trkpt>
      <trkpt lat="43.49659" lon="6.6178">
        <ele>98.55421</ele>
        <time>2012-10-22T08:03:35Z</time>
      </trkpt>
      <trkpt lat="43.49667" lon="6.61753">
        <ele>98.134445</ele>
        <time>2012-10-22T08:03:40Z</time>
      </trkpt>
      <trkpt lat="43.49671" lon="6.61726">
        <ele>100.24176</ele>
        <time>2012-10-22T08:03:44Z</time>
      </trkpt>
      <trkpt lat="43.49681" lon="6.617">
        <ele>101.8304</ele>
        <time>2012-10-22T08:03:48Z</time>
      </trkpt>
      <trkpt lat="43.49691" lon="6.61679">
        <ele>102.99095</ele>
        <time>2012-10-22T08:03:51Z</time>
      </trkpt>
      <trkpt lat="43.49698" lon="6.61653">
        <ele>104.35261</ele>
        <time>2012-10-22T08:03:55Z</time>
      </trkpt>
      <trkpt lat="43.49713" lon="6.6163">
        <ele>105.56078</ele>
        <time>2012-10-22T08:03:59Z</time>
      </trkpt>
      <trkpt lat="43.49725" lon="6.61609">
        <ele>103.97431</ele>
        <time>2012-10-22T08:04:03Z</time>
      </trkpt>
      <trkpt lat="43.49739" lon="6.61583">
        <ele>104.241875</ele>
        <time>2012-10-22T08:04:07Z</time>
      </trkpt>
      <trkpt lat="43.49742" lon="6.61558">
        <ele>103.52392</ele>
        <time>2012-10-22T08:04:10Z</time>
      </trkpt>
      <trkpt lat="43.49745" lon="6.61525">
        <ele>104.28296</ele>
        <time>2012-10-22T08:04:14Z</time>
      </trkpt>
      <trkpt lat="43.49748" lon="6.61496">
        <ele>104.02703</ele>
        <time>2012-10-22T08:04:18Z</time>
      </trkpt>
      <trkpt lat="43.49757" lon="6.61469">
        <ele>104.03191</ele>
        <time>2012-10-22T08:04:24Z</time>
      </trkpt>
      <trkpt lat="43.49763" lon="6.6144">
        <ele>101.791756</ele>
        <time>2012-10-22T08:04:29Z</time>
      </trkpt>
      <trkpt lat="43.49769" lon="6.61415">
        <ele>103.1812</ele>
        <time>2012-10-22T08:04:35Z</time>
      </trkpt>
      <trkpt lat="43.4977" lon="6.61389">
        <ele>103.81179</ele>
        <time>2012-10-22T08:04:41Z</time>
      </trkpt>
      <trkpt lat="43.49768" lon="6.61362">
        <ele>105.53982</ele>
        <time>2012-10-22T08:04:48Z</time>
      </trkpt>
      <trkpt lat="43.49765" lon="6.61336">
        <ele>104.34658</ele>
        <time>2012-10-22T08:04:52Z</time>
      </trkpt>
      <trkpt lat="43.49772" lon="6.6131">
        <ele>101.726845</ele>
        <time>2012-10-22T08:04:56Z</time>
      </trkpt>
      <trkpt lat="43.4979" lon="6.61297">
        <ele>99.77014</ele>
        <time>2012-10-22T08:05:01Z</time>
      </trkpt>
      <trkpt lat="43.49809" lon="6.61288">
        <ele>101.04836</ele>
        <time>2012-10-22T08:05:05Z</time>
      </trkpt>
      <trkpt lat="43.49822" lon="6.61268">
        <ele>102.723526</ele>
        <time>2012-10-22T08:05:08Z</time>
      </trkpt>
      <trkpt lat="43.49833" lon="6.61247">
        <ele>104.49846</ele>
        <time>2012-10-22T08:05:12Z</time>
      </trkpt>
      <trkpt lat="43.49851" lon="6.61236">
        <ele>105.567505</ele>
        <time>2012-10-22T08:05:17Z</time>
      </trkpt>
      <trkpt lat="43.49872" lon="6.61235">
        <ele>106.2616</ele>
        <time>2012-10-22T08:05:21Z</time>
      </trkpt>
      <trkpt lat="43.49887" lon="6.61216">
        <ele>106.2234</ele>
        <time>2012-10-22T08:05:25Z</time>
      </trkpt>
      <trkpt lat="43.499" lon="6.61197">
        <ele>110.135704</ele>
        <time>2012-10-22T08:05:31Z</time>
      </trkpt>
      <trkpt lat="43.49915" lon="6.61179">
        <ele>108.95911</ele>
        <time>2012-10-22T08:05:40Z</time>
      </trkpt>
      <trkpt lat="43.49917" lon="6.61149">
        <ele>110.68584</ele>
        <time>2012-10-22T08:05:46Z</time>
      </trkpt>
      <trkpt lat="43.49918" lon="6.61118">
        <ele>110.10123</ele>
        <time>2012-10-22T08:05:51Z</time>
      </trkpt>
      <trkpt lat="43.49921" lon="6.61093">
        <ele>110.61015</ele>
        <time>2012-10-22T08:05:55Z</time>
      </trkpt>
      <trkpt lat="43.49919" lon="6.61067">
        <ele>110.95868</ele>
        <time>2012-10-22T08:05:59Z</time>
      </trkpt>
      <trkpt lat="43.49914" lon="6.61037">
        <ele>110.4088</ele>
        <time>2012-10-22T08:06:03Z</time>
      </trkpt>
      <trkpt lat="43.49913" lon="6.61008">
        <ele>110.81294</ele>
        <time>2012-10-22T08:06:07Z</time>
      </trkpt>
      <trkpt lat="43.49913" lon="6.60977">
        <ele>111.19081</ele>
        <time>2012-10-22T08:06:11Z</time>
      </trkpt>
      <trkpt lat="43.49907" lon="6.6095">
        <ele>110.81037</ele>
        <time>2012-10-22T08:06:15Z</time>
      </trkpt>
      <trkpt lat="43.499" lon="6.60927">
        <ele>110.83453</ele>
        <time>2012-10-22T08:06:19Z</time>
      </trkpt>
      <trkpt lat="43.49892" lon="6.60902">
        <ele>111.79179</ele>
        <time>2012-10-22T08:06:24Z</time>
      </trkpt>
      <trkpt lat="43.49881" lon="6.60878">
        <ele>115.6314</ele>
        <time>2012-10-22T08:06:30Z</time>
      </trkpt>
      <trkpt lat="43.49878" lon="6.60853">
        <ele>116.56696</ele>
        <time>2012-10-22T08:06:34Z</time>
      </trkpt>
      <trkpt lat="43.49869" lon="6.60826">
        <ele>116.70974</ele>
        <time>2012-10-22T08:06:39Z</time>
      </trkpt>
      <trkpt lat="43.49867" lon="6.60801">
        <ele>116.33003</ele>
        <time>2012-10-22T08:06:43Z</time>
      </trkpt>
      <trkpt lat="43.49872" lon="6.60776">
        <ele>115.92083</ele>
        <time>2012-10-22T08:06:47Z</time>
      </trkpt>
      <trkpt lat="43.49879" lon="6.6075">
        <ele>117.67417</ele>
        <time>2012-10-22T08:06:51Z</time>
      </trkpt>
      <trkpt lat="43.49877" lon="6.60723">
        <ele>118.393</ele>
        <time>2012-10-22T08:06:55Z</time>
      </trkpt>
      <trkpt lat="43.49876" lon="6.60692">
        <ele>119.79346</ele>
        <time>2012-10-22T08:07:00Z</time>
      </trkpt>
      <trkpt lat="43.49881" lon="6.60668">
        <ele>122.12996</ele>
        <time>2012-10-22T08:07:04Z</time>
      </trkpt>
      <trkpt lat="43.49881" lon="6.60639">
        <ele>121.94881</ele>
        <time>2012-10-22T08:07:09Z</time>
      </trkpt>
      <trkpt lat="43.49866" lon="6.60624">
        <ele>122.20773</ele>
        <time>2012-10-22T08:07:17Z</time>
      </trkpt>
      <trkpt lat="43.49848" lon="6.60632">
        <ele>121.75666</ele>
        <time>2012-10-22T08:07:29Z</time>
      </trkpt>
      <trkpt lat="43.49832" lon="6.60644">
        <ele>122.3731</ele>
        <time>2012-10-22T08:07:55Z</time>
      </trkpt>
      <trkpt lat="43.49812" lon="6.60639">
        <ele>119.70961</ele>
        <time>2012-10-22T08:11:05Z</time>
      </trkpt>
      <trkpt lat="43.49793" lon="6.6064">
        <ele>120.989685</ele>
        <time>2012-10-22T08:11:10Z</time>
      </trkpt>
      <trkpt lat="43.49774" lon="6.6064">
        <ele>120.996735</ele>
        <time>2012-10-22T08:11:14Z</time>
      </trkpt>
      <trkpt lat="43.49754" lon="6.60645">
        <ele>121.32442</ele>
        <time>2012-10-22T08:11:19Z</time>
      </trkpt>
      <trkpt lat="43.49736" lon="6.60652">
        <ele>121.43468</ele>
        <time>2012-10-22T08:11:23Z</time>
      </trkpt>
      <trkpt lat="43.49718" lon="6.60663">
        <ele>122.84338</ele>
        <time>2012-10-22T08:11:28Z</time>
      </trkpt>
      <trkpt lat="43.49697" lon="6.60671">
        <ele>122.22779</ele>
        <time>2012-10-22T08:11:32Z</time>
      </trkpt>
      <trkpt lat="43.49679" lon="6.60676">
        <ele>122.759575</ele>
        <time>2012-10-22T08:11:36Z</time>
      </trkpt>
      <trkpt lat="43.49661" lon="6.60688">
        <ele>123.74798</ele>
        <time>2012-10-22T08:11:42Z</time>
      </trkpt>
      <trkpt lat="43.49646" lon="6.60707">
        <ele>121.01401</ele>
        <time>2012-10-22T08:11:46Z</time>
      </trkpt>
      <trkpt lat="43.49633" lon="6.60736">
        <ele>120.31693</ele>
        <time>2012-10-22T08:11:50Z</time>
      </trkpt>
      <trkpt lat="43.49619" lon="6.6076">
        <ele>120.97919</ele>
        <time>2012-10-22T08:11:54Z</time>
      </trkpt>
      <trkpt lat="43.49608" lon="6.6078">
        <ele>121.27247</ele>
        <time>2012-10-22T08:11:57Z</time>
      </trkpt>
      <trkpt lat="43.49595" lon="6.60802">
        <ele>120.344025</ele>
        <time>2012-10-22T08:12:01Z</time>
      </trkpt>
      <trkpt lat="43.49578" lon="6.60819">
        <ele>119.96822</ele>
        <time>2012-10-22T08:12:05Z</time>
      </trkpt>
      <trkpt lat="43.49562" lon="6.6084">
        <ele>120.59151</ele>
        <time>2012-10-22T08:12:09Z</time>
      </trkpt>
      <trkpt lat="43.49546" lon="6.60858">
        <ele>121.41372</ele>
        <time>2012-10-22T08:12:13Z</time>
      </trkpt>
      <trkpt lat="43.49527" lon="6.60873">
        <ele>118.88481</ele>
        <time>2012-10-22T08:12:17Z</time>
      </trkpt>
      <trkpt lat="43.49508" lon="6.60886">
        <ele>118.00196</ele>
        <time>2012-10-22T08:12:22Z</time>
      </trkpt>
      <trkpt lat="43.49488" lon="6.60897">
        <ele>116.76085</ele>
        <time>2012-10-22T08:12:28Z</time>
      </trkpt>
      <trkpt lat="43.49466" lon="6.6091">
        <ele>116.73426</ele>
        <time>2012-10-22T08:12:33Z</time>
      </trkpt>
      <trkpt lat="43.49446" lon="6.60916">
        <ele>117.84951</ele>
        <time>2012-10-22T08:12:37Z</time>
      </trkpt>
      <trkpt lat="43.49428" lon="6.6092">
        <ele>120.97582</ele>
        <time>2012-10-22T08:12:41Z</time>
      </trkpt>
      <trkpt lat="43.49407" lon="6.60925">
        <ele>124.42465</ele>
        <time>2012-10-22T08:12:47Z</time>
      </trkpt>
      <trkpt lat="43.49389" lon="6.60928">
        <ele>123.23983</ele>
        <time>2012-10-22T08:12:51Z</time>
      </trkpt>
      <trkpt lat="43.49371" lon="6.60932">
        <ele>121.39229</ele>
        <time>2012-10-22T08:12:55Z</time>
      </trkpt>
      <trkpt lat="43.49352" lon="6.60931">
        <ele>121.4155</ele>
        <time>2012-10-22T08:12:58Z</time>
      </trkpt>
      <trkpt lat="43.49333" lon="6.60934">
        <ele>120.88147</ele>
        <time>2012-10-22T08:13:02Z</time>
      </trkpt>
      <trkpt lat="43.49311" lon="6.60945">
        <ele>122.87441</ele>
        <time>2012-10-22T08:13:08Z</time>
      </trkpt>
      <trkpt lat="43.49291" lon="6.60952">
        <ele>122.878235</ele>
        <time>2012-10-22T08:13:12Z</time>
      </trkpt>
      <trkpt lat="43.49273" lon="6.60952">
        <ele>122.77788</ele>
        <time>2012-10-22T08:13:16Z</time>
      </trkpt>
      <trkpt lat="43.49254" lon="6.60952">
        <ele>120.39456</ele>
        <time>2012-10-22T08:13:20Z</time>
      </trkpt>
      <trkpt lat="43.49234" lon="6.60944">
        <ele>120.55843</ele>
        <time>2012-10-22T08:13:24Z</time>
      </trkpt>
      <trkpt lat="43.49222" lon="6.60922">
        <ele>118.59084</ele>
        <time>2012-10-22T08:13:30Z</time>
      </trkpt>
      <trkpt lat="43.49223" lon="6.60893">
        <ele>121.57586</ele>
        <time>2012-10-22T08:13:36Z</time>
      </trkpt>
      <trkpt lat="43.49228" lon="6.60863">
        <ele>123.28314</ele>
        <time>2012-10-22T08:13:41Z</time>
      </trkpt>
      <trkpt lat="43.49243" lon="6.60845">
        <ele>120.64831</ele>
        <time>2012-10-22T08:13:53Z</time>
      </trkpt>
      <trkpt lat="43.49263" lon="6.60831">
        <ele>121.017296</ele>
        <time>2012-10-22T08:14:01Z</time>
      </trkpt>
      <trkpt lat="43.49283" lon="6.60819">
        <ele>120.896095</ele>
        <time>2012-10-22T08:14:05Z</time>
      </trkpt>
      <trkpt lat="43.49302" lon="6.6081">
        <ele>120.690186</ele>
        <time>2012-10-22T08:14:10Z</time>
      </trkpt>
      <trkpt lat="43.49323" lon="6.60805">
        <ele>119.03495</ele>
        <time>2012-10-22T08:14:16Z</time>
      </trkpt>
      <trkpt lat="43.4934" lon="6.60798">
        <ele>119.97997</ele>
        <time>2012-10-22T08:14:21Z</time>
      </trkpt>
      <trkpt lat="43.49358" lon="6.60795">
        <ele>119.44468</ele>
        <time>2012-10-22T08:14:24Z</time>
      </trkpt>
      <trkpt lat="43.49377" lon="6.6079">
        <ele>118.609474</ele>
        <time>2012-10-22T08:14:27Z</time>
      </trkpt>
      <trkpt lat="43.49397" lon="6.60784">
        <ele>117.81962</ele>
        <time>2012-10-22T08:14:30Z</time>
      </trkpt>
      <trkpt lat="43.49421" lon="6.60775">
        <ele>116.65386</ele>
        <time>2012-10-22T08:14:34Z</time>
      </trkpt>
      <trkpt lat="43.49443" lon="6.60771">
        <ele>115.2772</ele>
        <time>2012-10-22T08:14:38Z</time>
      </trkpt>
      <trkpt lat="43.49461" lon="6.60763">
        <ele>116.4588</ele>
        <time>2012-10-22T08:14:42Z</time>
      </trkpt>
      <trkpt lat="43.4947" lon="6.6074">
        <ele>118.249756</ele>
        <time>2012-10-22T08:15:06Z</time>
      </trkpt>
      <trkpt lat="43.49465" lon="6.60714">
        <ele>115.70874</ele>
        <time>2012-10-22T08:15:16Z</time>
      </trkpt>
      <trkpt lat="43.4946" lon="6.6069">
        <ele>112.31708</ele>
        <time>2012-10-22T08:15:23Z</time>
      </trkpt>
      <trkpt lat="43.49457" lon="6.6066">
        <ele>112.54819</ele>
        <time>2012-10-22T08:15:33Z</time>
      </trkpt>
      <trkpt lat="43.49467" lon="6.60631">
        <ele>113.23165</ele>
        <time>2012-10-22T08:15:38Z</time>
      </trkpt>
      <trkpt lat="43.49468" lon="6.60602">
        <ele>112.48466</ele>
        <time>2012-10-22T08:15:43Z</time>
      </trkpt>
      <trkpt lat="43.49465" lon="6.60573">
        <ele>114.17947</ele>
        <time>2012-10-22T08:15:48Z</time>
      </trkpt>
      <trkpt lat="43.49463" lon="6.60541">
        <ele>112.70913</ele>
        <time>2012-10-22T08:15:52Z</time>
      </trkpt>
      <trkpt lat="43.49465" lon="6.60516">
        <ele>113.15854</ele>
        <time>2012-10-22T08:15:55Z</time>
      </trkpt>
      <trkpt lat="43.49467" lon="6.60486">
        <ele>110.76501</ele>
        <time>2012-10-22T08:15:59Z</time>
      </trkpt>
      <trkpt lat="43.49466" lon="6.60454">
        <ele>106.445175</ele>
        <time>2012-10-22T08:16:03Z</time>
      </trkpt>
      <trkpt lat="43.49466" lon="6.60426">
        <ele>110.08617</ele>
        <time>2012-10-22T08:16:07Z</time>
      </trkpt>
      <trkpt lat="43.49467" lon="6.60395">
        <ele>112.6308</ele>
        <time>2012-10-22T08:16:12Z</time>
      </trkpt>
      <trkpt lat="43.49467" lon="6.60364">
        <ele>108.59022</ele>
        <time>2012-10-22T08:16:16Z</time>
      </trkpt>
      <trkpt lat="43.49464" lon="6.60333">
        <ele>106.905495</ele>
        <time>2012-10-22T08:16:20Z</time>
      </trkpt>
      <trkpt lat="43.49463" lon="6.60303">
        <ele>108.12635</ele>
        <time>2012-10-22T08:16:24Z</time>
      </trkpt>
      <trkpt lat="43.49462" lon="6.60276">
        <ele>105.77206</ele>
        <time>2012-10-22T08:16:27Z</time>
      </trkpt>
      <trkpt lat="43.49457" lon="6.60249">
        <ele>103.98647</ele>
        <time>2012-10-22T08:16:31Z</time>
      </trkpt>
      <trkpt lat="43.49452" lon="6.60223">
        <ele>103.109</ele>
        <time>2012-10-22T08:16:35Z</time>
      </trkpt>
      <trkpt lat="43.49451" lon="6.60193">
        <ele>102.866516</ele>
        <time>2012-10-22T08:16:39Z</time>
      </trkpt>
      <trkpt lat="43.49455" lon="6.60167">
        <ele>108.61792</ele>
        <time>2012-10-22T08:16:43Z</time>
      </trkpt>
      <trkpt lat="43.49459" lon="6.60139">
        <ele>99.56949</ele>
        <time>2012-10-22T08:16:49Z</time>
      </trkpt>
      <trkpt lat="43.49462" lon="6.60114">
        <ele>89.5591</ele>
        <time>2012-10-22T08:16:53Z</time>
      </trkpt>
      <trkpt lat="43.49456" lon="6.60089">
        <ele>105.59363</ele>
        <time>2012-10-22T08:17:10Z</time>
      </trkpt>
      <trkpt lat="43.49441" lon="6.60074">
        <ele>103.36475</ele>
        <time>2012-10-22T08:17:22Z</time>
      </trkpt>
      <trkpt lat="43.49425" lon="6.60058">
        <ele>106.01668</ele>
        <time>2012-10-22T08:17:36Z</time>
      </trkpt>
      <trkpt lat="43.4941" lon="6.60044">
        <ele>107.47739</ele>
        <time>2012-10-22T08:17:43Z</time>
      </trkpt>
      <trkpt lat="43.49393" lon="6.60028">
        <ele>104.58497</ele>
        <time>2012-10-22T08:17:48Z</time>
      </trkpt>
      <trkpt lat="43.49375" lon="6.60011">
        <ele>103.14603</ele>
        <time>2012-10-22T08:17:52Z</time>
      </trkpt>
      <trkpt lat="43.49355" lon="6.59996">
        <ele>100.95636</ele>
        <time>2012-10-22T08:17:56Z</time>
      </trkpt>
      <trkpt lat="43.49336" lon="6.59981">
        <ele>99.25963</ele>
        <time>2012-10-22T08:18:00Z</time>
      </trkpt>
      <trkpt lat="43.49318" lon="6.59966">
        <ele>95.41027</ele>
        <time>2012-10-22T08:18:04Z</time>
      </trkpt>
      <trkpt lat="43.493" lon="6.59942">
        <ele>80.429886</ele>
        <time>2012-10-22T08:18:11Z</time>
      </trkpt>
      <trkpt lat="43.49283" lon="6.59926">
        <ele>78.22823</ele>
        <time>2012-10-22T08:18:14Z</time>
      </trkpt>
      <trkpt lat="43.49265" lon="6.59913">
        <ele>79.73691</ele>
        <time>2012-10-22T08:18:17Z</time>
      </trkpt>
      <trkpt lat="43.49248" lon="6.59896">
        <ele>88.83134</ele>
        <time>2012-10-22T08:18:24Z</time>
      </trkpt>
      <trkpt lat="43.49229" lon="6.59888">
        <ele>88.27638</ele>
        <time>2012-10-22T08:18:29Z</time>
      </trkpt>
      <trkpt lat="43.49209" lon="6.59888">
        <ele>86.443146</ele>
        <time>2012-10-22T08:18:36Z</time>
      </trkpt>
      <trkpt lat="43.49198" lon="6.59861">
        <ele>85.86981</ele>
        <time>2012-10-22T08:18:41Z</time>
      </trkpt>
      <trkpt lat="43.49188" lon="6.5983">
        <ele>83.19709</ele>
        <time>2012-10-22T08:18:45Z</time>
      </trkpt>
      <trkpt lat="43.49177" lon="6.59807">
        <ele>80.88002</ele>
        <time>2012-10-22T08:18:48Z</time>
      </trkpt>
      <trkpt lat="43.49165" lon="6.59785">
        <ele>80.76189</ele>
        <time>2012-10-22T08:18:51Z</time>
      </trkpt>
      <trkpt lat="43.49154" lon="6.59761">
        <ele>81.14954</ele>
        <time>2012-10-22T08:18:54Z</time>
      </trkpt>
      <trkpt lat="43.49145" lon="6.59736">
        <ele>81.71934</ele>
        <time>2012-10-22T08:18:57Z</time>
      </trkpt>
      <trkpt lat="43.49137" lon="6.59713">
        <ele>80.8816</ele>
        <time>2012-10-22T08:19:00Z</time>
      </trkpt>
      <trkpt lat="43.49128" lon="6.5969">
        <ele>79.215675</ele>
        <time>2012-10-22T08:19:03Z</time>
      </trkpt>
      <trkpt lat="43.49119" lon="6.59664">
        <ele>79.77849</ele>
        <time>2012-10-22T08:19:06Z</time>
      </trkpt>
      <trkpt lat="43.49109" lon="6.5964">
        <ele>79.59405</ele>
        <time>2012-10-22T08:19:09Z</time>
      </trkpt>
      <trkpt lat="43.49097" lon="6.5962">
        <ele>78.42249</ele>
        <time>2012-10-22T08:19:12Z</time>
      </trkpt>
      <trkpt lat="43.49083" lon="6.59599">
        <ele>77.92824</ele>
        <time>2012-10-22T08:19:15Z</time>
      </trkpt>
      <trkpt lat="43.49068" lon="6.59581">
        <ele>76.56348</ele>
        <time>2012-10-22T08:19:18Z</time>
      </trkpt>
      <trkpt lat="43.4905" lon="6.59566">
        <ele>77.25334</ele>
        <time>2012-10-22T08:19:21Z</time>
      </trkpt>
      <trkpt lat="43.49032" lon="6.59547">
        <ele>76.997505</ele>
        <time>2012-10-22T08:19:24Z</time>
      </trkpt>
      <trkpt lat="43.49017" lon="6.5952">
        <ele>75.98332</ele>
        <time>2012-10-22T08:19:27Z</time>
      </trkpt>
      <trkpt lat="43.49006" lon="6.59493">
        <ele>75.41484</ele>
        <time>2012-10-22T08:19:30Z</time>
      </trkpt>
      <trkpt lat="43.48996" lon="6.59469">
        <ele>73.128136</ele>
        <time>2012-10-22T08:19:33Z</time>
      </trkpt>
      <trkpt lat="43.48991" lon="6.59441">
        <ele>74.554054</ele>
        <time>2012-10-22T08:19:36Z</time>
      </trkpt>
      <trkpt lat="43.48972" lon="6.59424">
        <ele>73.46437</ele>
        <time>2012-10-22T08:19:40Z</time>
      </trkpt>
      <trkpt lat="43.48959" lon="6.59401">
        <ele>70.80708</ele>
        <time>2012-10-22T08:19:44Z</time>
      </trkpt>
      <trkpt lat="43.48961" lon="6.59375">
        <ele>67.07624</ele>
        <time>2012-10-22T08:19:51Z</time>
      </trkpt>
      <trkpt lat="43.4898" lon="6.59373">
        <ele>71.10777</ele>
        <time>2012-10-22T08:19:59Z</time>
      </trkpt>
      <trkpt lat="43.49" lon="6.59367">
        <ele>72.99135</ele>
        <time>2012-10-22T08:20:05Z</time>
      </trkpt>
      <trkpt lat="43.49034" lon="6.59344">
        <ele>78.65333</ele>
        <time>2012-10-22T08:20:16Z</time>
      </trkpt>
      <trkpt lat="43.4905" lon="6.59322">
        <ele>70.71249</ele>
        <time>2012-10-22T08:20:25Z</time>
      </trkpt>
      <trkpt lat="43.49069" lon="6.59342">
        <ele>76.02681</ele>
        <time>2012-10-22T08:20:53Z</time>
      </trkpt>
      <trkpt lat="43.49088" lon="6.59319">
        <ele>87.135925</ele>
        <time>2012-10-22T08:21:32Z</time>
      </trkpt>
      <trkpt lat="43.49104" lon="6.59303">
        <ele>86.331085</ele>
        <time>2012-10-22T08:21:37Z</time>
      </trkpt>
      <trkpt lat="43.49119" lon="6.59285">
        <ele>85.13716</ele>
        <time>2012-10-22T08:21:42Z</time>
      </trkpt>
      <trkpt lat="43.49134" lon="6.59272">
        <ele>84.105896</ele>
        <time>2012-10-22T08:21:46Z</time>
      </trkpt>
      <trkpt lat="43.49155" lon="6.59259">
        <ele>80.36986</ele>
        <time>2012-10-22T08:21:51Z</time>
      </trkpt>
      <trkpt lat="43.49169" lon="6.59241">
        <ele>82.441246</ele>
        <time>2012-10-22T08:21:55Z</time>
      </trkpt>
      <trkpt lat="43.49181" lon="6.59218">
        <ele>81.030235</ele>
        <time>2012-10-22T08:21:59Z</time>
      </trkpt>
      <trkpt lat="43.4919" lon="6.59195">
        <ele>77.46714</ele>
        <time>2012-10-22T08:22:04Z</time>
      </trkpt>
      <trkpt lat="43.49198" lon="6.59172">
        <ele>73.4507</ele>
        <time>2012-10-22T08:22:09Z</time>
      </trkpt>
      <trkpt lat="43.49212" lon="6.59153">
        <ele>75.18557</ele>
        <time>2012-10-22T08:22:13Z</time>
      </trkpt>
      <trkpt lat="43.49227" lon="6.59136">
        <ele>77.34387</ele>
        <time>2012-10-22T08:22:17Z</time>
      </trkpt>
      <trkpt lat="43.49246" lon="6.59126">
        <ele>78.169464</ele>
        <time>2012-10-22T08:22:30Z</time>
      </trkpt>
      <trkpt lat="43.49266" lon="6.59142">
        <ele>78.71697</ele>
        <time>2012-10-22T08:22:35Z</time>
      </trkpt>
      <trkpt lat="43.49282" lon="6.59151">
        <ele>78.9221</ele>
        <time>2012-10-22T08:22:40Z</time>
      </trkpt>
      <trkpt lat="43.493" lon="6.59161">
        <ele>77.350235</ele>
        <time>2012-10-22T08:22:49Z</time>
      </trkpt>
      <trkpt lat="43.49312" lon="6.5918">
        <ele>76.54675</ele>
        <time>2012-10-22T08:22:56Z</time>
      </trkpt>
      <trkpt lat="43.49316" lon="6.59212">
        <ele>74.13072</ele>
        <time>2012-10-22T08:23:01Z</time>
      </trkpt>
      <trkpt lat="43.49315" lon="6.59237">
        <ele>73.53745</ele>
        <time>2012-10-22T08:23:05Z</time>
      </trkpt>
      <trkpt lat="43.49315" lon="6.59267">
        <ele>75.424416</ele>
        <time>2012-10-22T08:23:10Z</time>
      </trkpt>
      <trkpt lat="43.49313" lon="6.59298">
        <ele>76.27943</ele>
        <time>2012-10-22T08:23:15Z</time>
      </trkpt>
      <trkpt lat="43.49314" lon="6.59325">
        <ele>77.683495</ele>
        <time>2012-10-22T08:23:20Z</time>
      </trkpt>
      <trkpt lat="43.4931" lon="6.59352">
        <ele>77.54989</ele>
        <time>2012-10-22T08:23:28Z</time>
      </trkpt>
      <trkpt lat="43.4931" lon="6.59381">
        <ele>80.99582</ele>
        <time>2012-10-22T08:23:34Z</time>
      </trkpt>
      <trkpt lat="43.49316" lon="6.59407">
        <ele>80.999985</ele>
        <time>2012-10-22T08:23:39Z</time>
      </trkpt>
      <trkpt lat="43.49328" lon="6.59427">
        <ele>80.52734</ele>
        <time>2012-10-22T08:23:44Z</time>
      </trkpt>
      <trkpt lat="43.49341" lon="6.59443">
        <ele>81.83092</ele>
        <time>2012-10-22T08:23:48Z</time>
      </trkpt>
      <trkpt lat="43.49361" lon="6.59457">
        <ele>82.346596</ele>
        <time>2012-10-22T08:23:53Z</time>
      </trkpt>
      <trkpt lat="43.49377" lon="6.59477">
        <ele>77.07749</ele>
        <time>2012-10-22T08:24:04Z</time>
      </trkpt>
      <trkpt lat="43.49394" lon="6.59487">
        <ele>76.11658</ele>
        <time>2012-10-22T08:24:10Z</time>
      </trkpt>
      <trkpt lat="43.49416" lon="6.59492">
        <ele>78.27376</ele>
        <time>2012-10-22T08:24:15Z</time>
      </trkpt>
      <trkpt lat="43.49435" lon="6.59489">
        <ele>77.11477</ele>
        <time>2012-10-22T08:24:20Z</time>
      </trkpt>
      <trkpt lat="43.49457" lon="6.59491">
        <ele>79.3339</ele>
        <time>2012-10-22T08:24:26Z</time>
      </trkpt>
      <trkpt lat="43.49477" lon="6.59489">
        <ele>80.80878</ele>
        <time>2012-10-22T08:24:30Z</time>
      </trkpt>
      <trkpt lat="43.49498" lon="6.59484">
        <ele>82.0684</ele>
        <time>2012-10-22T08:24:34Z</time>
      </trkpt>
      <trkpt lat="43.49521" lon="6.59479">
        <ele>81.56461</ele>
        <time>2012-10-22T08:24:38Z</time>
      </trkpt>
      <trkpt lat="43.49539" lon="6.59474">
        <ele>82.23724</ele>
        <time>2012-10-22T08:24:42Z</time>
      </trkpt>
      <trkpt lat="43.4956" lon="6.59471">
        <ele>84.676414</ele>
        <time>2012-10-22T08:24:47Z</time>
      </trkpt>
      <trkpt lat="43.49579" lon="6.59466">
        <ele>81.73766</ele>
        <time>2012-10-22T08:24:52Z</time>
      </trkpt>
      <trkpt lat="43.49596" lon="6.5945">
        <ele>80.3502</ele>
        <time>2012-10-22T08:25:03Z</time>
      </trkpt>
      <trkpt lat="43.4962" lon="6.59446">
        <ele>74.48643</ele>
        <time>2012-10-22T08:25:08Z</time>
      </trkpt>
      <trkpt lat="43.49641" lon="6.59437">
        <ele>74.15391</ele>
        <time>2012-10-22T08:25:12Z</time>
      </trkpt>
      <trkpt lat="43.49656" lon="6.59425">
        <ele>78.790085</ele>
        <time>2012-10-22T08:25:18Z</time>
      </trkpt>
      <trkpt lat="43.49676" lon="6.59414">
        <ele>79.59374</ele>
        <time>2012-10-22T08:25:23Z</time>
      </trkpt>
      <trkpt lat="43.49695" lon="6.59403">
        <ele>77.51681</ele>
        <time>2012-10-22T08:25:29Z</time>
      </trkpt>
      <trkpt lat="43.4971" lon="6.59386">
        <ele>76.10248</ele>
        <time>2012-10-22T08:25:35Z</time>
      </trkpt>
      <trkpt lat="43.49724" lon="6.59368">
        <ele>79.443535</ele>
        <time>2012-10-22T08:25:49Z</time>
      </trkpt>
      <trkpt lat="43.49735" lon="6.59347">
        <ele>73.47034</ele>
        <time>2012-10-22T08:25:56Z</time>
      </trkpt>
      <trkpt lat="43.4975" lon="6.59329">
        <ele>78.008514</ele>
        <time>2012-10-22T08:26:02Z</time>
      </trkpt>
      <trkpt lat="43.4976" lon="6.59309">
        <ele>78.398506</ele>
        <time>2012-10-22T08:26:07Z</time>
      </trkpt>
      <trkpt lat="43.49768" lon="6.59284">
        <ele>78.47738</ele>
        <time>2012-10-22T08:26:12Z</time>
      </trkpt>
      <trkpt lat="43.49778" lon="6.59258">
        <ele>78.069336</ele>
        <time>2012-10-22T08:26:17Z</time>
      </trkpt>
      <trkpt lat="43.49788" lon="6.59231">
        <ele>78.88462</ele>
        <time>2012-10-22T08:26:22Z</time>
      </trkpt>
      <trkpt lat="43.49799" lon="6.59211">
        <ele>83.311485</ele>
        <time>2012-10-22T08:26:27Z</time>
      </trkpt>
      <trkpt lat="43.49816" lon="6.59197">
        <ele>84.43532</ele>
        <time>2012-10-22T08:26:33Z</time>
      </trkpt>
      <trkpt lat="43.49831" lon="6.59177">
        <ele>84.69979</ele>
        <time>2012-10-22T08:26:39Z</time>
      </trkpt>
      <trkpt lat="43.49844" lon="6.59157">
        <ele>83.17533</ele>
        <time>2012-10-22T08:26:45Z</time>
      </trkpt>
      <trkpt lat="43.49862" lon="6.59154">
        <ele>66.16452</ele>
        <time>2012-10-22T08:26:52Z</time>
      </trkpt>
      <trkpt lat="43.4987" lon="6.59179">
        <ele>46.588608</ele>
        <time>2012-10-22T08:27:01Z</time>
      </trkpt>
      <trkpt lat="43.49855" lon="6.59198">
        <ele>63.410187</ele>
        <time>2012-10-22T08:27:06Z</time>
      </trkpt>
      <trkpt lat="43.49839" lon="6.59213">
        <ele>78.35206</ele>
        <time>2012-10-22T08:27:12Z</time>
      </trkpt>
      <trkpt lat="43.49831" lon="6.59238">
        <ele>81.34012</ele>
        <time>2012-10-22T08:27:21Z</time>
      </trkpt>
      <trkpt lat="43.49826" lon="6.59266">
        <ele>80.951805</ele>
        <time>2012-10-22T08:27:26Z</time>
      </trkpt>
      <trkpt lat="43.49822" lon="6.59292">
        <ele>83.50028</ele>
        <time>2012-10-22T08:27:31Z</time>
      </trkpt>
      <trkpt lat="43.49834" lon="6.59311">
        <ele>83.665215</ele>
        <time>2012-10-22T08:27:37Z</time>
      </trkpt>
      <trkpt lat="43.49849" lon="6.59326">
        <ele>78.36562</ele>
        <time>2012-10-22T08:28:11Z</time>
      </trkpt>
      <trkpt lat="43.49865" lon="6.59337">
        <ele>80.46889</ele>
        <time>2012-10-22T08:28:31Z</time>
      </trkpt>
      <trkpt lat="43.4988" lon="6.59353">
        <ele>85.00903</ele>
        <time>2012-10-22T08:28:49Z</time>
      </trkpt>
      <trkpt lat="43.49897" lon="6.59367">
        <ele>85.171234</ele>
        <time>2012-10-22T08:28:58Z</time>
      </trkpt>
      <trkpt lat="43.49913" lon="6.59382">
        <ele>84.679405</ele>
        <time>2012-10-22T08:29:04Z</time>
      </trkpt>
      <trkpt lat="43.49928" lon="6.59397">
        <ele>88.06013</ele>
        <time>2012-10-22T08:29:10Z</time>
      </trkpt>
      <trkpt lat="43.49944" lon="6.59414">
        <ele>89.601524</ele>
        <time>2012-10-22T08:29:16Z</time>
      </trkpt>
      <trkpt lat="43.49956" lon="6.59432">
        <ele>92.37219</ele>
        <time>2012-10-22T08:29:22Z</time>
      </trkpt>
      <trkpt lat="43.49975" lon="6.59418">
        <ele>91.75551</ele>
        <time>2012-10-22T08:29:32Z</time>
      </trkpt>
      <trkpt lat="43.4998" lon="6.59394">
        <ele>91.71259</ele>
        <time>2012-10-22T08:29:38Z</time>
      </trkpt>
      <trkpt lat="43.4999" lon="6.59373">
        <ele>92.133415</ele>
        <time>2012-10-22T08:29:44Z</time>
      </trkpt>
      <trkpt lat="43.49988" lon="6.59346">
        <ele>93.52936</ele>
        <time>2012-10-22T08:29:50Z</time>
      </trkpt>
      <trkpt lat="43.49978" lon="6.59321">
        <ele>94.65394</ele>
        <time>2012-10-22T08:29:55Z</time>
      </trkpt>
      <trkpt lat="43.49975" lon="6.59294">
        <ele>94.56928</ele>
        <time>2012-10-22T08:30:02Z</time>
      </trkpt>
      <trkpt lat="43.49973" lon="6.59266">
        <ele>94.07599</ele>
        <time>2012-10-22T08:30:09Z</time>
      </trkpt>
      <trkpt lat="43.49992" lon="6.59267">
        <ele>95.09326</ele>
        <time>2012-10-22T08:30:23Z</time>
      </trkpt>
      <trkpt lat="43.50006" lon="6.59286">
        <ele>94.9043</ele>
        <time>2012-10-22T08:30:29Z</time>
      </trkpt>
      <trkpt lat="43.50023" lon="6.59303">
        <ele>97.727646</ele>
        <time>2012-10-22T08:30:36Z</time>
      </trkpt>
      <trkpt lat="43.50042" lon="6.59314">
        <ele>99.023766</ele>
        <time>2012-10-22T08:30:43Z</time>
      </trkpt>
      <trkpt lat="43.50061" lon="6.59314">
        <ele>101.264084</ele>
        <time>2012-10-22T08:30:52Z</time>
      </trkpt>
      <trkpt lat="43.50077" lon="6.59327">
        <ele>100.19097</ele>
        <time>2012-10-22T08:31:00Z</time>
      </trkpt>
      <trkpt lat="43.50068" lon="6.59349">
        <ele>101.852425</ele>
        <time>2012-10-22T08:31:21Z</time>
      </trkpt>
      <trkpt lat="43.50059" lon="6.59375">
        <ele>102.87026</ele>
        <time>2012-10-22T08:31:33Z</time>
      </trkpt>
      <trkpt lat="43.50056" lon="6.59401">
        <ele>101.79097</ele>
        <time>2012-10-22T08:31:40Z</time>
      </trkpt>
      <trkpt lat="43.5005" lon="6.59428">
        <ele>101.026276</ele>
        <time>2012-10-22T08:31:46Z</time>
      </trkpt>
      <trkpt lat="43.50068" lon="6.5943">
        <ele>100.21607</ele>
        <time>2012-10-22T08:31:57Z</time>
      </trkpt>
      <trkpt lat="43.50086" lon="6.59438">
        <ele>93.33055</ele>
        <time>2012-10-22T08:32:13Z</time>
      </trkpt>
      <trkpt lat="43.5009" lon="6.59464">
        <ele>91.65868</ele>
        <time>2012-10-22T08:32:19Z</time>
      </trkpt>
      <trkpt lat="43.50096" lon="6.59488">
        <ele>93.35458</ele>
        <time>2012-10-22T08:32:26Z</time>
      </trkpt>
      <trkpt lat="43.50116" lon="6.59488">
        <ele>95.630165</ele>
        <time>2012-10-22T08:32:35Z</time>
      </trkpt>
      <trkpt lat="43.50134" lon="6.5949">
        <ele>94.75892</ele>
        <time>2012-10-22T08:32:42Z</time>
      </trkpt>
      <trkpt lat="43.50149" lon="6.59476">
        <ele>95.65946</ele>
        <time>2012-10-22T08:32:50Z</time>
      </trkpt>
      <trkpt lat="43.50167" lon="6.59474">
        <ele>97.15474</ele>
        <time>2012-10-22T08:32:57Z</time>
      </trkpt>
      <trkpt lat="43.50186" lon="6.59469">
        <ele>97.68477</ele>
        <time>2012-10-22T08:33:03Z</time>
      </trkpt>
      <trkpt lat="43.50206" lon="6.59464">
        <ele>97.75322</ele>
        <time>2012-10-22T08:33:09Z</time>
      </trkpt>
      <trkpt lat="43.50225" lon="6.59462">
        <ele>98.07143</ele>
        <time>2012-10-22T08:33:17Z</time>
      </trkpt>
      <trkpt lat="43.50244" lon="6.59451">
        <ele>101.057175</ele>
        <time>2012-10-22T08:33:27Z</time>
      </trkpt>
      <trkpt lat="43.50263" lon="6.59447">
        <ele>101.95424</ele>
        <time>2012-10-22T08:33:36Z</time>
      </trkpt>
      <trkpt lat="43.50281" lon="6.59454">
        <ele>102.81387</ele>
        <time>2012-10-22T08:33:42Z</time>
      </trkpt>
      <trkpt lat="43.50294" lon="6.59481">
        <ele>102.45583</ele>
        <time>2012-10-22T08:33:47Z</time>
      </trkpt>
      <trkpt lat="43.50308" lon="6.59502">
        <ele>102.72235</ele>
        <time>2012-10-22T08:33:51Z</time>
      </trkpt>
      <trkpt lat="43.50324" lon="6.59486">
        <ele>103.52388</ele>
        <time>2012-10-22T08:34:04Z</time>
      </trkpt>
      <trkpt lat="43.50332" lon="6.59461">
        <ele>102.557236</ele>
        <time>2012-10-22T08:34:11Z</time>
      </trkpt>
      <trkpt lat="43.50329" lon="6.59436">
        <ele>103.93466</ele>
        <time>2012-10-22T08:34:19Z</time>
      </trkpt>
      <trkpt lat="43.50318" lon="6.59415">
        <ele>103.73837</ele>
        <time>2012-10-22T08:34:25Z</time>
      </trkpt>
      <trkpt lat="43.50317" lon="6.59389">
        <ele>103.68341</ele>
        <time>2012-10-22T08:34:36Z</time>
      </trkpt>
      <trkpt lat="43.5033" lon="6.59369">
        <ele>102.587875</ele>
        <time>2012-10-22T08:34:46Z</time>
      </trkpt>
      <trkpt lat="43.50333" lon="6.59341">
        <ele>101.83995</ele>
        <time>2012-10-22T08:34:55Z</time>
      </trkpt>
      <trkpt lat="43.50331" lon="6.59313">
        <ele>103.74034</ele>
        <time>2012-10-22T08:35:00Z</time>
      </trkpt>
      <trkpt lat="43.50333" lon="6.59287">
        <ele>104.96551</ele>
        <time>2012-10-22T08:35:06Z</time>
      </trkpt>
      <trkpt lat="43.50325" lon="6.59264">
        <ele>106.4381</ele>
        <time>2012-10-22T08:35:11Z</time>
      </trkpt>
      <trkpt lat="43.50314" lon="6.59244">
        <ele>105.413536</ele>
        <time>2012-10-22T08:35:16Z</time>
      </trkpt>
      <trkpt lat="43.50307" lon="6.5922">
        <ele>103.63883</ele>
        <time>2012-10-22T08:35:25Z</time>
      </trkpt>
      <trkpt lat="43.50303" lon="6.59196">
        <ele>103.19895</ele>
        <time>2012-10-22T08:35:33Z</time>
      </trkpt>
      <trkpt lat="43.5032" lon="6.59204">
        <ele>106.44594</ele>
        <time>2012-10-22T08:35:46Z</time>
      </trkpt>
      <trkpt lat="43.50338" lon="6.59212">
        <ele>104.84132</ele>
        <time>2012-10-22T08:35:57Z</time>
      </trkpt>
      <trkpt lat="43.50354" lon="6.59198">
        <ele>104.19617</ele>
        <time>2012-10-22T08:36:07Z</time>
      </trkpt>
      <trkpt lat="43.50372" lon="6.59206">
        <ele>106.94656</ele>
        <time>2012-10-22T08:36:18Z</time>
      </trkpt>
      <trkpt lat="43.50378" lon="6.5923">
        <ele>111.85849</ele>
        <time>2012-10-22T08:36:27Z</time>
      </trkpt>
      <trkpt lat="43.50385" lon="6.59257">
        <ele>113.31931</ele>
        <time>2012-10-22T08:36:35Z</time>
      </trkpt>
      <trkpt lat="43.50393" lon="6.59283">
        <ele>112.27993</ele>
        <time>2012-10-22T08:36:42Z</time>
      </trkpt>
      <trkpt lat="43.50403" lon="6.59307">
        <ele>112.29591</ele>
        <time>2012-10-22T08:36:48Z</time>
      </trkpt>
      <trkpt lat="43.50409" lon="6.59332">
        <ele>113.96551</ele>
        <time>2012-10-22T08:36:54Z</time>
      </trkpt>
      <trkpt lat="43.50419" lon="6.59356">
        <ele>114.508415</ele>
        <time>2012-10-22T08:36:59Z</time>
      </trkpt>
      <trkpt lat="43.50423" lon="6.59383">
        <ele>114.59446</ele>
        <time>2012-10-22T08:37:03Z</time>
      </trkpt>
      <trkpt lat="43.50431" lon="6.59408">
        <ele>111.18013</ele>
        <time>2012-10-22T08:37:08Z</time>
      </trkpt>
      <trkpt lat="43.50438" lon="6.59433">
        <ele>109.70193</ele>
        <time>2012-10-22T08:37:13Z</time>
      </trkpt>
      <trkpt lat="43.50449" lon="6.59459">
        <ele>108.20647</ele>
        <time>2012-10-22T08:37:17Z</time>
      </trkpt>
      <trkpt lat="43.50468" lon="6.59451">
        <ele>104.04371</ele>
        <time>2012-10-22T08:39:04Z</time>
      </trkpt>
      <trkpt lat="43.50482" lon="6.59428">
        <ele>104.01383</ele>
        <time>2012-10-22T08:39:08Z</time>
      </trkpt>
      <trkpt lat="43.50496" lon="6.59406">
        <ele>103.56688</ele>
        <time>2012-10-22T08:39:12Z</time>
      </trkpt>
      <trkpt lat="43.5051" lon="6.59384">
        <ele>102.027016</ele>
        <time>2012-10-22T08:39:16Z</time>
      </trkpt>
      <trkpt lat="43.50526" lon="6.59396">
        <ele>100.34791</ele>
        <time>2012-10-22T08:39:23Z</time>
      </trkpt>
      <trkpt lat="43.50542" lon="6.59407">
        <ele>101.57315</ele>
        <time>2012-10-22T08:39:29Z</time>
      </trkpt>
      <trkpt lat="43.5055" lon="6.59384">
        <ele>99.56408</ele>
        <time>2012-10-22T08:39:39Z</time>
      </trkpt>
      <trkpt lat="43.50561" lon="6.5936">
        <ele>98.357475</ele>
        <time>2012-10-22T08:39:45Z</time>
      </trkpt>
      <trkpt lat="43.5057" lon="6.59383">
        <ele>102.198166</ele>
        <time>2012-10-22T08:39:52Z</time>
      </trkpt>
      <trkpt lat="43.50579" lon="6.59406">
        <ele>103.85314</ele>
        <time>2012-10-22T08:39:58Z</time>
      </trkpt>
      <trkpt lat="43.50579" lon="6.59434">
        <ele>104.87108</ele>
        <time>2012-10-22T08:40:04Z</time>
      </trkpt>
      <trkpt lat="43.50579" lon="6.59459">
        <ele>104.39421</ele>
        <time>2012-10-22T08:40:09Z</time>
      </trkpt>
      <trkpt lat="43.50574" lon="6.59486">
        <ele>107.457954</ele>
        <time>2012-10-22T08:40:16Z</time>
      </trkpt>
      <trkpt lat="43.50577" lon="6.59511">
        <ele>108.58712</ele>
        <time>2012-10-22T08:40:22Z</time>
      </trkpt>
      <trkpt lat="43.50583" lon="6.59537">
        <ele>109.58234</ele>
        <time>2012-10-22T08:40:29Z</time>
      </trkpt>
      <trkpt lat="43.50593" lon="6.59559">
        <ele>110.07584</ele>
        <time>2012-10-22T08:40:36Z</time>
      </trkpt>
      <trkpt lat="43.50611" lon="6.59561">
        <ele>107.60676</ele>
        <time>2012-10-22T08:40:42Z</time>
      </trkpt>
      <trkpt lat="43.50631" lon="6.59556">
        <ele>105.800125</ele>
        <time>2012-10-22T08:40:48Z</time>
      </trkpt>
      <trkpt lat="43.5065" lon="6.59549">
        <ele>107.42571</ele>
        <time>2012-10-22T08:40:55Z</time>
      </trkpt>
      <trkpt lat="43.50668" lon="6.59553">
        <ele>109.966866</ele>
        <time>2012-10-22T08:41:05Z</time>
      </trkpt>
      <trkpt lat="43.50686" lon="6.59557">
        <ele>109.96592</ele>
        <time>2012-10-22T08:41:15Z</time>
      </trkpt>
      <trkpt lat="43.50704" lon="6.59556">
        <ele>108.42802</ele>
        <time>2012-10-22T08:41:23Z</time>
      </trkpt>
      <trkpt lat="43.50726" lon="6.59563">
        <ele>109.22663</ele>
        <time>2012-10-22T08:41:30Z</time>
      </trkpt>
      <trkpt lat="43.50745" lon="6.59573">
        <ele>107.91546</ele>
        <time>2012-10-22T08:41:34Z</time>
      </trkpt>
      <trkpt lat="43.50763" lon="6.59585">
        <ele>106.418564</ele>
        <time>2012-10-22T08:41:38Z</time>
      </trkpt>
      <trkpt lat="43.50781" lon="6.59597">
        <ele>104.58761</ele>
        <time>2012-10-22T08:41:43Z</time>
      </trkpt>
      <trkpt lat="43.50799" lon="6.59608">
        <ele>102.25858</ele>
        <time>2012-10-22T08:41:48Z</time>
      </trkpt>
      <trkpt lat="43.50819" lon="6.59615">
        <ele>100.6766</ele>
        <time>2012-10-22T08:41:53Z</time>
      </trkpt>
      <trkpt lat="43.50826" lon="6.59639">
        <ele>102.35863</ele>
        <time>2012-10-22T08:42:00Z</time>
      </trkpt>
      <trkpt lat="43.50845" lon="6.59648">
        <ele>103.03785</ele>
        <time>2012-10-22T08:42:28Z</time>
      </trkpt>
      <trkpt lat="43.50863" lon="6.59658">
        <ele>103.313644</ele>
        <time>2012-10-22T08:42:51Z</time>
      </trkpt>
      <trkpt lat="43.50878" lon="6.59643">
        <ele>102.87482</ele>
        <time>2012-10-22T08:43:02Z</time>
      </trkpt>
      <trkpt lat="43.50884" lon="6.59619">
        <ele>104.28166</ele>
        <time>2012-10-22T08:43:14Z</time>
      </trkpt>
      <trkpt lat="43.50892" lon="6.59594">
        <ele>105.76079</ele>
        <time>2012-10-22T08:43:22Z</time>
      </trkpt>
      <trkpt lat="43.50901" lon="6.59571">
        <ele>105.00308</ele>
        <time>2012-10-22T08:43:28Z</time>
      </trkpt>
      <trkpt lat="43.50909" lon="6.59542">
        <ele>105.1402</ele>
        <time>2012-10-22T08:43:34Z</time>
      </trkpt>
      <trkpt lat="43.50917" lon="6.59519">
        <ele>104.58342</ele>
        <time>2012-10-22T08:43:38Z</time>
      </trkpt>
      <trkpt lat="43.50924" lon="6.59495">
        <ele>104.76663</ele>
        <time>2012-10-22T08:43:42Z</time>
      </trkpt>
      <trkpt lat="43.50932" lon="6.59469">
        <ele>105.704384</ele>
        <time>2012-10-22T08:43:47Z</time>
      </trkpt>
      <trkpt lat="43.5094" lon="6.59444">
        <ele>106.66394</ele>
        <time>2012-10-22T08:43:53Z</time>
      </trkpt>
      <trkpt lat="43.50947" lon="6.59416">
        <ele>106.05908</ele>
        <time>2012-10-22T08:43:59Z</time>
      </trkpt>
      <trkpt lat="43.50954" lon="6.59392">
        <ele>105.859726</ele>
        <time>2012-10-22T08:44:04Z</time>
      </trkpt>
      <trkpt lat="43.50962" lon="6.5937">
        <ele>108.749916</ele>
        <time>2012-10-22T08:44:09Z</time>
      </trkpt>
      <trkpt lat="43.50954" lon="6.59395">
        <ele>103.791</ele>
        <time>2012-10-22T08:45:04Z</time>
      </trkpt>
      <trkpt lat="43.50956" lon="6.59421">
        <ele>109.695854</ele>
        <time>2012-10-22T08:45:11Z</time>
      </trkpt>
      <trkpt lat="43.50969" lon="6.59441">
        <ele>113.36433</ele>
        <time>2012-10-22T08:45:17Z</time>
      </trkpt>
      <trkpt lat="43.50981" lon="6.59464">
        <ele>114.282745</ele>
        <time>2012-10-22T08:45:22Z</time>
      </trkpt>
      <trkpt lat="43.50997" lon="6.59481">
        <ele>114.53087</ele>
        <time>2012-10-22T08:45:26Z</time>
      </trkpt>
      <trkpt lat="43.51014" lon="6.59501">
        <ele>113.47266</ele>
        <time>2012-10-22T08:45:30Z</time>
      </trkpt>
      <trkpt lat="43.51035" lon="6.59512">
        <ele>112.88393</ele>
        <time>2012-10-22T08:45:34Z</time>
      </trkpt>
      <trkpt lat="43.51058" lon="6.5952">
        <ele>111.69765</ele>
        <time>2012-10-22T08:45:38Z</time>
      </trkpt>
      <trkpt lat="43.51075" lon="6.59538">
        <ele>111.36527</ele>
        <time>2012-10-22T08:45:42Z</time>
      </trkpt>
      <trkpt lat="43.51089" lon="6.5956">
        <ele>110.92808</ele>
        <time>2012-10-22T08:45:46Z</time>
      </trkpt>
      <trkpt lat="43.51109" lon="6.59567">
        <ele>110.98293</ele>
        <time>2012-10-22T08:45:51Z</time>
      </trkpt>
      <trkpt lat="43.51111" lon="6.59538">
        <ele>109.79677</ele>
        <time>2012-10-22T08:45:57Z</time>
      </trkpt>
      <trkpt lat="43.51115" lon="6.59513">
        <ele>109.252106</ele>
        <time>2012-10-22T08:46:01Z</time>
      </trkpt>
      <trkpt lat="43.51136" lon="6.59504">
        <ele>109.185234</ele>
        <time>2012-10-22T08:46:05Z</time>
      </trkpt>
      <trkpt lat="43.51158" lon="6.59502">
        <ele>109.636734</ele>
        <time>2012-10-22T08:46:09Z</time>
      </trkpt>
      <trkpt lat="43.51178" lon="6.59495">
        <ele>109.44756</ele>
        <time>2012-10-22T08:46:13Z</time>
      </trkpt>
      <trkpt lat="43.5118" lon="6.59468">
        <ele>109.083015</ele>
        <time>2012-10-22T08:46:17Z</time>
      </trkpt>
      <trkpt lat="43.51171" lon="6.59444">
        <ele>108.88564</ele>
        <time>2012-10-22T08:46:21Z</time>
      </trkpt>
      <trkpt lat="43.51154" lon="6.59427">
        <ele>107.84272</ele>
        <time>2012-10-22T08:46:25Z</time>
      </trkpt>
      <trkpt lat="43.51137" lon="6.5941">
        <ele>107.376015</ele>
        <time>2012-10-22T08:46:29Z</time>
      </trkpt>
      <trkpt lat="43.51127" lon="6.59387">
        <ele>108.49007</ele>
        <time>2012-10-22T08:46:33Z</time>
      </trkpt>
      <trkpt lat="43.51138" lon="6.59361">
        <ele>110.076256</ele>
        <time>2012-10-22T08:46:38Z</time>
      </trkpt>
      <trkpt lat="43.51153" lon="6.59346">
        <ele>111.176476</ele>
        <time>2012-10-22T08:46:42Z</time>
      </trkpt>
      <trkpt lat="43.51154" lon="6.5932">
        <ele>109.33192</ele>
        <time>2012-10-22T08:46:47Z</time>
      </trkpt>
      <trkpt lat="43.51143" lon="6.59297">
        <ele>110.203766</ele>
        <time>2012-10-22T08:46:52Z</time>
      </trkpt>
      <trkpt lat="43.51137" lon="6.59272">
        <ele>110.85354</ele>
        <time>2012-10-22T08:46:56Z</time>
      </trkpt>
      <trkpt lat="43.51147" lon="6.59245">
        <ele>113.18106</ele>
        <time>2012-10-22T08:47:01Z</time>
      </trkpt>
      <trkpt lat="43.51161" lon="6.59222">
        <ele>113.74088</ele>
        <time>2012-10-22T08:47:05Z</time>
      </trkpt>
      <trkpt lat="43.51173" lon="6.592">
        <ele>114.05864</ele>
        <time>2012-10-22T08:47:09Z</time>
      </trkpt>
      <trkpt lat="43.51183" lon="6.59176">
        <ele>114.893555</ele>
        <time>2012-10-22T08:47:13Z</time>
      </trkpt>
      <trkpt lat="43.51192" lon="6.5915">
        <ele>115.06788</ele>
        <time>2012-10-22T08:47:17Z</time>
      </trkpt>
      <trkpt lat="43.51194" lon="6.59118">
        <ele>112.720695</ele>
        <time>2012-10-22T08:47:21Z</time>
      </trkpt>
      <trkpt lat="43.51186" lon="6.5909">
        <ele>112.98194</ele>
        <time>2012-10-22T08:47:25Z</time>
      </trkpt>
      <trkpt lat="43.51189" lon="6.59061">
        <ele>112.79897</ele>
        <time>2012-10-22T08:47:29Z</time>
      </trkpt>
      <trkpt lat="43.51199" lon="6.59039">
        <ele>110.41519</ele>
        <time>2012-10-22T08:47:32Z</time>
      </trkpt>
      <trkpt lat="43.51221" lon="6.59033">
        <ele>110.5259</ele>
        <time>2012-10-22T08:47:36Z</time>
      </trkpt>
      <trkpt lat="43.51234" lon="6.59057">
        <ele>111.20546</ele>
        <time>2012-10-22T08:47:40Z</time>
      </trkpt>
      <trkpt lat="43.51252" lon="6.59068">
        <ele>111.82673</ele>
        <time>2012-10-22T08:47:44Z</time>
      </trkpt>
      <trkpt lat="43.51269" lon="6.59054">
        <ele>112.03111</ele>
        <time>2012-10-22T08:47:48Z</time>
      </trkpt>
      <trkpt lat="43.51282" lon="6.59028">
        <ele>112.986404</ele>
        <time>2012-10-22T08:47:52Z</time>
      </trkpt>
      <trkpt lat="43.5129" lon="6.58999">
        <ele>111.48007</ele>
        <time>2012-10-22T08:47:56Z</time>
      </trkpt>
      <trkpt lat="43.5129" lon="6.58967">
        <ele>110.86284</ele>
        <time>2012-10-22T08:48:00Z</time>
      </trkpt>
      <trkpt lat="43.51281" lon="6.58939">
        <ele>109.47223</ele>
        <time>2012-10-22T08:48:04Z</time>
      </trkpt>
      <trkpt lat="43.51274" lon="6.58916">
        <ele>108.37109</ele>
        <time>2012-10-22T08:48:07Z</time>
      </trkpt>
      <trkpt lat="43.51273" lon="6.58888">
        <ele>109.17218</ele>
        <time>2012-10-22T08:48:10Z</time>
      </trkpt>
      <trkpt lat="43.51269" lon="6.58862">
        <ele>108.61698</ele>
        <time>2012-10-22T08:48:14Z</time>
      </trkpt>
      <trkpt lat="43.51256" lon="6.58841">
        <ele>106.85146</ele>
        <time>2012-10-22T08:48:18Z</time>
      </trkpt>
      <trkpt lat="43.51237" lon="6.5882">
        <ele>107.1405</ele>
        <time>2012-10-22T08:48:22Z</time>
      </trkpt>
      <trkpt lat="43.51222" lon="6.58806">
        <ele>106.80927</ele>
        <time>2012-10-22T08:48:25Z</time>
      </trkpt>
      <trkpt lat="43.51232" lon="6.58784">
        <ele>103.54522</ele>
        <time>2012-10-22T08:48:32Z</time>
      </trkpt>
      <trkpt lat="43.5125" lon="6.5879">
        <ele>102.214386</ele>
        <time>2012-10-22T08:48:35Z</time>
      </trkpt>
      <trkpt lat="43.5127" lon="6.58797">
        <ele>100.4967</ele>
        <time>2012-10-22T08:48:38Z</time>
      </trkpt>
      <trkpt lat="43.5129" lon="6.58792">
        <ele>99.00642</ele>
        <time>2012-10-22T08:48:41Z</time>
      </trkpt>
      <trkpt lat="43.51312" lon="6.58778">
        <ele>98.42458</ele>
        <time>2012-10-22T08:48:44Z</time>
      </trkpt>
      <trkpt lat="43.51332" lon="6.58761">
        <ele>100.02287</ele>
        <time>2012-10-22T08:48:47Z</time>
      </trkpt>
      <trkpt lat="43.5135" lon="6.58748">
        <ele>100.4784</ele>
        <time>2012-10-22T08:48:50Z</time>
      </trkpt>
      <trkpt lat="43.51347" lon="6.58719">
        <ele>98.8479</ele>
        <time>2012-10-22T08:48:55Z</time>
      </trkpt>
      <trkpt lat="43.51329" lon="6.58703">
        <ele>95.21709</ele>
        <time>2012-10-22T08:48:58Z</time>
      </trkpt>
      <trkpt lat="43.51307" lon="6.58691">
        <ele>92.91971</ele>
        <time>2012-10-22T08:49:01Z</time>
      </trkpt>
      <trkpt lat="43.51289" lon="6.58685">
        <ele>90.767334</ele>
        <time>2012-10-22T08:49:03Z</time>
      </trkpt>
      <trkpt lat="43.51265" lon="6.58675">
        <ele>90.6206</ele>
        <time>2012-10-22T08:49:06Z</time>
      </trkpt>
      <trkpt lat="43.51243" lon="6.58664">
        <ele>92.35556</ele>
        <time>2012-10-22T08:49:09Z</time>
      </trkpt>
      <trkpt lat="43.51221" lon="6.58661">
        <ele>92.50938</ele>
        <time>2012-10-22T08:49:12Z</time>
      </trkpt>
      <trkpt lat="43.51199" lon="6.58674">
        <ele>91.38677</ele>
        <time>2012-10-22T08:49:15Z</time>
      </trkpt>
      <trkpt lat="43.51177" lon="6.58692">
        <ele>90.00692</ele>
        <time>2012-10-22T08:49:18Z</time>
      </trkpt>
      <trkpt lat="43.51159" lon="6.58713">
        <ele>88.01855</ele>
        <time>2012-10-22T08:49:21Z</time>
      </trkpt>
      <trkpt lat="43.51145" lon="6.58738">
        <ele>89.03907</ele>
        <time>2012-10-22T08:49:24Z</time>
      </trkpt>
      <trkpt lat="43.5113" lon="6.58756">
        <ele>105.36024</ele>
        <time>2012-10-22T08:49:27Z</time>
      </trkpt>
      <trkpt lat="43.51109" lon="6.58772">
        <ele>108.99572</ele>
        <time>2012-10-22T08:49:30Z</time>
      </trkpt>
      <trkpt lat="43.51092" lon="6.58788">
        <ele>102.90445</ele>
        <time>2012-10-22T08:49:33Z</time>
      </trkpt>
      <trkpt lat="43.51074" lon="6.58807">
        <ele>97.86594</ele>
        <time>2012-10-22T08:49:36Z</time>
      </trkpt>
      <trkpt lat="43.51058" lon="6.58821">
        <ele>91.91219</ele>
        <time>2012-10-22T08:49:39Z</time>
      </trkpt>
      <trkpt lat="43.51041" lon="6.58836">
        <ele>89.509834</ele>
        <time>2012-10-22T08:49:42Z</time>
      </trkpt>
      <trkpt lat="43.51023" lon="6.58853">
        <ele>86.99634</ele>
        <time>2012-10-22T08:49:45Z</time>
      </trkpt>
      <trkpt lat="43.51007" lon="6.58867">
        <ele>85.6547</ele>
        <time>2012-10-22T08:49:48Z</time>
      </trkpt>
      <trkpt lat="43.50989" lon="6.58875">
        <ele>84.58871</ele>
        <time>2012-10-22T08:49:51Z</time>
      </trkpt>
      <trkpt lat="43.50971" lon="6.58882">
        <ele>84.357735</ele>
        <time>2012-10-22T08:49:54Z</time>
      </trkpt>
      <trkpt lat="43.50952" lon="6.58886">
        <ele>85.30717</ele>
        <time>2012-10-22T08:49:57Z</time>
      </trkpt>
      <trkpt lat="43.50933" lon="6.58899">
        <ele>86.131485</ele>
        <time>2012-10-22T08:50:02Z</time>
      </trkpt>
      <trkpt lat="43.5092" lon="6.58922">
        <ele>85.59761</ele>
        <time>2012-10-22T08:50:07Z</time>
      </trkpt>
      <trkpt lat="43.50899" lon="6.58928">
        <ele>85.78244</ele>
        <time>2012-10-22T08:50:12Z</time>
      </trkpt>
      <trkpt lat="43.50878" lon="6.58927">
        <ele>85.353035</ele>
        <time>2012-10-22T08:50:16Z</time>
      </trkpt>
      <trkpt lat="43.50855" lon="6.58927">
        <ele>83.84608</ele>
        <time>2012-10-22T08:50:20Z</time>
      </trkpt>
      <trkpt lat="43.50837" lon="6.58927">
        <ele>83.21632</ele>
        <time>2012-10-22T08:50:23Z</time>
      </trkpt>
      <trkpt lat="43.50813" lon="6.58928">
        <ele>83.06844</ele>
        <time>2012-10-22T08:50:27Z</time>
      </trkpt>
      <trkpt lat="43.50795" lon="6.58931">
        <ele>83.71638</ele>
        <time>2012-10-22T08:50:30Z</time>
      </trkpt>
      <trkpt lat="43.50773" lon="6.58943">
        <ele>83.472755</ele>
        <time>2012-10-22T08:50:34Z</time>
      </trkpt>
      <trkpt lat="43.50757" lon="6.58959">
        <ele>83.19945</ele>
        <time>2012-10-22T08:50:37Z</time>
      </trkpt>
      <trkpt lat="43.50741" lon="6.58972">
        <ele>84.021645</ele>
        <time>2012-10-22T08:50:40Z</time>
      </trkpt>
      <trkpt lat="43.50724" lon="6.58983">
        <ele>85.11851</ele>
        <time>2012-10-22T08:50:43Z</time>
      </trkpt>
      <trkpt lat="43.50704" lon="6.58995">
        <ele>84.362495</ele>
        <time>2012-10-22T08:50:46Z</time>
      </trkpt>
      <trkpt lat="43.50686" lon="6.59001">
        <ele>83.5748</ele>
        <time>2012-10-22T08:50:49Z</time>
      </trkpt>
      <trkpt lat="43.50665" lon="6.59006">
        <ele>82.248276</ele>
        <time>2012-10-22T08:50:53Z</time>
      </trkpt>
      <trkpt lat="43.50643" lon="6.59008">
        <ele>83.344185</ele>
        <time>2012-10-22T08:50:57Z</time>
      </trkpt>
      <trkpt lat="43.50622" lon="6.59012">
        <ele>85.08156</ele>
        <time>2012-10-22T08:51:01Z</time>
      </trkpt>
      <trkpt lat="43.50601" lon="6.59015">
        <ele>86.99065</ele>
        <time>2012-10-22T08:51:05Z</time>
      </trkpt>
      <trkpt lat="43.50579" lon="6.59018">
        <ele>85.875946</ele>
        <time>2012-10-22T08:51:09Z</time>
      </trkpt>
      <trkpt lat="43.50558" lon="6.59022">
        <ele>84.26153</ele>
        <time>2012-10-22T08:51:13Z</time>
      </trkpt>
      <trkpt lat="43.50534" lon="6.59023">
        <ele>85.34447</ele>
        <time>2012-10-22T08:51:17Z</time>
      </trkpt>
      <trkpt lat="43.50508" lon="6.59026">
        <ele>86.051575</ele>
        <time>2012-10-22T08:51:20Z</time>
      </trkpt>
      <trkpt lat="43.50484" lon="6.59029">
        <ele>85.77176</ele>
        <time>2012-10-22T08:51:23Z</time>
      </trkpt>
      <trkpt lat="43.50462" lon="6.59033">
        <ele>85.325584</ele>
        <time>2012-10-22T08:51:26Z</time>
      </trkpt>
      <trkpt lat="43.50443" lon="6.5904">
        <ele>84.88736</ele>
        <time>2012-10-22T08:51:29Z</time>
      </trkpt>
      <trkpt lat="43.50426" lon="6.59049">
        <ele>83.38245</ele>
        <time>2012-10-22T08:51:34Z</time>
      </trkpt>
      <trkpt lat="43.50409" lon="6.59065">
        <ele>87.195206</ele>
        <time>2012-10-22T08:52:41Z</time>
      </trkpt>
      <trkpt lat="43.50392" lon="6.59074">
        <ele>85.66365</ele>
        <time>2012-10-22T08:52:47Z</time>
      </trkpt>
      <trkpt lat="43.50375" lon="6.59086">
        <ele>88.77287</ele>
        <time>2012-10-22T08:52:55Z</time>
      </trkpt>
      <trkpt lat="43.50358" lon="6.59076">
        <ele>83.81239</ele>
        <time>2012-10-22T08:53:02Z</time>
      </trkpt>
      <trkpt lat="43.5035" lon="6.59051">
        <ele>87.35783</ele>
        <time>2012-10-22T08:53:07Z</time>
      </trkpt>
      <trkpt lat="43.50346" lon="6.59026">
        <ele>87.92671</ele>
        <time>2012-10-22T08:53:12Z</time>
      </trkpt>
      <trkpt lat="43.50343" lon="6.59">
        <ele>93.661316</ele>
        <time>2012-10-22T08:53:17Z</time>
      </trkpt>
      <trkpt lat="43.5034" lon="6.58975">
        <ele>92.30299</ele>
        <time>2012-10-22T08:53:21Z</time>
      </trkpt>
      <trkpt lat="43.50334" lon="6.58945">
        <ele>101.368774</ele>
        <time>2012-10-22T08:53:26Z</time>
      </trkpt>
      <trkpt lat="43.5033" lon="6.58917">
        <ele>96.74559</ele>
        <time>2012-10-22T08:53:30Z</time>
      </trkpt>
      <trkpt lat="43.50324" lon="6.58886">
        <ele>93.82966</ele>
        <time>2012-10-22T08:53:34Z</time>
      </trkpt>
      <trkpt lat="43.50319" lon="6.58859">
        <ele>91.895325</ele>
        <time>2012-10-22T08:53:38Z</time>
      </trkpt>
      <trkpt lat="43.50306" lon="6.58841">
        <ele>91.98137</ele>
        <time>2012-10-22T08:53:44Z</time>
      </trkpt>
      <trkpt lat="43.50292" lon="6.58822">
        <ele>93.50313</ele>
        <time>2012-10-22T08:53:51Z</time>
      </trkpt>
      <trkpt lat="43.50281" lon="6.58801">
        <ele>96.69789</ele>
        <time>2012-10-22T08:53:59Z</time>
      </trkpt>
      <trkpt lat="43.5028" lon="6.58773">
        <ele>95.48202</ele>
        <time>2012-10-22T08:54:04Z</time>
      </trkpt>
      <trkpt lat="43.50275" lon="6.58745">
        <ele>94.98032</ele>
        <time>2012-10-22T08:54:10Z</time>
      </trkpt>
      <trkpt lat="43.50273" lon="6.58714">
        <ele>95.678925</ele>
        <time>2012-10-22T08:54:15Z</time>
      </trkpt>
      <trkpt lat="43.50272" lon="6.58686">
        <ele>96.191376</ele>
        <time>2012-10-22T08:54:19Z</time>
      </trkpt>
      <trkpt lat="43.50269" lon="6.5866">
        <ele>96.63868</ele>
        <time>2012-10-22T08:54:23Z</time>
      </trkpt>
      <trkpt lat="43.50265" lon="6.58635">
        <ele>97.57317</ele>
        <time>2012-10-22T08:54:27Z</time>
      </trkpt>
      <trkpt lat="43.50261" lon="6.58605">
        <ele>97.97391</ele>
        <time>2012-10-22T08:54:32Z</time>
      </trkpt>
      <trkpt lat="43.50262" lon="6.58576">
        <ele>97.9147</ele>
        <time>2012-10-22T08:54:37Z</time>
      </trkpt>
      <trkpt lat="43.50261" lon="6.5855">
        <ele>97.79226</ele>
        <time>2012-10-22T08:54:42Z</time>
      </trkpt>
      <trkpt lat="43.50253" lon="6.58525">
        <ele>98.468155</ele>
        <time>2012-10-22T08:54:48Z</time>
      </trkpt>
      <trkpt lat="43.50247" lon="6.585">
        <ele>96.76922</ele>
        <time>2012-10-22T08:54:52Z</time>
      </trkpt>
      <trkpt lat="43.50249" lon="6.58471">
        <ele>97.38664</ele>
        <time>2012-10-22T08:54:57Z</time>
      </trkpt>
      <trkpt lat="43.50261" lon="6.58446">
        <ele>101.30856</ele>
        <time>2012-10-22T08:55:03Z</time>
      </trkpt>
      <trkpt lat="43.50273" lon="6.58423">
        <ele>100.499</ele>
        <time>2012-10-22T08:55:08Z</time>
      </trkpt>
      <trkpt lat="43.50276" lon="6.58396">
        <ele>99.47877</ele>
        <time>2012-10-22T08:55:13Z</time>
      </trkpt>
      <trkpt lat="43.50281" lon="6.58371">
        <ele>98.05795</ele>
        <time>2012-10-22T08:55:18Z</time>
      </trkpt>
      <trkpt lat="43.50284" lon="6.58347">
        <ele>98.01375</ele>
        <time>2012-10-22T08:55:23Z</time>
      </trkpt>
      <trkpt lat="43.50284" lon="6.58318">
        <ele>99.514984</ele>
        <time>2012-10-22T08:55:28Z</time>
      </trkpt>
      <trkpt lat="43.50272" lon="6.58296">
        <ele>100.4669</ele>
        <time>2012-10-22T08:55:34Z</time>
      </trkpt>
      <trkpt lat="43.50258" lon="6.58279">
        <ele>102.045364</ele>
        <time>2012-10-22T08:55:39Z</time>
      </trkpt>
      <trkpt lat="43.5024" lon="6.58268">
        <ele>103.33595</ele>
        <time>2012-10-22T08:55:45Z</time>
      </trkpt>
      <trkpt lat="43.50223" lon="6.58277">
        <ele>103.13499</ele>
        <time>2012-10-22T08:55:51Z</time>
      </trkpt>
      <trkpt lat="43.50207" lon="6.58294">
        <ele>101.2849</ele>
        <time>2012-10-22T08:55:55Z</time>
      </trkpt>
      <trkpt lat="43.50188" lon="6.58288">
        <ele>98.35755</ele>
        <time>2012-10-22T08:56:02Z</time>
      </trkpt>
      <trkpt lat="43.50189" lon="6.5826">
        <ele>97.46375</ele>
        <time>2012-10-22T08:56:07Z</time>
      </trkpt>
      <trkpt lat="43.50192" lon="6.58235">
        <ele>96.31691</ele>
        <time>2012-10-22T08:56:13Z</time>
      </trkpt>
      <trkpt lat="43.50178" lon="6.58217">
        <ele>94.62946</ele>
        <time>2012-10-22T08:56:20Z</time>
      </trkpt>
      <trkpt lat="43.50159" lon="6.58212">
        <ele>89.592415</ele>
        <time>2012-10-22T08:56:39Z</time>
      </trkpt>
      <trkpt lat="43.50151" lon="6.58234">
        <ele>96.34111</ele>
        <time>2012-10-22T09:01:51Z</time>
      </trkpt>
      <trkpt lat="43.50135" lon="6.58221">
        <ele>99.74994</ele>
        <time>2012-10-22T09:01:59Z</time>
      </trkpt>
      <trkpt lat="43.50127" lon="6.58198">
        <ele>103.893196</ele>
        <time>2012-10-22T09:02:06Z</time>
      </trkpt>
      <trkpt lat="43.5012" lon="6.58173">
        <ele>104.74588</ele>
        <time>2012-10-22T09:02:12Z</time>
      </trkpt>
      <trkpt lat="43.50108" lon="6.58152">
        <ele>104.95477</ele>
        <time>2012-10-22T09:02:18Z</time>
      </trkpt>
      <trkpt lat="43.50097" lon="6.58132">
        <ele>105.071625</ele>
        <time>2012-10-22T09:02:22Z</time>
      </trkpt>
      <trkpt lat="43.50083" lon="6.58111">
        <ele>105.72891</ele>
        <time>2012-10-22T09:02:27Z</time>
      </trkpt>
      <trkpt lat="43.5007" lon="6.58092">
        <ele>102.79407</ele>
        <time>2012-10-22T09:02:32Z</time>
      </trkpt>
      <trkpt lat="43.50061" lon="6.5807">
        <ele>105.21921</ele>
        <time>2012-10-22T09:02:38Z</time>
      </trkpt>
      <trkpt lat="43.50045" lon="6.58058">
        <ele>107.922424</ele>
        <time>2012-10-22T09:02:46Z</time>
      </trkpt>
      <trkpt lat="43.50026" lon="6.58053">
        <ele>106.500145</ele>
        <time>2012-10-22T09:02:51Z</time>
      </trkpt>
      <trkpt lat="43.50005" lon="6.58051">
        <ele>105.17368</ele>
        <time>2012-10-22T09:02:59Z</time>
      </trkpt>
      <trkpt lat="43.49989" lon="6.58033">
        <ele>107.30293</ele>
        <time>2012-10-22T09:03:04Z</time>
      </trkpt>
      <trkpt lat="43.49975" lon="6.58014">
        <ele>109.681786</ele>
        <time>2012-10-22T09:03:08Z</time>
      </trkpt>
      <trkpt lat="43.49959" lon="6.57991">
        <ele>109.46572</ele>
        <time>2012-10-22T09:03:12Z</time>
      </trkpt>
      <trkpt lat="43.49946" lon="6.57972">
        <ele>108.899605</ele>
        <time>2012-10-22T09:03:15Z</time>
      </trkpt>
      <trkpt lat="43.49931" lon="6.57952">
        <ele>107.36389</ele>
        <time>2012-10-22T09:03:18Z</time>
      </trkpt>
      <trkpt lat="43.49915" lon="6.57932">
        <ele>107.01289</ele>
        <time>2012-10-22T09:03:21Z</time>
      </trkpt>
      <trkpt lat="43.49899" lon="6.57914">
        <ele>107.00544</ele>
        <time>2012-10-22T09:03:24Z</time>
      </trkpt>
      <trkpt lat="43.49882" lon="6.57898">
        <ele>106.3148</ele>
        <time>2012-10-22T09:03:27Z</time>
      </trkpt>
      <trkpt lat="43.49864" lon="6.57886">
        <ele>105.226555</ele>
        <time>2012-10-22T09:03:30Z</time>
      </trkpt>
      <trkpt lat="43.49845" lon="6.57874">
        <ele>106.25183</ele>
        <time>2012-10-22T09:03:33Z</time>
      </trkpt>
      <trkpt lat="43.49827" lon="6.57863">
        <ele>106.434364</ele>
        <time>2012-10-22T09:03:36Z</time>
      </trkpt>
      <trkpt lat="43.49812" lon="6.5785">
        <ele>106.323875</ele>
        <time>2012-10-22T09:03:39Z</time>
      </trkpt>
      <trkpt lat="43.49796" lon="6.57836">
        <ele>105.90226</ele>
        <time>2012-10-22T09:03:42Z</time>
      </trkpt>
      <trkpt lat="43.49778" lon="6.57822">
        <ele>105.08032</ele>
        <time>2012-10-22T09:03:47Z</time>
      </trkpt>
      <trkpt lat="43.49759" lon="6.57817">
        <ele>103.00795</ele>
        <time>2012-10-22T09:03:53Z</time>
      </trkpt>
      <trkpt lat="43.49744" lon="6.57794">
        <ele>102.07674</ele>
        <time>2012-10-22T09:03:57Z</time>
      </trkpt>
      <trkpt lat="43.49732" lon="6.57768">
        <ele>103.98131</ele>
        <time>2012-10-22T09:04:01Z</time>
      </trkpt>
      <trkpt lat="43.49725" lon="6.57745">
        <ele>104.24212</ele>
        <time>2012-10-22T09:04:04Z</time>
      </trkpt>
      <trkpt lat="43.49717" lon="6.57715">
        <ele>103.932076</ele>
        <time>2012-10-22T09:04:08Z</time>
      </trkpt>
      <trkpt lat="43.4971" lon="6.57689">
        <ele>101.13622</ele>
        <time>2012-10-22T09:04:13Z</time>
      </trkpt>
      <trkpt lat="43.49703" lon="6.57663">
        <ele>107.30106</ele>
        <time>2012-10-22T09:04:49Z</time>
      </trkpt>
      <trkpt lat="43.4969" lon="6.57644">
        <ele>104.92389</ele>
        <time>2012-10-22T09:04:52Z</time>
      </trkpt>
      <trkpt lat="43.49678" lon="6.57623">
        <ele>104.59289</ele>
        <time>2012-10-22T09:04:55Z</time>
      </trkpt>
      <trkpt lat="43.49668" lon="6.57603">
        <ele>104.43762</ele>
        <time>2012-10-22T09:04:58Z</time>
      </trkpt>
      <trkpt lat="43.49648" lon="6.5759">
        <ele>103.49712</ele>
        <time>2012-10-22T09:05:01Z</time>
      </trkpt>
      <trkpt lat="43.49626" lon="6.57583">
        <ele>102.303474</ele>
        <time>2012-10-22T09:05:04Z</time>
      </trkpt>
      <trkpt lat="43.49606" lon="6.57572">
        <ele>101.44053</ele>
        <time>2012-10-22T09:05:07Z</time>
      </trkpt>
      <trkpt lat="43.49587" lon="6.57563">
        <ele>100.717094</ele>
        <time>2012-10-22T09:05:10Z</time>
      </trkpt>
      <trkpt lat="43.49571" lon="6.57547">
        <ele>99.86503</ele>
        <time>2012-10-22T09:05:13Z</time>
      </trkpt>
      <trkpt lat="43.49552" lon="6.57528">
        <ele>98.74635</ele>
        <time>2012-10-22T09:05:17Z</time>
      </trkpt>
      <trkpt lat="43.49537" lon="6.57511">
        <ele>97.189865</ele>
        <time>2012-10-22T09:05:20Z</time>
      </trkpt>
      <trkpt lat="43.49517" lon="6.57497">
        <ele>96.267105</ele>
        <time>2012-10-22T09:05:24Z</time>
      </trkpt>
      <trkpt lat="43.49499" lon="6.57497">
        <ele>94.02982</ele>
        <time>2012-10-22T09:05:28Z</time>
      </trkpt>
      <trkpt lat="43.49479" lon="6.57499">
        <ele>91.022705</ele>
        <time>2012-10-22T09:05:33Z</time>
      </trkpt>
      <trkpt lat="43.49458" lon="6.57503">
        <ele>92.49156</ele>
        <time>2012-10-22T09:05:37Z</time>
      </trkpt>
      <trkpt lat="43.49438" lon="6.57506">
        <ele>93.14772</ele>
        <time>2012-10-22T09:05:41Z</time>
      </trkpt>
      <trkpt lat="43.49416" lon="6.57506">
        <ele>93.19908</ele>
        <time>2012-10-22T09:05:45Z</time>
      </trkpt>
      <trkpt lat="43.49396" lon="6.57503">
        <ele>90.84962</ele>
        <time>2012-10-22T09:05:48Z</time>
      </trkpt>
      <trkpt lat="43.49377" lon="6.57496">
        <ele>89.63968</ele>
        <time>2012-10-22T09:05:51Z</time>
      </trkpt>
      <trkpt lat="43.49353" lon="6.5749">
        <ele>88.00424</ele>
        <time>2012-10-22T09:05:54Z</time>
      </trkpt>
      <trkpt lat="43.49333" lon="6.57498">
        <ele>87.14241</ele>
        <time>2012-10-22T09:05:57Z</time>
      </trkpt>
      <trkpt lat="43.49314" lon="6.57507">
        <ele>87.77883</ele>
        <time>2012-10-22T09:06:00Z</time>
      </trkpt>
      <trkpt lat="43.49294" lon="6.57513">
        <ele>89.50044</ele>
        <time>2012-10-22T09:06:03Z</time>
      </trkpt>
      <trkpt lat="43.49275" lon="6.57528">
        <ele>88.861465</ele>
        <time>2012-10-22T09:06:07Z</time>
      </trkpt>
      <trkpt lat="43.49261" lon="6.57548">
        <ele>87.77648</ele>
        <time>2012-10-22T09:06:11Z</time>
      </trkpt>
      <trkpt lat="43.49243" lon="6.57569">
        <ele>85.82771</ele>
        <time>2012-10-22T09:06:15Z</time>
      </trkpt>
      <trkpt lat="43.49232" lon="6.57595">
        <ele>86.864815</ele>
        <time>2012-10-22T09:06:18Z</time>
      </trkpt>
      <trkpt lat="43.49212" lon="6.5761">
        <ele>87.992386</ele>
        <time>2012-10-22T09:06:22Z</time>
      </trkpt>
      <trkpt lat="43.49194" lon="6.57598">
        <ele>87.73116</ele>
        <time>2012-10-22T09:06:25Z</time>
      </trkpt>
      <trkpt lat="43.49174" lon="6.5759">
        <ele>88.66783</ele>
        <time>2012-10-22T09:06:28Z</time>
      </trkpt>
      <trkpt lat="43.4915" lon="6.57589">
        <ele>88.64112</ele>
        <time>2012-10-22T09:06:31Z</time>
      </trkpt>
      <trkpt lat="43.49127" lon="6.57586">
        <ele>88.08297</ele>
        <time>2012-10-22T09:06:34Z</time>
      </trkpt>
      <trkpt lat="43.49106" lon="6.57581">
        <ele>90.33188</ele>
        <time>2012-10-22T09:06:37Z</time>
      </trkpt>
      <trkpt lat="43.49089" lon="6.57573">
        <ele>90.390015</ele>
        <time>2012-10-22T09:06:40Z</time>
      </trkpt>
      <trkpt lat="43.49082" lon="6.57549">
        <ele>88.66907</ele>
        <time>2012-10-22T09:06:47Z</time>
      </trkpt>
      <trkpt lat="43.49073" lon="6.57527">
        <ele>89.2828</ele>
        <time>2012-10-22T09:06:52Z</time>
      </trkpt>
      <trkpt lat="43.49062" lon="6.57507">
        <ele>90.6012</ele>
        <time>2012-10-22T09:06:56Z</time>
      </trkpt>
      <trkpt lat="43.49052" lon="6.57481">
        <ele>91.33137</ele>
        <time>2012-10-22T09:07:02Z</time>
      </trkpt>
      <trkpt lat="43.49047" lon="6.57455">
        <ele>91.83922</ele>
        <time>2012-10-22T09:07:06Z</time>
      </trkpt>
      <trkpt lat="43.49029" lon="6.57431">
        <ele>92.48819</ele>
        <time>2012-10-22T09:07:10Z</time>
      </trkpt>
      <trkpt lat="43.4901" lon="6.57418">
        <ele>88.767746</ele>
        <time>2012-10-22T09:07:14Z</time>
      </trkpt>
      <trkpt lat="43.48992" lon="6.57414">
        <ele>87.464516</ele>
        <time>2012-10-22T09:07:17Z</time>
      </trkpt>
      <trkpt lat="43.48969" lon="6.57423">
        <ele>87.33448</ele>
        <time>2012-10-22T09:07:21Z</time>
      </trkpt>
      <trkpt lat="43.48954" lon="6.57446">
        <ele>86.75036</ele>
        <time>2012-10-22T09:07:25Z</time>
      </trkpt>
      <trkpt lat="43.48939" lon="6.5743">
        <ele>82.80737</ele>
        <time>2012-10-22T09:07:31Z</time>
      </trkpt>
      <trkpt lat="43.48934" lon="6.57403">
        <ele>83.971115</ele>
        <time>2012-10-22T09:07:38Z</time>
      </trkpt>
      <trkpt lat="43.48926" lon="6.57379">
        <ele>86.18227</ele>
        <time>2012-10-22T09:07:42Z</time>
      </trkpt>
      <trkpt lat="43.48912" lon="6.57358">
        <ele>87.85845</ele>
        <time>2012-10-22T09:07:46Z</time>
      </trkpt>
      <trkpt lat="43.48897" lon="6.57338">
        <ele>89.40834</ele>
        <time>2012-10-22T09:07:50Z</time>
      </trkpt>
      <trkpt lat="43.48881" lon="6.57321">
        <ele>91.07452</ele>
        <time>2012-10-22T09:07:54Z</time>
      </trkpt>
      <trkpt lat="43.48866" lon="6.57304">
        <ele>91.70326</ele>
        <time>2012-10-22T09:07:58Z</time>
      </trkpt>
      <trkpt lat="43.48843" lon="6.57296">
        <ele>91.72252</ele>
        <time>2012-10-22T09:08:02Z</time>
      </trkpt>
      <trkpt lat="43.48824" lon="6.57296">
        <ele>92.21106</ele>
        <time>2012-10-22T09:08:05Z</time>
      </trkpt>
      <trkpt lat="43.48806" lon="6.57304">
        <ele>91.76092</ele>
        <time>2012-10-22T09:08:08Z</time>
      </trkpt>
      <trkpt lat="43.48787" lon="6.57316">
        <ele>92.14914</ele>
        <time>2012-10-22T09:08:11Z</time>
      </trkpt>
      <trkpt lat="43.48768" lon="6.57328">
        <ele>92.78167</ele>
        <time>2012-10-22T09:08:14Z</time>
      </trkpt>
      <trkpt lat="43.4875" lon="6.57339">
        <ele>90.986015</ele>
        <time>2012-10-22T09:08:17Z</time>
      </trkpt>
      <trkpt lat="43.48732" lon="6.57348">
        <ele>92.38473</ele>
        <time>2012-10-22T09:08:20Z</time>
      </trkpt>
      <trkpt lat="43.48714" lon="6.5737">
        <ele>92.664696</ele>
        <time>2012-10-22T09:08:24Z</time>
      </trkpt>
      <trkpt lat="43.48706" lon="6.57403">
        <ele>92.35854</ele>
        <time>2012-10-22T09:08:27Z</time>
      </trkpt>
      <trkpt lat="43.48697" lon="6.57427">
        <ele>90.74501</ele>
        <time>2012-10-22T09:08:30Z</time>
      </trkpt>
      <trkpt lat="43.4868" lon="6.57412">
        <ele>90.3451</ele>
        <time>2012-10-22T09:08:34Z</time>
      </trkpt>
      <trkpt lat="43.48664" lon="6.57397">
        <ele>91.48934</ele>
        <time>2012-10-22T09:08:37Z</time>
      </trkpt>
      <trkpt lat="43.48649" lon="6.57382">
        <ele>91.78457</ele>
        <time>2012-10-22T09:08:40Z</time>
      </trkpt>
      <trkpt lat="43.48638" lon="6.57358">
        <ele>91.28411</ele>
        <time>2012-10-22T09:08:43Z</time>
      </trkpt>
      <trkpt lat="43.48622" lon="6.57336">
        <ele>91.30736</ele>
        <time>2012-10-22T09:08:46Z</time>
      </trkpt>
      <trkpt lat="43.48604" lon="6.5731">
        <ele>88.270294</ele>
        <time>2012-10-22T09:08:49Z</time>
      </trkpt>
      <trkpt lat="43.48592" lon="6.57279">
        <ele>86.379654</ele>
        <time>2012-10-22T09:08:52Z</time>
      </trkpt>
      <trkpt lat="43.48587" lon="6.57248">
        <ele>84.67579</ele>
        <time>2012-10-22T09:08:55Z</time>
      </trkpt>
      <trkpt lat="43.48584" lon="6.57223">
        <ele>83.8476</ele>
        <time>2012-10-22T09:08:58Z</time>
      </trkpt>
      <trkpt lat="43.4858" lon="6.57193">
        <ele>83.52946</ele>
        <time>2012-10-22T09:09:01Z</time>
      </trkpt>
      <trkpt lat="43.4857" lon="6.57166">
        <ele>83.254616</ele>
        <time>2012-10-22T09:09:04Z</time>
      </trkpt>
      <trkpt lat="43.48553" lon="6.57144">
        <ele>80.93554</ele>
        <time>2012-10-22T09:09:07Z</time>
      </trkpt>
      <trkpt lat="43.48532" lon="6.5713">
        <ele>80.06656</ele>
        <time>2012-10-22T09:09:10Z</time>
      </trkpt>
      <trkpt lat="43.4851" lon="6.57121">
        <ele>80.4187</ele>
        <time>2012-10-22T09:09:13Z</time>
      </trkpt>
      <trkpt lat="43.48487" lon="6.57127">
        <ele>81.39539</ele>
        <time>2012-10-22T09:09:16Z</time>
      </trkpt>
      <trkpt lat="43.48467" lon="6.57135">
        <ele>82.76056</ele>
        <time>2012-10-22T09:09:19Z</time>
      </trkpt>
      <trkpt lat="43.48448" lon="6.57136">
        <ele>83.32213</ele>
        <time>2012-10-22T09:09:25Z</time>
      </trkpt>
      <trkpt lat="43.48434" lon="6.57153">
        <ele>91.66114</ele>
        <time>2012-10-22T09:11:44Z</time>
      </trkpt>
      <trkpt lat="43.48416" lon="6.57149">
        <ele>95.72309</ele>
        <time>2012-10-22T09:11:52Z</time>
      </trkpt>
      <trkpt lat="43.48396" lon="6.57148">
        <ele>94.34963</ele>
        <time>2012-10-22T09:11:59Z</time>
      </trkpt>
      <trkpt lat="43.48377" lon="6.57153">
        <ele>93.33004</ele>
        <time>2012-10-22T09:12:04Z</time>
      </trkpt>
      <trkpt lat="43.48362" lon="6.5717">
        <ele>92.32359</ele>
        <time>2012-10-22T09:12:11Z</time>
      </trkpt>
      <trkpt lat="43.48348" lon="6.5719">
        <ele>88.274635</ele>
        <time>2012-10-22T09:12:17Z</time>
      </trkpt>
      <trkpt lat="43.4833" lon="6.57198">
        <ele>86.69883</ele>
        <time>2012-10-22T09:12:24Z</time>
      </trkpt>
      <trkpt lat="43.48312" lon="6.57204">
        <ele>87.502106</ele>
        <time>2012-10-22T09:12:53Z</time>
      </trkpt>
      <trkpt lat="43.48292" lon="6.5721">
        <ele>89.9444</ele>
        <time>2012-10-22T09:13:08Z</time>
      </trkpt>
      <trkpt lat="43.48271" lon="6.57218">
        <ele>90.03625</ele>
        <time>2012-10-22T09:13:14Z</time>
      </trkpt>
      <trkpt lat="43.48254" lon="6.57233">
        <ele>90.1961</ele>
        <time>2012-10-22T09:13:19Z</time>
      </trkpt>
      <trkpt lat="43.48238" lon="6.57246">
        <ele>89.51908</ele>
        <time>2012-10-22T09:13:23Z</time>
      </trkpt>
      <trkpt lat="43.4822" lon="6.57241">
        <ele>89.584114</ele>
        <time>2012-10-22T09:13:28Z</time>
      </trkpt>
      <trkpt lat="43.48203" lon="6.57227">
        <ele>88.304596</ele>
        <time>2012-10-22T09:13:35Z</time>
      </trkpt>
      <trkpt lat="43.48184" lon="6.57223">
        <ele>85.87745</ele>
        <time>2012-10-22T09:13:44Z</time>
      </trkpt>
      <trkpt lat="43.48166" lon="6.57228">
        <ele>84.55314</ele>
        <time>2012-10-22T09:13:50Z</time>
      </trkpt>
      <trkpt lat="43.48145" lon="6.57225">
        <ele>85.160706</ele>
        <time>2012-10-22T09:13:56Z</time>
      </trkpt>
      <trkpt lat="43.48125" lon="6.57224">
        <ele>87.04009</ele>
        <time>2012-10-22T09:14:01Z</time>
      </trkpt>
      <trkpt lat="43.48102" lon="6.57224">
        <ele>85.43487</ele>
        <time>2012-10-22T09:14:07Z</time>
      </trkpt>
      <trkpt lat="43.48084" lon="6.57235">
        <ele>85.30947</ele>
        <time>2012-10-22T09:14:11Z</time>
      </trkpt>
      <trkpt lat="43.48065" lon="6.57241">
        <ele>84.92995</ele>
        <time>2012-10-22T09:14:15Z</time>
      </trkpt>
      <trkpt lat="43.48042" lon="6.57244">
        <ele>83.99737</ele>
        <time>2012-10-22T09:14:19Z</time>
      </trkpt>
      <trkpt lat="43.48018" lon="6.57242">
        <ele>82.45229</ele>
        <time>2012-10-22T09:14:23Z</time>
      </trkpt>
      <trkpt lat="43.47998" lon="6.57231">
        <ele>83.61807</ele>
        <time>2012-10-22T09:14:28Z</time>
      </trkpt>
      <trkpt lat="43.4798" lon="6.57214">
        <ele>82.35078</ele>
        <time>2012-10-22T09:14:33Z</time>
      </trkpt>
      <trkpt lat="43.47964" lon="6.57203">
        <ele>82.44692</ele>
        <time>2012-10-22T09:14:37Z</time>
      </trkpt>
      <trkpt lat="43.47951" lon="6.57185">
        <ele>83.25547</ele>
        <time>2012-10-22T09:14:42Z</time>
      </trkpt>
      <trkpt lat="43.4797" lon="6.57173">
        <ele>81.62785</ele>
        <time>2012-10-22T09:14:49Z</time>
      </trkpt>
      <trkpt lat="43.47979" lon="6.5715">
        <ele>83.95256</ele>
        <time>2012-10-22T09:14:53Z</time>
      </trkpt>
      <trkpt lat="43.47997" lon="6.57136">
        <ele>84.552216</ele>
        <time>2012-10-22T09:14:58Z</time>
      </trkpt>
      <trkpt lat="43.48014" lon="6.57125">
        <ele>85.25676</ele>
        <time>2012-10-22T09:15:02Z</time>
      </trkpt>
      <trkpt lat="43.48028" lon="6.57099">
        <ele>84.95624</ele>
        <time>2012-10-22T09:15:06Z</time>
      </trkpt>
      <trkpt lat="43.48038" lon="6.57074">
        <ele>80.47053</ele>
        <time>2012-10-22T09:15:10Z</time>
      </trkpt>
      <trkpt lat="43.48044" lon="6.57049">
        <ele>77.55904</ele>
        <time>2012-10-22T09:15:14Z</time>
      </trkpt>
      <trkpt lat="43.48049" lon="6.5702">
        <ele>75.255005</ele>
        <time>2012-10-22T09:15:18Z</time>
      </trkpt>
      <trkpt lat="43.48052" lon="6.56995">
        <ele>75.08069</ele>
        <time>2012-10-22T09:15:22Z</time>
      </trkpt>
      <trkpt lat="43.48056" lon="6.56966">
        <ele>75.62755</ele>
        <time>2012-10-22T09:15:27Z</time>
      </trkpt>
      <trkpt lat="43.4806" lon="6.56939">
        <ele>77.93603</ele>
        <time>2012-10-22T09:15:32Z</time>
      </trkpt>
      <trkpt lat="43.48051" lon="6.56917">
        <ele>77.30122</ele>
        <time>2012-10-22T09:15:37Z</time>
      </trkpt>
      <trkpt lat="43.48031" lon="6.56903">
        <ele>78.470894</ele>
        <time>2012-10-22T09:15:42Z</time>
      </trkpt>
      <trkpt lat="43.48038" lon="6.56876">
        <ele>78.54925</ele>
        <time>2012-10-22T09:15:47Z</time>
      </trkpt>
      <trkpt lat="43.48046" lon="6.5685">
        <ele>79.61519</ele>
        <time>2012-10-22T09:15:51Z</time>
      </trkpt>
      <trkpt lat="43.48053" lon="6.56823">
        <ele>75.9759</ele>
        <time>2012-10-22T09:15:55Z</time>
      </trkpt>
      <trkpt lat="43.4806" lon="6.568">
        <ele>72.92988</ele>
        <time>2012-10-22T09:15:59Z</time>
      </trkpt>
      <trkpt lat="43.4806" lon="6.56773">
        <ele>78.05588</ele>
        <time>2012-10-22T09:16:05Z</time>
      </trkpt>
      <trkpt lat="43.48042" lon="6.56758">
        <ele>79.866776</ele>
        <time>2012-10-22T09:16:10Z</time>
      </trkpt>
      <trkpt lat="43.48023" lon="6.56749">
        <ele>81.6676</ele>
        <time>2012-10-22T09:16:15Z</time>
      </trkpt>
      <trkpt lat="43.48005" lon="6.5675">
        <ele>82.35178</ele>
        <time>2012-10-22T09:16:20Z</time>
      </trkpt>
      <trkpt lat="43.47988" lon="6.56763">
        <ele>81.53318</ele>
        <time>2012-10-22T09:16:24Z</time>
      </trkpt>
      <trkpt lat="43.47974" lon="6.56784">
        <ele>82.57495</ele>
        <time>2012-10-22T09:16:28Z</time>
      </trkpt>
      <trkpt lat="43.47959" lon="6.56811">
        <ele>84.06473</ele>
        <time>2012-10-22T09:16:32Z</time>
      </trkpt>
      <trkpt lat="43.47941" lon="6.56817">
        <ele>86.06345</ele>
        <time>2012-10-22T09:16:36Z</time>
      </trkpt>
      <trkpt lat="43.47923" lon="6.56803">
        <ele>83.71148</ele>
        <time>2012-10-22T09:16:40Z</time>
      </trkpt>
      <trkpt lat="43.47907" lon="6.56786">
        <ele>83.33059</ele>
        <time>2012-10-22T09:16:44Z</time>
      </trkpt>
      <trkpt lat="43.47894" lon="6.56761">
        <ele>84.51085</ele>
        <time>2012-10-22T09:16:48Z</time>
      </trkpt>
      <trkpt lat="43.47888" lon="6.56736">
        <ele>85.44989</ele>
        <time>2012-10-22T09:16:51Z</time>
      </trkpt>
      <trkpt lat="43.47882" lon="6.56707">
        <ele>83.2986</ele>
        <time>2012-10-22T09:16:55Z</time>
      </trkpt>
      <trkpt lat="43.47877" lon="6.56679">
        <ele>81.91479</ele>
        <time>2012-10-22T09:16:59Z</time>
      </trkpt>
      <trkpt lat="43.47868" lon="6.56653">
        <ele>82.30507</ele>
        <time>2012-10-22T09:17:03Z</time>
      </trkpt>
      <trkpt lat="43.47851" lon="6.56637">
        <ele>84.381935</ele>
        <time>2012-10-22T09:17:09Z</time>
      </trkpt>
      <trkpt lat="43.47832" lon="6.56643">
        <ele>85.81616</ele>
        <time>2012-10-22T09:17:13Z</time>
      </trkpt>
      <trkpt lat="43.47813" lon="6.5665">
        <ele>84.34808</ele>
        <time>2012-10-22T09:17:17Z</time>
      </trkpt>
      <trkpt lat="43.47794" lon="6.56654">
        <ele>83.86014</ele>
        <time>2012-10-22T09:17:21Z</time>
      </trkpt>
      <trkpt lat="43.47774" lon="6.56656">
        <ele>83.38153</ele>
        <time>2012-10-22T09:17:25Z</time>
      </trkpt>
      <trkpt lat="43.47753" lon="6.56656">
        <ele>83.50744</ele>
        <time>2012-10-22T09:17:29Z</time>
      </trkpt>
      <trkpt lat="43.47734" lon="6.56654">
        <ele>83.01993</ele>
        <time>2012-10-22T09:17:33Z</time>
      </trkpt>
      <trkpt lat="43.47733" lon="6.56629">
        <ele>81.30258</ele>
        <time>2012-10-22T09:17:38Z</time>
      </trkpt>
      <trkpt lat="43.4774" lon="6.566">
        <ele>80.783714</ele>
        <time>2012-10-22T09:17:43Z</time>
      </trkpt>
      <trkpt lat="43.47743" lon="6.56571">
        <ele>81.21528</ele>
        <time>2012-10-22T09:17:48Z</time>
      </trkpt>
      <trkpt lat="43.47742" lon="6.56541">
        <ele>80.72589</ele>
        <time>2012-10-22T09:17:53Z</time>
      </trkpt>
      <trkpt lat="43.47739" lon="6.56514">
        <ele>82.959366</ele>
        <time>2012-10-22T09:17:58Z</time>
      </trkpt>
      <trkpt lat="43.4772" lon="6.56511">
        <ele>84.476685</ele>
        <time>2012-10-22T09:18:03Z</time>
      </trkpt>
      <trkpt lat="43.477" lon="6.56518">
        <ele>59.232857</ele>
        <time>2012-10-22T09:18:07Z</time>
      </trkpt>
      <trkpt lat="43.47683" lon="6.56528">
        <ele>17.86274</ele>
        <time>2012-10-22T09:18:11Z</time>
      </trkpt>
      <trkpt lat="43.4766" lon="6.56531">
        <ele>16.394186</ele>
        <time>2012-10-22T09:18:16Z</time>
      </trkpt>
      <trkpt lat="43.4764" lon="6.56532">
        <ele>35.24972</ele>
        <time>2012-10-22T09:18:20Z</time>
      </trkpt>
      <trkpt lat="43.47621" lon="6.56526">
        <ele>61.661045</ele>
        <time>2012-10-22T09:18:24Z</time>
      </trkpt>
      <trkpt lat="43.47636" lon="6.56511">
        <ele>81.116875</ele>
        <time>2012-10-22T09:18:36Z</time>
      </trkpt>
      <trkpt lat="43.47658" lon="6.56513">
        <ele>81.82754</ele>
        <time>2012-10-22T09:18:41Z</time>
      </trkpt>
      <trkpt lat="43.47674" lon="6.56494">
        <ele>81.85361</ele>
        <time>2012-10-22T09:18:46Z</time>
      </trkpt>
      <trkpt lat="43.47673" lon="6.56465">
        <ele>83.2154</ele>
        <time>2012-10-22T09:18:50Z</time>
      </trkpt>
      <trkpt lat="43.47674" lon="6.56439">
        <ele>85.31425</ele>
        <time>2012-10-22T09:18:54Z</time>
      </trkpt>
      <trkpt lat="43.47674" lon="6.56414">
        <ele>88.298645</ele>
        <time>2012-10-22T09:18:58Z</time>
      </trkpt>
      <trkpt lat="43.47675" lon="6.56388">
        <ele>90.33278</ele>
        <time>2012-10-22T09:19:02Z</time>
      </trkpt>
      <trkpt lat="43.47677" lon="6.56361">
        <ele>90.60139</ele>
        <time>2012-10-22T09:19:06Z</time>
      </trkpt>
      <trkpt lat="43.47674" lon="6.56332">
        <ele>92.18471</ele>
        <time>2012-10-22T09:19:11Z</time>
      </trkpt>
      <trkpt lat="43.47652" lon="6.56324">
        <ele>93.80164</ele>
        <time>2012-10-22T09:19:16Z</time>
      </trkpt>
      <trkpt lat="43.47634" lon="6.56318">
        <ele>94.183334</ele>
        <time>2012-10-22T09:19:20Z</time>
      </trkpt>
      <trkpt lat="43.47615" lon="6.56315">
        <ele>93.37441</ele>
        <time>2012-10-22T09:19:24Z</time>
      </trkpt>
      <trkpt lat="43.47597" lon="6.56307">
        <ele>94.53514</ele>
        <time>2012-10-22T09:19:29Z</time>
      </trkpt>
      <trkpt lat="43.47599" lon="6.5628">
        <ele>94.20609</ele>
        <time>2012-10-22T09:19:34Z</time>
      </trkpt>
      <trkpt lat="43.47601" lon="6.56254">
        <ele>93.13552</ele>
        <time>2012-10-22T09:19:38Z</time>
      </trkpt>
      <trkpt lat="43.47603" lon="6.56227">
        <ele>92.71087</ele>
        <time>2012-10-22T09:19:43Z</time>
      </trkpt>
      <trkpt lat="43.47596" lon="6.56201">
        <ele>91.12766</ele>
        <time>2012-10-22T09:19:50Z</time>
      </trkpt>
      <trkpt lat="43.47576" lon="6.56193">
        <ele>92.50393</ele>
        <time>2012-10-22T09:19:55Z</time>
      </trkpt>
      <trkpt lat="43.47558" lon="6.56187">
        <ele>92.70632</ele>
        <time>2012-10-22T09:19:59Z</time>
      </trkpt>
      <trkpt lat="43.47542" lon="6.56176">
        <ele>89.91868</ele>
        <time>2012-10-22T09:20:05Z</time>
      </trkpt>
      <trkpt lat="43.47521" lon="6.56174">
        <ele>91.7613</ele>
        <time>2012-10-22T09:20:16Z</time>
      </trkpt>
      <trkpt lat="43.47499" lon="6.56181">
        <ele>92.57128</ele>
        <time>2012-10-22T09:20:21Z</time>
      </trkpt>
      <trkpt lat="43.47477" lon="6.56188">
        <ele>88.868256</ele>
        <time>2012-10-22T09:20:25Z</time>
      </trkpt>
      <trkpt lat="43.47459" lon="6.56194">
        <ele>88.47567</ele>
        <time>2012-10-22T09:20:28Z</time>
      </trkpt>
      <trkpt lat="43.47441" lon="6.56201">
        <ele>90.294426</ele>
        <time>2012-10-22T09:20:31Z</time>
      </trkpt>
      <trkpt lat="43.47419" lon="6.56211">
        <ele>92.331436</ele>
        <time>2012-10-22T09:20:35Z</time>
      </trkpt>
      <trkpt lat="43.47401" lon="6.56221">
        <ele>91.52674</ele>
        <time>2012-10-22T09:20:39Z</time>
      </trkpt>
      <trkpt lat="43.47384" lon="6.56211">
        <ele>93.39899</ele>
        <time>2012-10-22T09:20:46Z</time>
      </trkpt>
      <trkpt lat="43.47374" lon="6.5619">
        <ele>93.76364</ele>
        <time>2012-10-22T09:20:52Z</time>
      </trkpt>
      <trkpt lat="43.47363" lon="6.56168">
        <ele>94.706604</ele>
        <time>2012-10-22T09:20:57Z</time>
      </trkpt>
      <trkpt lat="43.47348" lon="6.56147">
        <ele>95.33743</ele>
        <time>2012-10-22T09:21:03Z</time>
      </trkpt>
      <trkpt lat="43.47334" lon="6.56133">
        <ele>96.67089</ele>
        <time>2012-10-22T09:21:08Z</time>
      </trkpt>
      <trkpt lat="43.47316" lon="6.56119">
        <ele>97.9219</ele>
        <time>2012-10-22T09:21:13Z</time>
      </trkpt>
      <trkpt lat="43.47298" lon="6.56107">
        <ele>94.722244</ele>
        <time>2012-10-22T09:21:20Z</time>
      </trkpt>
      <trkpt lat="43.47291" lon="6.56082">
        <ele>92.79693</ele>
        <time>2012-10-22T09:21:29Z</time>
      </trkpt>
      <trkpt lat="43.47292" lon="6.56052">
        <ele>95.08764</ele>
        <time>2012-10-22T09:21:35Z</time>
      </trkpt>
      <trkpt lat="43.47293" lon="6.56025">
        <ele>94.34414</ele>
        <time>2012-10-22T09:21:39Z</time>
      </trkpt>
      <trkpt lat="43.47293" lon="6.56">
        <ele>93.42529</ele>
        <time>2012-10-22T09:21:43Z</time>
      </trkpt>
      <trkpt lat="43.47293" lon="6.55975">
        <ele>93.71269</ele>
        <time>2012-10-22T09:21:47Z</time>
      </trkpt>
      <trkpt lat="43.47293" lon="6.5595">
        <ele>91.45988</ele>
        <time>2012-10-22T09:21:51Z</time>
      </trkpt>
      <trkpt lat="43.47297" lon="6.55924">
        <ele>89.23926</ele>
        <time>2012-10-22T09:21:55Z</time>
      </trkpt>
      <trkpt lat="43.47303" lon="6.559">
        <ele>90.22804</ele>
        <time>2012-10-22T09:21:59Z</time>
      </trkpt>
      <trkpt lat="43.47308" lon="6.5587">
        <ele>89.69572</ele>
        <time>2012-10-22T09:22:04Z</time>
      </trkpt>
      <trkpt lat="43.47314" lon="6.55841">
        <ele>88.28717</ele>
        <time>2012-10-22T09:22:09Z</time>
      </trkpt>
      <trkpt lat="43.47321" lon="6.55812">
        <ele>88.826935</ele>
        <time>2012-10-22T09:22:14Z</time>
      </trkpt>
      <trkpt lat="43.47329" lon="6.55783">
        <ele>89.133736</ele>
        <time>2012-10-22T09:22:19Z</time>
      </trkpt>
      <trkpt lat="43.47337" lon="6.55756">
        <ele>93.26514</ele>
        <time>2012-10-22T09:22:24Z</time>
      </trkpt>
      <trkpt lat="43.47345" lon="6.55729">
        <ele>94.17718</ele>
        <time>2012-10-22T09:22:29Z</time>
      </trkpt>
      <trkpt lat="43.47353" lon="6.55701">
        <ele>94.62408</ele>
        <time>2012-10-22T09:22:34Z</time>
      </trkpt>
      <trkpt lat="43.4736" lon="6.55673">
        <ele>97.369774</ele>
        <time>2012-10-22T09:22:39Z</time>
      </trkpt>
      <trkpt lat="43.47368" lon="6.55645">
        <ele>98.257675</ele>
        <time>2012-10-22T09:22:44Z</time>
      </trkpt>
      <trkpt lat="43.47375" lon="6.55616">
        <ele>98.31115</ele>
        <time>2012-10-22T09:22:49Z</time>
      </trkpt>
      <trkpt lat="43.47381" lon="6.55591">
        <ele>97.26642</ele>
        <time>2012-10-22T09:22:53Z</time>
      </trkpt>
      <trkpt lat="43.47386" lon="6.55566">
        <ele>96.59211</ele>
        <time>2012-10-22T09:22:57Z</time>
      </trkpt>
      <trkpt lat="43.47393" lon="6.55538">
        <ele>94.67172</ele>
        <time>2012-10-22T09:23:01Z</time>
      </trkpt>
      <trkpt lat="43.47379" lon="6.5552">
        <ele>92.81858</ele>
        <time>2012-10-22T09:23:06Z</time>
      </trkpt>
      <trkpt lat="43.47356" lon="6.55532">
        <ele>92.22385</ele>
        <time>2012-10-22T09:23:10Z</time>
      </trkpt>
      <trkpt lat="43.47338" lon="6.55543">
        <ele>92.78194</ele>
        <time>2012-10-22T09:23:13Z</time>
      </trkpt>
      <trkpt lat="43.4732" lon="6.55552">
        <ele>94.36113</ele>
        <time>2012-10-22T09:23:16Z</time>
      </trkpt>
      <trkpt lat="43.47301" lon="6.55563">
        <ele>95.5586</ele>
        <time>2012-10-22T09:23:19Z</time>
      </trkpt>
      <trkpt lat="43.4728" lon="6.55574">
        <ele>97.65753</ele>
        <time>2012-10-22T09:23:22Z</time>
      </trkpt>
      <trkpt lat="43.47261" lon="6.55583">
        <ele>98.43365</ele>
        <time>2012-10-22T09:23:25Z</time>
      </trkpt>
      <trkpt lat="43.47244" lon="6.55592">
        <ele>99.19857</ele>
        <time>2012-10-22T09:23:28Z</time>
      </trkpt>
      <trkpt lat="43.47227" lon="6.55606">
        <ele>99.78158</ele>
        <time>2012-10-22T09:23:32Z</time>
      </trkpt>
      <trkpt lat="43.47226" lon="6.55634">
        <ele>97.29875</ele>
        <time>2012-10-22T09:23:37Z</time>
      </trkpt>
      <trkpt lat="43.4722" lon="6.55608">
        <ele>99.40612</ele>
        <time>2012-10-22T09:28:57Z</time>
      </trkpt>
      <trkpt lat="43.47205" lon="6.55588">
        <ele>99.283875</ele>
        <time>2012-10-22T09:29:02Z</time>
      </trkpt>
      <trkpt lat="43.4719" lon="6.55564">
        <ele>97.37108</ele>
        <time>2012-10-22T09:29:07Z</time>
      </trkpt>
      <trkpt lat="43.47178" lon="6.55543">
        <ele>96.433815</ele>
        <time>2012-10-22T09:29:11Z</time>
      </trkpt>
      <trkpt lat="43.47163" lon="6.5553">
        <ele>93.85992</ele>
        <time>2012-10-22T09:29:15Z</time>
      </trkpt>
      <trkpt lat="43.47141" lon="6.55529">
        <ele>95.26266</ele>
        <time>2012-10-22T09:29:20Z</time>
      </trkpt>
      <trkpt lat="43.47122" lon="6.55539">
        <ele>97.23936</ele>
        <time>2012-10-22T09:29:24Z</time>
      </trkpt>
      <trkpt lat="43.47104" lon="6.55554">
        <ele>97.57183</ele>
        <time>2012-10-22T09:29:28Z</time>
      </trkpt>
      <trkpt lat="43.47084" lon="6.5557">
        <ele>96.74343</ele>
        <time>2012-10-22T09:29:32Z</time>
      </trkpt>
      <trkpt lat="43.47066" lon="6.55585">
        <ele>96.67273</ele>
        <time>2012-10-22T09:29:36Z</time>
      </trkpt>
      <trkpt lat="43.47049" lon="6.556">
        <ele>96.89645</ele>
        <time>2012-10-22T09:29:40Z</time>
      </trkpt>
      <trkpt lat="43.47031" lon="6.55614">
        <ele>96.96724</ele>
        <time>2012-10-22T09:29:44Z</time>
      </trkpt>
      <trkpt lat="43.47013" lon="6.55628">
        <ele>97.673225</ele>
        <time>2012-10-22T09:29:48Z</time>
      </trkpt>
      <trkpt lat="43.46996" lon="6.55642">
        <ele>97.89661</ele>
        <time>2012-10-22T09:29:52Z</time>
      </trkpt>
      <trkpt lat="43.4698" lon="6.55655">
        <ele>97.28369</ele>
        <time>2012-10-22T09:29:56Z</time>
      </trkpt>
      <trkpt lat="43.46974" lon="6.55682">
        <ele>97.06732</ele>
        <time>2012-10-22T09:30:01Z</time>
      </trkpt>
      <trkpt lat="43.4698" lon="6.55708">
        <ele>96.33238</ele>
        <time>2012-10-22T09:30:06Z</time>
      </trkpt>
      <trkpt lat="43.46992" lon="6.55727">
        <ele>95.31618</ele>
        <time>2012-10-22T09:30:11Z</time>
      </trkpt>
      <trkpt lat="43.47013" lon="6.55721">
        <ele>93.73421</ele>
        <time>2012-10-22T09:30:16Z</time>
      </trkpt>
      <trkpt lat="43.47031" lon="6.55734">
        <ele>92.96588</ele>
        <time>2012-10-22T09:30:22Z</time>
      </trkpt>
      <trkpt lat="43.47053" lon="6.5573">
        <ele>89.134796</ele>
        <time>2012-10-22T09:30:28Z</time>
      </trkpt>
      <trkpt lat="43.4707" lon="6.55711">
        <ele>90.93726</ele>
        <time>2012-10-22T09:30:33Z</time>
      </trkpt>
      <trkpt lat="43.47066" lon="6.55686">
        <ele>94.209724</ele>
        <time>2012-10-22T09:30:38Z</time>
      </trkpt>
      <trkpt lat="43.47059" lon="6.55661">
        <ele>93.73215</ele>
        <time>2012-10-22T09:30:44Z</time>
      </trkpt>
      <trkpt lat="43.47074" lon="6.55646">
        <ele>89.08229</ele>
        <time>2012-10-22T09:30:51Z</time>
      </trkpt>
      <trkpt lat="43.4708" lon="6.5567">
        <ele>86.436134</ele>
        <time>2012-10-22T09:31:15Z</time>
      </trkpt>
    </trkseg>
  </trk>
</gpx>